Provisional Data: Baldwin Creek near Lowman, NY


Please select a monitoring station.
Please select start date.
Please select start date.

Toggle Unit: C/F Toggle Unit: C/F
Sample Time Temperature (C) Temperature (F) Specific Conductivity (mS/cm) pH   Turbidity (NTU+) DO (mg/L)
4/13/2022 12:00:00 AM 10.21 50.378 0.13 7.16 11.77 10.56
4/13/2022 12:15:00 AM 10.06 50.108 0.13 7.15 12.87 10.59
4/13/2022 12:30:00 AM 9.92 49.856 0.131 7.15 11.45 10.62
4/13/2022 12:45:00 AM 9.78 49.604 0.131 7.17 13.23 10.65
4/13/2022 1:00:00 AM 9.64 49.352 0.131 7.14 11.41 10.7
4/13/2022 1:15:00 AM 9.5 49.1 0.132 7.14 12.05 10.73
4/13/2022 1:30:00 AM 9.37 48.866 0.132 7.13 11.18 10.76
4/13/2022 1:45:00 AM 9.24 48.632 0.132 7.13 11.35 10.79
4/13/2022 2:00:00 AM 9.12 48.416 0.132 7.12 11.68 10.82
4/13/2022 2:15:00 AM 9 48.2 0.132 7.12 11.41 10.86
4/13/2022 2:30:00 AM 8.88 47.984 0.133 7.11 12.98 10.89
4/13/2022 2:45:00 AM 8.76 47.768 0.133 7.1 11.94 10.92
4/13/2022 3:00:00 AM 8.65 47.57 0.133 7.08 10.19 10.95
4/13/2022 3:15:00 AM 8.55 47.39 0.133 7.07 10.31 10.97
4/13/2022 3:30:00 AM 8.48 47.264 0.134 7.07 11.02 11
4/13/2022 3:45:00 AM 8.41 47.138 0.134 7.04 11.03 11.03
4/13/2022 4:00:00 AM 8.34 47.012 0.134 7.06 11.73 11.06
4/13/2022 4:15:00 AM 8.28 46.904 0.134 7.05 11.09 11.08
4/13/2022 4:30:00 AM 8.22 46.796 0.134 7.05 11.09 11.1
4/13/2022 4:45:00 AM 8.17 46.706 0.134 7.05 11.12 11.12
4/13/2022 5:00:00 AM 8.12 46.616 0.134 7.06 12.02 11.13
4/13/2022 5:15:00 AM 8.07 46.526 0.134 7.06 9.73 11.14
4/13/2022 5:30:00 AM 8.03 46.454 0.134 7.06 12.69 11.16
4/13/2022 5:45:00 AM 7.99 46.382 0.135 7.07 11.39 11.17
4/13/2022 6:00:00 AM 7.95 46.31 0.135 7.06 10.24 11.18
4/13/2022 6:15:00 AM 7.91 46.238 0.135 7.1 10.58 11.19
4/13/2022 6:30:00 AM 7.89 46.202 0.135 7.1 9.98 11.21
4/13/2022 6:45:00 AM 7.86 46.148 0.135 7.1 10.02 11.22
4/13/2022 7:00:00 AM 7.83 46.094 0.135 7.12 9.67 11.24
4/13/2022 7:15:00 AM 7.81 46.058 0.135 7.11 10.21 11.27
4/13/2022 7:30:00 AM 7.79 46.022 0.135 7.14 10.65 11.29
4/13/2022 7:45:00 AM 7.78 46.004 0.135 7.15 9.63 11.33
4/13/2022 8:00:00 AM 7.79 46.022 0.135 7.17 10.7 11.42
4/13/2022 8:15:00 AM 7.8 46.04 0.135 7.2 9.87 11.54
4/13/2022 8:30:00 AM 7.82 46.076 0.135 7.23 9.35 11.63
4/13/2022 8:45:00 AM 7.87 46.166 0.135 7.25 9.08 11.69
4/13/2022 9:00:00 AM 7.97 46.346 0.135 7.28 9.35 11.74
4/13/2022 9:15:00 AM 8.1 46.58 0.135 7.3 9.44 11.79
4/13/2022 9:30:00 AM 8.23 46.814 0.135 7.31 8.87 11.82
4/13/2022 9:45:00 AM 8.4 47.12 0.135 7.36 9.68 11.83
4/13/2022 10:00:00 AM 8.56 47.408 0.135 7.38 9.15 11.83
4/13/2022 10:15:00 AM 8.75 47.75 0.135 7.39 9.22 11.84
4/13/2022 10:30:00 AM 8.98 48.164 0.135 7.41 8.84 11.84
4/13/2022 10:45:00 AM 9.09 48.362 0.135 7.43 9.19 11.81
4/13/2022 11:00:00 AM 9.15 48.47 0.135 7.44 9.37 11.78
4/13/2022 11:15:00 AM 9.21 48.578 0.135 7.44 10.05 11.75
4/13/2022 11:30:00 AM 9.28 48.704 0.135 7.45 9.01 11.73
4/13/2022 11:45:00 AM 9.35 48.83 0.135 7.45 9.77 11.7
4/13/2022 12:00:00 PM 9.44 48.992 0.135 7.46 8.82 11.68
4/13/2022 12:15:00 PM 9.62 49.316 0.135 7.47 8.69 11.68
4/13/2022 12:30:00 PM 9.94 49.892 0.135 7.48 9.13 11.69
4/13/2022 12:45:00 PM 10.41 50.738 0.135 7.52 9.32 11.66
4/13/2022 1:00:00 PM 10.88 51.584 0.135 7.52 9.09 11.62
4/13/2022 1:15:00 PM 11.1 51.98 0.135 7.53 9.23 11.54
4/13/2022 1:30:00 PM 11.08 51.944 0.135 7.54 8.81 11.43
4/13/2022 1:45:00 PM 11.01 51.818 0.135 7.51 9.57 11.33
4/13/2022 2:00:00 PM 11.02 51.836 0.135 7.49 8.78 11.28
4/13/2022 2:15:00 PM 11.06 51.908 0.135 7.5 8.74 11.27
4/13/2022 2:30:00 PM 11.05 51.89 0.136 7.5 8.78 11.26
4/13/2022 2:45:00 PM 11.06 51.908 0.135 7.49 10.07 11.2
4/13/2022 3:00:00 PM 11.13 52.034 0.135 7.48 8.92 11.19
4/13/2022 3:15:00 PM 11.21 52.178 0.135 7.5 8.84 11.23
4/13/2022 3:30:00 PM 11.29 52.322 0.135 7.5 8.75 11.24
4/13/2022 3:45:00 PM 11.32 52.376 0.135 7.51 9.51 11.22
4/13/2022 4:00:00 PM 11.38 52.484 0.135 7.51 8.51 11.19
4/13/2022 4:15:00 PM 11.47 52.646 0.135 7.52 8.99 11.18
4/13/2022 4:30:00 PM 11.49 52.682 0.135 7.5 8.83 11.16
4/13/2022 4:45:00 PM 11.5 52.7 0.135 7.51 8.65 11.12
4/13/2022 5:00:00 PM 11.53 52.754 0.135 7.5 9.06 11.09
4/13/2022 5:15:00 PM 11.6 52.88 0.135 7.5 9.37 11.09
4/13/2022 5:30:00 PM 11.64 52.952 0.135 7.5 8.91 11.06
4/13/2022 5:45:00 PM 11.65 52.97 0.135 7.49 8.88 11
4/13/2022 6:00:00 PM 11.67 53.006 0.135 7.48 9.43 10.94
4/13/2022 6:15:00 PM 11.66 52.988 0.135 7.47 8.87 10.88
4/13/2022 6:30:00 PM 11.66 52.988 0.136 7.44 8.88 10.82
4/13/2022 6:45:00 PM 11.64 52.952 0.135 7.42 8.49 10.73
4/13/2022 7:00:00 PM 11.63 52.934 0.136 7.36 8.85 10.63
4/13/2022 7:15:00 PM 11.63 52.934 0.136 7.35 8.85 10.53
4/13/2022 7:30:00 PM 11.64 52.952 0.136 7.31 9.18 10.45
4/13/2022 7:45:00 PM 11.64 52.952 0.136 7.29 9.52 10.38
4/13/2022 8:00:00 PM 11.62 52.916 0.136 7.29 8.6 10.34
4/13/2022 8:15:00 PM 11.6 52.88 0.136 7.26 10.07 10.3
4/13/2022 8:30:00 PM 11.59 52.862 0.136 7.25 10.36 10.27
4/13/2022 8:45:00 PM 11.58 52.844 0.136 7.22 9.49 10.24
4/13/2022 9:00:00 PM 11.56 52.808 0.136 7.25 9.26 10.23
4/13/2022 9:15:00 PM 11.53 52.754 0.137 7.24 9.08 10.22
4/13/2022 9:30:00 PM 11.5 52.7 0.137 7.23 9.43 10.21
4/13/2022 9:45:00 PM 11.46 52.628 0.137 7.23 9.98 10.2
4/13/2022 10:00:00 PM 11.42 52.556 0.137 7.22 9.48 10.2
4/13/2022 10:15:00 PM 11.39 52.502 0.137 7.22 9.38 10.2
4/13/2022 10:30:00 PM 11.36 52.448 0.137 7.21 9.33 10.2
4/13/2022 10:45:00 PM 11.33 52.394 0.137 7.2 10.25 10.2
4/13/2022 11:00:00 PM 11.31 52.358 0.137 7.21 9.39 10.2
4/13/2022 11:15:00 PM 11.28 52.304 0.137 7.19 17.13 10.21
4/13/2022 11:30:00 PM 11.25 52.25 0.137 7.17 9.71 10.21
4/13/2022 11:45:00 PM 11.22 52.196 0.137 7.18 9.32 10.21
4/14/2022 12:00:00 AM 11.18 52.124 0.137 7.16 10.28 10.21
4/14/2022 12:15:00 AM 11.12 52.016 0.137 7.16 8.93 10.22
4/14/2022 12:30:00 AM 11.06 51.908 0.137 7.16 16.71 10.22
4/14/2022 12:45:00 AM 11 51.8 0.137 7.17 10.48 10.23
4/14/2022 1:00:00 AM 10.94 51.692 0.137 7.17 10 10.25
4/14/2022 1:15:00 AM 10.87 51.566 0.137 7.15 11.23 10.27
4/14/2022 1:30:00 AM 10.82 51.476 0.137 7.16 10.61 10.28
4/14/2022 1:45:00 AM 10.75 51.35 0.137 7.16 9.49 10.29
4/14/2022 2:00:00 AM 10.7 51.26 0.137 7.16 11.82 10.3
4/14/2022 2:15:00 AM 10.65 51.17 0.137 7.15 10.14 10.32
4/14/2022 2:30:00 AM 10.6 51.08 0.138 7.15 10.26 10.32
4/14/2022 2:45:00 AM 10.55 50.99 0.137 7.14 10.54 10.34
4/14/2022 3:00:00 AM 10.51 50.918 0.137 7.15 9.86 10.35
4/14/2022 3:15:00 AM 10.47 50.846 0.138 7.15 12.18 10.35
4/14/2022 3:30:00 AM 10.42 50.756 0.138 7.15 11.22 10.37
4/14/2022 3:45:00 AM 10.37 50.666 0.138 7.15 10.39 10.38
4/14/2022 4:00:00 AM 10.32 50.576 0.138 7.15 10.45 10.39
4/14/2022 4:15:00 AM 10.25 50.45 0.138 7.14 10.72 10.41
4/14/2022 4:30:00 AM 10.19 50.342 0.138 7.16 10.68 10.42
4/14/2022 4:45:00 AM 10.14 50.252 0.138 7.15 10.84 10.44
4/14/2022 5:00:00 AM 10.08 50.144 0.138 7.16 10.51 10.45
4/14/2022 5:15:00 AM 10.02 50.036 0.138 7.15 10.72 10.46
4/14/2022 5:30:00 AM 9.96 49.928 0.138 7.14 10.51 10.47
4/14/2022 5:45:00 AM 9.9 49.82 0.138 7.16 10.82 10.48
4/14/2022 6:00:00 AM 9.84 49.712 0.138 7.15 12.33 10.5
4/14/2022 6:15:00 AM 9.78 49.604 0.138 7.14 9.83 10.51
4/14/2022 6:30:00 AM 9.72 49.496 0.138 7.15 11.41 10.52
4/14/2022 6:45:00 AM 9.67 49.406 0.138 7.16 9.99 10.55
4/14/2022 7:00:00 AM 9.62 49.316 0.138 7.15 10.23 10.6
4/14/2022 7:15:00 AM 9.57 49.226 0.139 7.15 10.16 10.66
4/14/2022 7:30:00 AM 9.53 49.154 0.138 7.16 10.11 10.74
4/14/2022 7:45:00 AM 9.5 49.1 0.138 7.17 10.6 10.82
4/14/2022 8:00:00 AM 9.5 49.1 0.138 7.19 10.29 10.91
4/14/2022 8:15:00 AM 9.52 49.136 0.138 7.21 9.89 11
4/14/2022 8:30:00 AM 9.58 49.244 0.138 7.24 9.86 11.09
4/14/2022 8:45:00 AM 9.72 49.496 0.138 7.26 9.65 11.17
4/14/2022 9:00:00 AM 9.86 49.748 0.138 7.3 9.95 11.24
4/14/2022 9:15:00 AM 10.02 50.036 0.138 7.33 9.4 11.29
4/14/2022 9:30:00 AM 10.18 50.324 0.139 7.37 10.03 11.32
4/14/2022 9:45:00 AM 10.36 50.648 0.139 7.39 10.2 11.34
4/14/2022 10:00:00 AM 10.59 51.062 0.139 7.41 15.01 11.37
4/14/2022 10:15:00 AM 10.86 51.548 0.139 7.44 10.29 11.38
4/14/2022 10:30:00 AM 10.98 51.764 0.139 7.45 9.56 11.37
4/14/2022 10:45:00 AM 11.12 52.016 0.139 7.47 9.89 11.35
4/14/2022 11:00:00 AM 11.34 52.412 0.139 7.51 9.72 11.36
4/14/2022 11:15:00 AM 11.49 52.682 0.139 7.53 10.4 11.33
4/14/2022 11:30:00 AM 11.46 52.628 0.139 7.52 9.82 11.21
4/14/2022 11:45:00 AM 11.46 52.628 0.139 7.49 9.74 11.14
4/14/2022 12:00:00 PM 11.46 52.628 0.139 7.5 10.17 11.15
4/14/2022 12:15:00 PM 11.44 52.592 0.139 7.51 9.35 11.12
4/14/2022 12:30:00 PM 11.46 52.628 0.139 7.52 9.32 11.06
4/14/2022 12:45:00 PM 11.51 52.718 0.139 7.5 17.93 11.05
4/14/2022 1:00:00 PM 11.61 52.898 0.139 7.52 10.32 11.08
4/14/2022 1:15:00 PM 11.66 52.988 0.139 7.54 8.91 11.06
4/14/2022 1:30:00 PM 11.64 52.952 0.138 7.51 9.13 10.94
4/14/2022 1:45:00 PM 11.62 52.916 0.138 7.47 9.43 10.9
4/14/2022 2:00:00 PM 11.62 52.916 0.138 7.5 9.35 10.98
4/14/2022 2:15:00 PM 11.62 52.916 0.139 7.53 10.66 11.06
4/14/2022 2:30:00 PM 11.59 52.862 0.138 7.54 9.73 11.07
4/14/2022 2:45:00 PM 11.54 52.772 0.139 7.52 10.39 11.04
4/14/2022 3:00:00 PM 11.52 52.736 0.138 7.52 9.59 11.01
4/14/2022 3:15:00 PM 11.53 52.754 0.139 7.52 9.67 11.07
4/14/2022 3:30:00 PM 11.54 52.772 0.139 7.55 9.96 11.12
4/14/2022 3:45:00 PM 11.54 52.772 0.138 7.56 9.25 11.14
4/14/2022 4:00:00 PM 11.53 52.754 0.138 7.57 9.71 11.13
4/14/2022 4:15:00 PM 11.53 52.754 0.139 7.57 8.75 11.15
4/14/2022 4:30:00 PM 11.53 52.754 0.138 7.57 8.95 11.16
4/14/2022 4:45:00 PM 11.52 52.736 0.139 7.59 9.4 11.16
4/14/2022 5:00:00 PM 11.5 52.7 0.139 7.58 10.13 11.14
4/14/2022 5:15:00 PM 11.46 52.628 0.139 7.56 9.04 11.08
4/14/2022 5:30:00 PM 11.43 52.574 0.139 7.54 9.09 11.05
4/14/2022 5:45:00 PM 11.42 52.556 0.139 7.52 9.2 11.04
4/14/2022 6:00:00 PM 11.39 52.502 0.138 7.52 9.07 11.04
4/14/2022 6:15:00 PM 11.35 52.43 0.138 7.52 9.44 11.02
4/14/2022 6:30:00 PM 11.33 52.394 0.138 7.51 9.11 10.99
4/14/2022 6:45:00 PM 11.33 52.394 0.139 7.49 9.63 10.96
4/14/2022 7:00:00 PM 11.27 52.286 0.139 7.47 9.58 10.91
4/14/2022 7:15:00 PM 11.18 52.124 0.139 7.44 9.08 10.83
4/14/2022 7:30:00 PM 11.09 51.962 0.139 7.41 9.13 10.74
4/14/2022 7:45:00 PM 10.99 51.782 0.139 7.38 9.81 10.67
4/14/2022 8:00:00 PM 10.88 51.584 0.139 7.35 9.58 10.61
4/14/2022 8:15:00 PM 10.77 51.386 0.139 7.33 10.88 10.56
4/14/2022 8:30:00 PM 10.66 51.188 0.139 7.29 10.68 10.53
4/14/2022 8:45:00 PM 10.55 50.99 0.139 7.28 10.16 10.52
4/14/2022 9:00:00 PM 10.45 50.81 0.139 7.29 12.78 10.5
4/14/2022 9:15:00 PM 10.35 50.63 0.139 7.28 10.97 10.5
4/14/2022 9:30:00 PM 10.26 50.468 0.139 7.26 10.68 10.51
4/14/2022 9:45:00 PM 10.15 50.27 0.139 7.24 51.72 10.53
4/14/2022 10:00:00 PM 10.05 50.09 0.139 7.24 11.4 10.54
4/14/2022 10:15:00 PM 9.94 49.892 0.139 7.22 11.16 10.56
4/14/2022 10:30:00 PM 9.83 49.694 0.139 7.22 9.71 10.57
4/14/2022 10:45:00 PM 9.72 49.496 0.139 7.19 10.51 10.59
4/14/2022 11:00:00 PM 9.61 49.298 0.139 7.19 10.41 10.62
4/14/2022 11:15:00 PM 9.5 49.1 0.139 7.17 9.86 10.65
4/14/2022 11:30:00 PM 9.38 48.884 0.139 7.15 12.37 10.67
4/14/2022 11:45:00 PM 9.28 48.704 0.139 7.13 9.6 10.7
4/15/2022 12:00:00 AM 9.18 48.524 0.139 7.14 11.59 10.72
4/15/2022 12:15:00 AM 9.07 48.326 0.139 7.13 10.25 10.75
4/15/2022 12:30:00 AM 8.96 48.128 0.139 7.1 9.92 10.78
4/15/2022 12:45:00 AM 8.86 47.948 0.139 7.12 9.93 10.81
4/15/2022 1:00:00 AM 8.75 47.75 0.139 7.11 10.09 10.83
4/15/2022 1:15:00 AM 8.65 47.57 0.139 7.11 10.46 10.86
4/15/2022 1:30:00 AM 8.55 47.39 0.139 7.11 9.74 10.88
4/15/2022 1:45:00 AM 8.45 47.21 0.139 7.1 10.05 10.92
4/15/2022 2:00:00 AM 8.34 47.012 0.139 7.1 10.33 10.95
4/15/2022 2:15:00 AM 8.24 46.832 0.139 7.1 9.55 10.98
4/15/2022 2:30:00 AM 8.14 46.652 0.139 7.1 10.2 11
4/15/2022 2:45:00 AM 8.04 46.472 0.139 7.1 9.45 11.03
4/15/2022 3:00:00 AM 7.94 46.292 0.139 7.1 9.88 11.06
4/15/2022 3:15:00 AM 7.84 46.112 0.139 7.09 9.74 11.09
4/15/2022 3:30:00 AM 7.74 45.932 0.139 7.09 9.28 11.12
4/15/2022 3:45:00 AM 7.65 45.77 0.139 7.1 9.7 11.15
4/15/2022 4:00:00 AM 7.56 45.608 0.139 7.1 9.74 11.17
4/15/2022 4:15:00 AM 7.48 45.464 0.139 7.11 9.31 11.2
4/15/2022 4:30:00 AM 7.38 45.284 0.139 7.09 9.51 11.22
4/15/2022 4:45:00 AM 7.3 45.14 0.139 7.12 9.23 11.25
4/15/2022 5:00:00 AM 7.2 44.96 0.139 7.11 9.42 11.29
4/15/2022 5:15:00 AM 7.12 44.816 0.139 7.12 9.89 11.32
4/15/2022 5:30:00 AM 7.03 44.654 0.139 7.12 8.84 11.34
4/15/2022 5:45:00 AM 6.95 44.51 0.139 7.11 9.75 11.37
4/15/2022 6:00:00 AM 6.86 44.348 0.14 7.13 10.01 11.39
4/15/2022 6:15:00 AM 6.78 44.204 0.14 7.12 10.03 11.41
4/15/2022 6:30:00 AM 6.7 44.06 0.14 7.13 9.82 11.44
4/15/2022 6:45:00 AM 6.62 43.916 0.14 7.13 10.14 11.49
4/15/2022 7:00:00 AM 6.54 43.772 0.14 7.15 10.03 11.56
4/15/2022 7:15:00 AM 6.48 43.664 0.14 7.16 10.75 11.65
4/15/2022 7:30:00 AM 6.42 43.556 0.129 7.17 9.73 11.75
4/15/2022 7:45:00 AM 6.38 43.484 0.14 7.19 9.93 11.84
4/15/2022 8:00:00 AM 6.35 43.43 0.14 7.21 9.59 11.93
4/15/2022 8:15:00 AM 6.35 43.43 0.14 7.23 10.4 12.03
4/15/2022 8:30:00 AM 6.38 43.484 0.14 7.26 9.76 12.12
4/15/2022 8:45:00 AM 6.43 43.574 0.14 7.3 9.8 12.2
4/15/2022 9:00:00 AM 6.52 43.736 0.14 7.33 9.72 12.25
4/15/2022 9:15:00 AM 6.64 43.952 0.14 7.36 9.41 12.3
4/15/2022 9:30:00 AM 6.79 44.222 0.14 7.38 10.29 12.32
4/15/2022 9:45:00 AM 6.96 44.528 0.14 7.41 9.45 12.34
4/15/2022 10:00:00 AM 7.16 44.888 0.14 7.47 9.44 12.36
4/15/2022 10:15:00 AM 7.4 45.32 0.14 7.48 9.19 12.35
4/15/2022 10:30:00 AM 7.64 45.752 0.14 7.52 9.34 12.35
4/15/2022 10:45:00 AM 7.92 46.256 0.14 7.53 9.18 12.33
4/15/2022 11:00:00 AM 8.2 46.76 0.14 7.55 9.59 12.31
4/15/2022 11:15:00 AM 8.48 47.264 0.14 7.57 9.45 12.28
4/15/2022 11:30:00 AM 8.79 47.822 0.14 7.58 8.98 12.24
4/15/2022 11:45:00 AM 9.08 48.344 0.14 7.59 9.67 12.2
4/15/2022 12:00:00 PM 9.38 48.884 0.14 7.6 9.9 12.15
4/15/2022 12:15:00 PM 9.67 49.406 0.14 7.6 9.76 12.1
4/15/2022 12:30:00 PM 9.96 49.928 0.14 7.62 8.94 12.03
4/15/2022 12:45:00 PM 10.25 50.45 0.14 7.62 9.01 11.98
4/15/2022 1:00:00 PM 10.48 50.864 0.14 7.63 9.74 11.9
4/15/2022 1:15:00 PM 10.68 51.224 0.14 7.63 9.27 11.85
4/15/2022 1:30:00 PM 10.75 51.35 0.14 7.64 8.87 11.79
4/15/2022 1:45:00 PM 10.64 51.152 0.14 7.64 9.58 11.71
4/15/2022 2:00:00 PM 10.6 51.08 0.14 7.63 9.62 11.66
4/15/2022 2:15:00 PM 10.75 51.35 0.14 7.64 9.64 11.66
4/15/2022 2:30:00 PM 11.01 51.818 0.14 7.66 9.43 11.66
4/15/2022 2:45:00 PM 11.25 52.25 0.14 7.67 9.43 11.64
4/15/2022 3:00:00 PM 11.36 52.448 0.14 7.67 9.49 11.59
4/15/2022 3:15:00 PM 11.51 52.718 0.14 7.67 9.86 11.55
4/15/2022 3:30:00 PM 11.6 52.88 0.14 7.69 9.27 11.5
4/15/2022 3:45:00 PM 11.62 52.916 0.14 7.67 9.46 11.43
4/15/2022 4:00:00 PM 11.6 52.88 0.14 7.67 9.38 11.4
4/15/2022 4:15:00 PM 11.69 53.042 0.14 7.67 10.16 11.37
4/15/2022 4:30:00 PM 11.7 53.06 0.14 7.68 11.85 11.36
4/15/2022 4:45:00 PM 11.58 52.844 0.14 7.67 11.34 11.29
4/15/2022 5:00:00 PM 11.51 52.718 0.141 7.64 10.7 11.18
4/15/2022 5:15:00 PM 11.51 52.718 0.141 7.59 9.94 11.09
4/15/2022 5:30:00 PM 11.54 52.772 0.14 7.6 9.88 11.12
4/15/2022 5:45:00 PM 11.56 52.808 0.141 7.59 10.08 11.17
4/15/2022 6:00:00 PM 11.48 52.664 0.141 7.61 10.01 11.15
4/15/2022 6:15:00 PM 11.38 52.484 0.141 7.59 10.36 11.08
4/15/2022 6:30:00 PM 11.3 52.34 0.141 7.56 10.21 10.99
4/15/2022 6:45:00 PM 11.27 52.286 0.141 7.53 9.76 10.92
4/15/2022 7:00:00 PM 11.25 52.25 0.141 7.48 11.26 10.85
4/15/2022 7:15:00 PM 11.22 52.196 0.141 7.44 9.77 10.77
4/15/2022 7:30:00 PM 11.16 52.088 0.142 7.43 10.64 10.67
4/15/2022 7:45:00 PM 11.09 51.962 0.141 7.41 11.03 10.61
4/15/2022 8:00:00 PM 11.01 51.818 0.141 7.38 9.81 10.54
4/15/2022 8:15:00 PM 10.97 51.746 0.142 7.35 10.32 10.49
4/15/2022 8:30:00 PM 10.91 51.638 0.142 7.35 9.83 10.45
4/15/2022 8:45:00 PM 10.86 51.548 0.142 7.32 8.94 10.42
4/15/2022 9:00:00 PM 10.83 51.494 0.142 7.29 9.26 10.4
4/15/2022 9:15:00 PM 10.79 51.422 0.142 7.3 9.18 10.39
4/15/2022 9:30:00 PM 10.74 51.332 0.142 7.28 9.3 10.38
4/15/2022 9:45:00 PM 10.7 51.26 0.142 7.27 9.27 10.36
4/15/2022 10:00:00 PM 10.66 51.188 0.142 7.27 9.79 10.36
4/15/2022 10:15:00 PM 10.6 51.08 0.142 7.28 9.47 10.36
4/15/2022 10:30:00 PM 10.54 50.972 0.142 7.26 9.44 10.36
4/15/2022 10:45:00 PM 10.48 50.864 0.143 7.25 9.02 10.36
4/15/2022 11:00:00 PM 10.43 50.774 0.142 7.25 9.56 10.37
4/15/2022 11:15:00 PM 10.39 50.702 0.143 7.24 10 10.37
4/15/2022 11:30:00 PM 10.35 50.63 0.143 7.23 10.84 10.38
4/15/2022 11:45:00 PM 10.31 50.558 0.143 7.24 12.48 10.38
4/16/2022 12:00:00 AM 10.27 50.486 0.143 7.24 13.02 10.4
4/16/2022 12:15:00 AM 10.24 50.432 0.143 7.24 13.66 10.4
4/16/2022 12:30:00 AM 10.2 50.36 0.143 7.24 14.08 10.41
4/16/2022 12:45:00 AM 10.16 50.288 0.144 7.26 15.55 10.42
4/16/2022 1:00:00 AM 10.11 50.198 0.143 7.24 15.99 10.43
4/16/2022 1:15:00 AM 10.07 50.126 0.143 7.24 16.59 10.44
4/16/2022 1:30:00 AM 10.04 50.072 0.143 7.22 17.34 10.44
4/16/2022 1:45:00 AM 9.99 49.982 0.143 7.23 18.4 10.46
4/16/2022 2:00:00 AM 9.93 49.874 0.144 7.24 16.17 10.47
4/16/2022 2:15:00 AM 9.87 49.766 0.144 7.23 16.52 10.48
4/16/2022 2:30:00 AM 9.8 49.64 0.144 7.24 15.41 10.51
4/16/2022 2:45:00 AM 9.74 49.532 0.144 7.2 17.65 10.51
4/16/2022 3:00:00 AM 9.67 49.406 0.143 7.23 11.32 10.55
4/16/2022 3:15:00 AM 9.61 49.298 0.143 7.22 9.99 10.56
4/16/2022 3:30:00 AM 9.56 49.208 0.144 7.22 9.19 10.58
4/16/2022 3:45:00 AM 9.51 49.118 0.144 7.22 8.6 10.59
4/16/2022 4:00:00 AM 9.46 49.028 0.144 7.23 9.66 10.61
4/16/2022 4:15:00 AM 9.41 48.938 0.144 7.2 6.95 10.62
4/16/2022 4:30:00 AM 9.36 48.848 0.144 7.23 18.21 10.64
4/16/2022 4:45:00 AM 9.31 48.758 0.144 7.21 7.34 10.65
4/16/2022 5:00:00 AM 9.26 48.668 0.144 7.22 7.2 10.67
4/16/2022 5:15:00 AM 9.21 48.578 0.144 7.22 7 10.69
4/16/2022 5:30:00 AM 9.15 48.47 0.144 7.22 6.83 10.7
4/16/2022 5:45:00 AM 9.1 48.38 0.144 7.22 6.77 10.72
4/16/2022 6:00:00 AM 9.06 48.308 0.144 7.21 6.86 10.74
4/16/2022 6:15:00 AM 9 48.2 0.144 7.21 7.2 10.75
4/16/2022 6:30:00 AM 8.96 48.128 0.144 7.2 6.75 10.77
4/16/2022 6:45:00 AM 8.91 48.038 0.145 7.19 6.63 10.79
4/16/2022 7:00:00 AM 8.87 47.966 0.145 7.19 6.99 10.82
4/16/2022 7:15:00 AM 8.83 47.894 0.145 7.2 7.12 10.85
4/16/2022 7:30:00 AM 8.8 47.84 0.145 7.2 7.06 10.87
4/16/2022 7:45:00 AM 8.76 47.768 0.145 7.2 7.17 10.91
4/16/2022 8:00:00 AM 8.73 47.714 0.145 7.2 7.03 10.95
4/16/2022 8:15:00 AM 8.7 47.66 0.145 7.2 6.94 10.98
4/16/2022 8:30:00 AM 8.68 47.624 0.145 7.21 6.86 11.05
4/16/2022 8:45:00 AM 8.66 47.588 0.145 7.24 6.8 11.14
4/16/2022 9:00:00 AM 8.66 47.588 0.145 7.26 6.76 11.24
4/16/2022 9:15:00 AM 8.65 47.57 0.145 7.28 6.48 11.32
4/16/2022 9:30:00 AM 8.66 47.588 0.145 7.31 6.76 11.39
4/16/2022 9:45:00 AM 8.68 47.624 0.145 7.33 6.53 11.51
4/16/2022 10:00:00 AM 8.7 47.66 0.145 7.38 6.5 11.61
4/16/2022 10:15:00 AM 8.7 47.66 0.145 7.4 6.35 11.66
4/16/2022 10:30:00 AM 8.69 47.642 0.145 7.41 6.44 11.67
4/16/2022 10:45:00 AM 8.67 47.606 0.145 7.43 6.1 11.67
4/16/2022 11:00:00 AM 8.65 47.57 0.145 7.44 6.19 11.7
4/16/2022 11:15:00 AM 8.66 47.588 0.145 7.46 6.26 11.77
4/16/2022 11:30:00 AM 8.67 47.606 0.145 7.48 6.11 11.84
4/16/2022 11:45:00 AM 8.66 47.588 0.145 7.5 6.03 11.86
4/16/2022 12:00:00 PM 8.62 47.516 0.145 7.51 6.7 11.85
4/16/2022 12:15:00 PM 8.58 47.444 0.144 7.51 6.17 11.77
4/16/2022 12:30:00 PM 8.52 47.336 0.144 7.46 6.15 11.68
4/16/2022 12:45:00 PM 8.48 47.264 0.144 7.46 6.42 11.64
4/16/2022 1:00:00 PM 8.44 47.192 0.143 7.45 6.68 11.67
4/16/2022 1:15:00 PM 8.41 47.138 0.143 7.46 6.94 11.72
4/16/2022 1:30:00 PM 8.38 47.084 0.143 7.46 7.06 11.77
4/16/2022 1:45:00 PM 8.35 47.03 0.142 7.47 7.21 11.76
4/16/2022 2:00:00 PM 8.3 46.94 0.141 7.45 8.11 11.71
4/16/2022 2:15:00 PM 8.26 46.868 0.14 7.45 9.45 11.71
4/16/2022 2:30:00 PM 8.23 46.814 0.141 7.44 10.38 11.71
4/16/2022 2:45:00 PM 8.19 46.742 0.141 7.43 12.56 11.7
4/16/2022 3:00:00 PM 8.18 46.724 0.141 7.45 15.09 11.72
4/16/2022 3:15:00 PM 8.21 46.778 0.14 7.43 14.23 11.78
4/16/2022 3:30:00 PM 8.24 46.832 0.125 7.47 15.43 11.82
4/16/2022 3:45:00 PM 8.24 46.832 0.138 7.46 15.63 11.82
4/16/2022 4:00:00 PM 8.21 46.778 0.138 7.45 15.21 11.76
4/16/2022 4:15:00 PM 8.18 46.724 0.138 7.45 14.67 11.68
4/16/2022 4:30:00 PM 8.17 46.706 0.138 7.42 13.57 11.63
4/16/2022 4:45:00 PM 8.15 46.67 0.139 7.42 13.54 11.62
4/16/2022 5:00:00 PM 8.2 46.76 0.14 7.42 13.2 11.67
4/16/2022 5:15:00 PM 8.18 46.724 0.142 7.43 13.47 11.67
4/16/2022 5:30:00 PM 8.17 46.706 0.143 7.4 20.97 11.57
4/16/2022 5:45:00 PM 8.13 46.634 0.145 7.38 35.24 11.5
4/16/2022 6:00:00 PM 8.09 46.562 0.147 7.35 40.33 11.44
4/16/2022 6:15:00 PM 8.09 46.562 0.148 7.35 47.38 11.44
4/16/2022 6:30:00 PM 8.09 46.562 0.147 7.34 48.63 11.43
4/16/2022 6:45:00 PM 8.07 46.526 0.144 7.34 46.21 11.39
4/16/2022 7:00:00 PM 8.03 46.454 0.14 7.32 51.56 11.36
4/16/2022 7:15:00 PM 7.98 46.364 0.137 7.31 57.13 11.34
4/16/2022 7:30:00 PM 7.94 46.292 0.136 7.3 58.61 11.33
4/16/2022 7:45:00 PM 7.9 46.22 0.135 7.28 60.35 11.32
4/16/2022 8:00:00 PM 7.86 46.148 0.133 7.21 55.72 11.31
4/16/2022 8:15:00 PM 7.82 46.076 0.132 7.25 48.85 11.31
4/16/2022 8:30:00 PM 7.78 46.004 0.131 7.24 48.28 11.32
4/16/2022 8:45:00 PM 7.75 45.95 0.13 7.24 44.34 11.31
4/16/2022 9:00:00 PM 7.72 45.896 0.129 7.24 41.72 11.32
4/16/2022 9:15:00 PM 7.68 45.824 0.128 7.21 45.49 11.32
4/16/2022 9:30:00 PM 7.63 45.734 0.126 7.2 41.69 11.32
4/16/2022 9:45:00 PM 7.57 45.626 0.117 7.2 35.68 11.33
4/16/2022 10:00:00 PM 7.51 45.518 0.116 7.18 38.86 11.34
4/16/2022 10:15:00 PM 7.45 45.41 0.115 7.12 38.18 11.35
4/16/2022 10:30:00 PM 7.4 45.32 0.114 7.14 35.42 11.36
4/16/2022 10:45:00 PM 7.35 45.23 0.114 7.15 33.65 11.38
4/16/2022 11:00:00 PM 7.3 45.14 0.114 7.15 34.02 11.39
4/16/2022 11:15:00 PM 7.25 45.05 0.114 7.15 28.97 11.41
4/16/2022 11:30:00 PM 7.19 44.942 0.114 7.14 30.49 11.42
4/16/2022 11:45:00 PM 7.13 44.834 0.114 7.13 26.3 11.44
4/17/2022 12:00:00 AM 7.07 44.726 0.114 7.13 27.2 11.45
4/17/2022 12:15:00 AM 7.02 44.636 0.115 7.14 25.34 11.46
4/17/2022 12:30:00 AM 6.96 44.528 0.115 7.14 25.45 11.48
4/17/2022 12:45:00 AM 6.9 44.42 0.115 7.13 24.5 11.48
4/17/2022 1:00:00 AM 6.83 44.294 0.116 7.13 21.2 11.5
4/17/2022 1:15:00 AM 6.78 44.204 0.117 7.14 22.14 11.51
4/17/2022 1:30:00 AM 6.74 44.132 0.116 7.15 19.9 11.52
4/17/2022 1:45:00 AM 6.69 44.042 0.117 7.15 20.65 11.54
4/17/2022 2:00:00 AM 6.66 43.988 0.117 7.15 20.88 11.55
4/17/2022 2:15:00 AM 6.62 43.916 0.119 7.15 18.89 11.56
4/17/2022 2:30:00 AM 6.58 43.844 0.118 7.16 18.95 11.58
4/17/2022 2:45:00 AM 6.55 43.79 0.119 7.16 19.05 11.6
4/17/2022 3:00:00 AM 6.5 43.7 0.119 7.16 19.27 11.6
4/17/2022 3:15:00 AM 6.44 43.592 0.12 7.15 16.69 11.62
4/17/2022 3:30:00 AM 6.39 43.502 0.12 7.15 17.29 11.64
4/17/2022 3:45:00 AM 6.34 43.412 0.12 7.15 17.36 11.65
4/17/2022 4:00:00 AM 6.29 43.322 0.12 7.14 18.64 11.66
4/17/2022 4:15:00 AM 6.24 43.232 0.121 7.16 16.6 11.67
4/17/2022 4:30:00 AM 6.19 43.142 0.121 7.15 17.17 11.69
4/17/2022 4:45:00 AM 6.14 43.052 0.121 7.16 16.97 11.7
4/17/2022 5:00:00 AM 6.09 42.962 0.121 7.17 17.39 11.72
4/17/2022 5:15:00 AM 6.05 42.89 0.121 7.16 16.04 11.74
4/17/2022 5:30:00 AM 6 42.8 0.121 7.16 15.62 11.75
4/17/2022 5:45:00 AM 5.95 42.71 0.122 7.14 16.81 11.77
4/17/2022 6:00:00 AM 5.9 42.62 0.122 7.16 16.34 11.79
4/17/2022 6:15:00 AM 5.86 42.548 0.123 7.17 13.86 11.8
4/17/2022 6:30:00 AM 5.81 42.458 0.122 7.17 16.48 11.82
4/17/2022 6:45:00 AM 5.77 42.386 0.122 7.16 14.26 11.85
4/17/2022 7:00:00 AM 5.74 42.332 0.122 7.17 16.22 11.87
4/17/2022 7:15:00 AM 5.71 42.278 0.122 7.18 13.78 11.9
4/17/2022 7:30:00 AM 5.68 42.224 0.123 7.19 15.23 11.97
4/17/2022 7:45:00 AM 5.66 42.188 0.123 7.19 15.89 12.05
4/17/2022 8:00:00 AM 5.64 42.152 0.123 7.23 13.13 12.14
4/17/2022 8:15:00 AM 5.64 42.152 0.123 7.24 14.34 12.21
4/17/2022 8:30:00 AM 5.65 42.17 0.123 7.28 13.92 12.29
4/17/2022 8:45:00 AM 5.67 42.206 0.123 7.29 12.85 12.35
4/17/2022 9:00:00 AM 5.66 42.188 0.123 7.3 12.7 12.39
4/17/2022 9:15:00 AM 5.69 42.242 0.123 7.32 13.1 12.43
4/17/2022 9:30:00 AM 5.7 42.26 0.123 7.33 15.51 12.48
4/17/2022 9:45:00 AM 5.71 42.278 0.131 7.34 14.59 12.51
4/17/2022 10:00:00 AM 5.73 42.314 0.131 7.34 13.23 12.53
4/17/2022 10:15:00 AM 5.76 42.368 0.123 7.37 13.77 12.55
4/17/2022 10:30:00 AM 5.93 42.674 0.123 7.38 13.58 12.59
4/17/2022 10:45:00 AM 5.97 42.746 0.123 7.4 13.64 12.6
4/17/2022 11:00:00 AM 6.06 42.908 0.123 7.41 13.55 12.6
4/17/2022 11:15:00 AM 6.21 43.178 0.131 7.43 14.43 12.62
4/17/2022 11:30:00 AM 6.33 43.394 0.123 7.43 14.85 12.6
4/17/2022 11:45:00 AM 6.38 43.484 0.124 7.43 14.21 12.59
4/17/2022 12:00:00 PM 6.47 43.646 0.123 7.45 14.2 12.58
4/17/2022 12:15:00 PM 6.61 43.898 0.131 7.46 14.35 12.59
4/17/2022 12:30:00 PM 6.67 44.006 0.123 7.47 14.38 12.57
4/17/2022 12:45:00 PM 6.84 44.312 0.131 7.47 15.12 12.55
4/17/2022 1:00:00 PM 7.17 44.906 0.131 7.48 13.13 12.54
4/17/2022 1:15:00 PM 7.26 45.068 0.131 7.48 14.51 12.51
4/17/2022 1:30:00 PM 7.5 45.5 0.131 7.52 14.07 12.49
4/17/2022 1:45:00 PM 7.65 45.77 0.131 7.53 14.06 12.46
4/17/2022 2:00:00 PM 7.8 46.04 0.131 7.54 13.84 12.41
4/17/2022 2:15:00 PM 7.93 46.274 0.131 7.53 13.72 12.37
4/17/2022 2:30:00 PM 8.05 46.49 0.131 7.52 15.49 12.34
4/17/2022 2:45:00 PM 8.18 46.724 0.131 7.52 13.98 12.3
4/17/2022 3:00:00 PM 8.35 47.03 0.131 7.53 14.94 12.27
4/17/2022 3:15:00 PM 8.47 47.246 0.131 7.53 13.37 12.25
4/17/2022 3:30:00 PM 8.52 47.336 0.131 7.55 14.16 12.18
4/17/2022 3:45:00 PM 8.59 47.462 0.131 7.54 12.82 12.12
4/17/2022 4:00:00 PM 8.64 47.552 0.131 7.55 12.9 12.07
4/17/2022 4:15:00 PM 8.63 47.534 0.131 7.53 14.32 12.03
4/17/2022 4:30:00 PM 8.65 47.57 0.131 7.53 13.71 11.99
4/17/2022 4:45:00 PM 8.65 47.57 0.131 7.52 13.39 11.95
4/17/2022 5:00:00 PM 8.8 47.84 0.131 7.52 13.13 11.94
4/17/2022 5:15:00 PM 8.8 47.84 0.131 7.52 13.28 11.93
4/17/2022 5:30:00 PM 8.82 47.876 0.131 7.52 13.19 11.89
4/17/2022 5:45:00 PM 8.8 47.84 0.132 7.5 13.71 11.84
4/17/2022 6:00:00 PM 8.8 47.84 0.131 7.49 13.72 11.8
4/17/2022 6:15:00 PM 8.79 47.822 0.131 7.49 12.28 11.74
4/17/2022 6:30:00 PM 8.74 47.732 0.132 7.48 12.69 11.71
4/17/2022 6:45:00 PM 8.69 47.642 0.132 7.44 12.2 11.63
4/17/2022 7:00:00 PM 8.62 47.516 0.132 7.39 13.22 11.55
4/17/2022 7:15:00 PM 8.56 47.408 0.132 7.4 13.33 11.51
4/17/2022 7:30:00 PM 8.5 47.3 0.132 7.38 13.12 11.47
4/17/2022 7:45:00 PM 8.44 47.192 0.132 7.37 13.4 11.44
4/17/2022 8:00:00 PM 8.37 47.066 0.132 7.34 13.18 11.39
4/17/2022 8:15:00 PM 8.28 46.904 0.133 7.31 13.03 11.34
4/17/2022 8:30:00 PM 8.2 46.76 0.133 7.32 11.05 11.32
4/17/2022 8:45:00 PM 8.11 46.598 0.132 7.3 12.95 11.29
4/17/2022 9:00:00 PM 8.02 46.436 0.133 7.27 13.87 11.29
4/17/2022 9:15:00 PM 7.93 46.274 0.133 7.27 12.19 11.29
4/17/2022 9:30:00 PM 7.84 46.112 0.133 7.26 13.29 11.3
4/17/2022 9:45:00 PM 7.75 45.95 0.133 7.25 12.77 11.31
4/17/2022 10:00:00 PM 7.67 45.806 0.133 7.23 11.73 11.32
4/17/2022 10:15:00 PM 7.59 45.662 0.133 7.23 13.29 11.33
4/17/2022 10:30:00 PM 7.5 45.5 0.134 7.23 13.19 11.34
4/17/2022 10:45:00 PM 7.42 45.356 0.134 7.23 12.25 11.36
4/17/2022 11:00:00 PM 7.33 45.194 0.134 7.23 11.58 11.37
4/17/2022 11:15:00 PM 7.24 45.032 0.134 7.22 12.51 11.39
4/17/2022 11:30:00 PM 7.15 44.87 0.134 7.21 12.55 11.42
4/17/2022 11:45:00 PM 7.05 44.69 0.134 7.21 11.7 11.44
4/18/2022 12:00:00 AM 6.96 44.528 0.134 7.2 12.22 11.46
4/18/2022 12:15:00 AM 6.86 44.348 0.134 7.2 12.45 11.5
4/18/2022 12:30:00 AM 6.75 44.15 0.135 7.18 12.34 11.52
4/18/2022 12:45:00 AM 6.65 43.97 0.135 7.17 12.42 11.55
4/18/2022 1:00:00 AM 6.54 43.772 0.134 7.15 12.36 11.6
4/18/2022 1:15:00 AM 6.43 43.574 0.135 7.13 12.43 11.63
4/18/2022 1:30:00 AM 6.32 43.376 0.135 7.12 11.69 11.66
4/18/2022 1:45:00 AM 6.2 43.16 0.135 7.13 13.39 11.7
4/18/2022 2:00:00 AM 6.09 42.962 0.135 7.12 11.88 11.73
4/18/2022 2:15:00 AM 5.97 42.746 0.136 7.11 12.2 11.78
4/18/2022 2:30:00 AM 5.86 42.548 0.136 7.11 12.19 11.81
4/18/2022 2:45:00 AM 5.74 42.332 0.136 7.1 12.14 11.85
4/18/2022 3:00:00 AM 5.63 42.134 0.136 7.1 11.77 11.88
4/18/2022 3:15:00 AM 5.52 41.936 0.136 7.09 11.03 11.91
4/18/2022 3:30:00 AM 5.41 41.738 0.136 7.1 10.63 11.95
4/18/2022 3:45:00 AM 5.31 41.558 0.136 7.07 10.44 11.99
4/18/2022 4:00:00 AM 5.21 41.378 0.137 7.1 10.27 12.03
4/18/2022 4:15:00 AM 5.1 41.18 0.128 7.1 10.38 12.05
4/18/2022 4:30:00 AM 5.01 41.018 0.137 7.08 10.45 12.08
4/18/2022 4:45:00 AM 4.91 40.838 0.128 7.1 10.29 12.12
4/18/2022 5:00:00 AM 4.81 40.658 0.129 7.1 10.47 12.15
4/18/2022 5:15:00 AM 4.72 40.496 0.138 7.1 10.48 12.18
4/18/2022 5:30:00 AM 4.63 40.334 0.138 7.06 10.06 12.22
4/18/2022 5:45:00 AM 4.54 40.172 0.138 7.09 10.51 12.24
4/18/2022 6:00:00 AM 4.45 40.01 0.129 7.11 10.4 12.27
4/18/2022 6:15:00 AM 4.36 39.848 0.13 7.11 10.36 12.3
4/18/2022 6:30:00 AM 4.28 39.704 0.13 7.12 9.97 12.32
4/18/2022 6:45:00 AM 4.2 39.56 0.13 7.12 10.37 12.39
4/18/2022 7:00:00 AM 4.13 39.434 0.13 7.13 10.04 12.46
4/18/2022 7:15:00 AM 4.07 39.326 0.131 7.14 9.97 12.54
4/18/2022 7:30:00 AM 4.02 39.236 0.13 7.16 9.93 12.62
4/18/2022 7:45:00 AM 3.99 39.182 0.131 7.18 10.2 12.72
4/18/2022 8:00:00 AM 3.98 39.164 0.14 7.2 10.02 12.79
4/18/2022 8:15:00 AM 4 39.2 0.131 7.22 9.96 12.9
4/18/2022 8:30:00 AM 4.04 39.272 0.131 7.26 9.79 12.98
4/18/2022 8:45:00 AM 4.12 39.416 0.131 7.3 9.75 13.04
4/18/2022 9:00:00 AM 4.21 39.578 0.131 7.34 9.59 13.08
4/18/2022 9:15:00 AM 4.33 39.794 0.14 7.37 9.45 13.1
4/18/2022 9:30:00 AM 4.47 40.046 0.14 7.38 9.51 13.14
4/18/2022 9:45:00 AM 4.65 40.37 0.14 7.4 9.4 13.15
4/18/2022 10:00:00 AM 4.86 40.748 0.14 7.41 9.65 13.15
4/18/2022 10:15:00 AM 5.03 41.054 0.14 7.44 9.52 13.14
4/18/2022 10:30:00 AM 5.23 41.414 0.14 7.45 9.59 13.14
4/18/2022 10:45:00 AM 5.42 41.756 0.14 7.46 9.39 13.11
4/18/2022 11:00:00 AM 5.59 42.062 0.14 7.48 9.53 13.08
4/18/2022 11:15:00 AM 5.72 42.296 0.14 7.49 9.33 13.06
4/18/2022 11:30:00 AM 5.85 42.53 0.139 7.5 9.53 13.04
4/18/2022 11:45:00 AM 5.98 42.764 0.14 7.49 9.33 13.01
4/18/2022 12:00:00 PM 6.05 42.89 0.139 7.52 9.48 12.98
4/18/2022 12:15:00 PM 6.12 43.016 0.139 7.53 9.5 12.94
4/18/2022 12:30:00 PM 6.2 43.16 0.139 7.53 9.68 12.91
4/18/2022 12:45:00 PM 6.29 43.322 0.139 7.54 9.33 12.88
4/18/2022 1:00:00 PM 6.37 43.466 0.139 7.56 9.24 12.86
4/18/2022 1:15:00 PM 6.47 43.646 0.139 7.56 9.25 12.84
4/18/2022 1:30:00 PM 6.55 43.79 0.139 7.57 9.54 12.8
4/18/2022 1:45:00 PM 6.58 43.844 0.139 7.57 9.13 12.76
4/18/2022 2:00:00 PM 6.61 43.898 0.139 7.57 9.32 12.74
4/18/2022 2:15:00 PM 6.64 43.952 0.139 7.57 9.25 12.7
4/18/2022 2:30:00 PM 6.68 44.024 0.139 7.57 9.31 12.69
4/18/2022 2:45:00 PM 6.72 44.096 0.14 7.57 9.25 12.67
4/18/2022 3:00:00 PM 6.73 44.114 0.139 7.58 9.29 12.65
4/18/2022 3:15:00 PM 6.74 44.132 0.14 7.58 9.01 12.62
4/18/2022 3:30:00 PM 6.76 44.168 0.14 7.58 8.98 12.6
4/18/2022 3:45:00 PM 6.8 44.24 0.14 7.59 9.11 12.59
4/18/2022 4:00:00 PM 6.82 44.276 0.14 7.58 9 12.59
4/18/2022 4:15:00 PM 6.82 44.276 0.14 7.58 9.19 12.57
4/18/2022 4:30:00 PM 6.79 44.222 0.14 7.58 8.99 12.53
4/18/2022 4:45:00 PM 6.73 44.114 0.14 7.56 9.13 12.45
4/18/2022 5:00:00 PM 6.66 43.988 0.14 7.53 9.19 12.35
4/18/2022 5:15:00 PM 6.59 43.862 0.14 7.49 8.9 12.26
4/18/2022 5:30:00 PM 6.55 43.79 0.14 7.46 9.14 12.19
4/18/2022 5:45:00 PM 6.48 43.664 0.14 7.44 8.99 12.14
4/18/2022 6:00:00 PM 6.42 43.556 0.14 7.42 9.2 12.09
4/18/2022 6:15:00 PM 6.35 43.43 0.139 7.4 9.1 12.06
4/18/2022 6:30:00 PM 6.29 43.322 0.14 7.38 8.99 12.03
4/18/2022 6:45:00 PM 6.25 43.25 0.14 7.38 9.4 11.98
4/18/2022 7:00:00 PM 6.2 43.16 0.139 7.37 9.32 11.95
4/18/2022 7:15:00 PM 6.15 43.07 0.14 7.35 10.39 11.91
4/18/2022 7:30:00 PM 6.09 42.962 0.139 7.34 9.74 11.88
4/18/2022 7:45:00 PM 6.03 42.854 0.139 7.33 9.64 11.85
4/18/2022 8:00:00 PM 5.96 42.728 0.139 7.3 9.97 11.83
4/18/2022 8:15:00 PM 5.89 42.602 0.139 7.3 10.05 11.81
4/18/2022 8:30:00 PM 5.83 42.494 0.139 7.29 10.31 11.81
4/18/2022 8:45:00 PM 5.76 42.368 0.138 7.27 10.8 11.8
4/18/2022 9:00:00 PM 5.7 42.26 0.138 7.25 10.96 11.81
4/18/2022 9:15:00 PM 5.64 42.152 0.138 7.25 11.4 11.81
4/18/2022 9:30:00 PM 5.6 42.08 0.138 7.24 11.41 11.83
4/18/2022 9:45:00 PM 5.58 42.044 0.138 7.25 11.25 11.83
4/18/2022 10:00:00 PM 5.56 42.008 0.138 7.25 11.65 11.84
4/18/2022 10:15:00 PM 5.54 41.972 0.138 7.24 11.61 11.84
4/18/2022 10:30:00 PM 5.52 41.936 0.138 7.25 11.5 11.86
4/18/2022 10:45:00 PM 5.5 41.9 0.138 7.22 11.62 11.86
4/18/2022 11:00:00 PM 5.47 41.846 0.138 7.22 11.49 11.87
4/18/2022 11:15:00 PM 5.44 41.792 0.139 7.22 11.7 11.88
4/18/2022 11:30:00 PM 5.41 41.738 0.139 7.24 12.04 11.9
4/18/2022 11:45:00 PM 5.36 41.648 0.139 7.23 11.93 11.91
4/19/2022 12:00:00 AM 5.32 41.576 0.139 7.24 12.82 11.92
4/19/2022 12:15:00 AM 5.29 41.522 0.139 7.19 12.52 11.94
4/19/2022 12:30:00 AM 5.23 41.414 0.139 7.21 12.61 11.95
4/19/2022 12:45:00 AM 5.17 41.306 0.139 7.22 13.19 11.97
4/19/2022 1:00:00 AM 5.06 41.108 0.14 7.21 13.27 11.98
4/19/2022 1:15:00 AM 4.97 40.946 0.14 7.16 13.7 11.99
4/19/2022 1:30:00 AM 4.9 40.82 0.14 7.18 13.62 12.01
4/19/2022 1:45:00 AM 4.82 40.676 0.14 7.19 13.92 12.04
4/19/2022 2:00:00 AM 4.76 40.568 0.14 7.17 13.76 12.06
4/19/2022 2:15:00 AM 4.7 40.46 0.14 7.18 14.06 12.08
4/19/2022 2:30:00 AM 4.65 40.37 0.14 7.17 14.1 12.1
4/19/2022 2:45:00 AM 4.6 40.28 0.14 7.16 14.58 12.12
4/19/2022 3:00:00 AM 4.53 40.154 0.14 7.16 15.18 12.14
4/19/2022 3:15:00 AM 4.48 40.064 0.141 7.17 14.85 12.15
4/19/2022 3:30:00 AM 4.42 39.956 0.14 7.14 15.48 12.16
4/19/2022 3:45:00 AM 4.37 39.866 0.14 7.16 15.22 12.17
4/19/2022 4:00:00 AM 4.32 39.776 0.14 7.16 15.19 12.18
4/19/2022 4:15:00 AM 4.26 39.668 0.14 7.16 15.67 12.2
4/19/2022 4:30:00 AM 4.2 39.56 0.14 7.16 15.09 12.22
4/19/2022 4:45:00 AM 4.11 39.398 0.13 7.14 15.02 12.23
4/19/2022 5:00:00 AM 4.05 39.29 0.13 7.14 14.66 12.25
4/19/2022 5:15:00 AM 4.03 39.254 0.13 7.15 15.17 12.26
4/19/2022 5:30:00 AM 4.01 39.218 0.13 7.15 15.19 12.26
4/19/2022 5:45:00 AM 3.99 39.182 0.13 7.16 14.87 12.28
4/19/2022 6:00:00 AM 3.98 39.164 0.129 7.16 15.4 12.29
4/19/2022 6:15:00 AM 3.96 39.128 0.13 7.16 14.88 12.29
4/19/2022 6:30:00 AM 3.95 39.11 0.13 7.16 15.01 12.3
4/19/2022 6:45:00 AM 3.93 39.074 0.13 7.18 14.78 12.33
4/19/2022 7:00:00 AM 3.92 39.056 0.129 7.19 15.46 12.35
4/19/2022 7:15:00 AM 3.9 39.02 0.129 7.19 13.89 12.37
4/19/2022 7:30:00 AM 3.88 38.984 0.129 7.2 14.49 12.4
4/19/2022 7:45:00 AM 3.84 38.912 0.129 7.2 14.67 12.43
4/19/2022 8:00:00 AM 3.82 38.876 0.13 7.2 19.87 12.48
4/19/2022 8:15:00 AM 3.82 38.876 0.129 7.22 14.64 12.54
4/19/2022 8:30:00 AM 3.83 38.894 0.129 7.24 20.22 12.59
4/19/2022 8:45:00 AM 3.86 38.948 0.128 7.25 14.51 12.65
4/19/2022 9:00:00 AM 3.89 39.002 0.129 7.27 13.64 12.69
4/19/2022 9:15:00 AM 3.93 39.074 0.129 7.29 14.1 12.72
4/19/2022 9:30:00 AM 3.97 39.146 0.129 7.29 14.23 12.75
4/19/2022 9:45:00 AM 4.02 39.236 0.129 7.3 14.83 12.78
4/19/2022 10:00:00 AM 4.17 39.506 0.13 7.31 14.05 12.82
4/19/2022 10:15:00 AM 4.37 39.866 0.129 7.34 14.31 12.84
4/19/2022 10:30:00 AM 4.43 39.974 0.129 7.33 14.41 12.84
4/19/2022 10:45:00 AM 4.5 40.1 0.129 7.36 13.83 12.82
4/19/2022 11:00:00 AM 4.55 40.19 0.13 7.37 13.93 12.83
4/19/2022 11:15:00 AM 4.62 40.316 0.138 7.37 14.18 12.83
4/19/2022 11:30:00 AM 4.75 40.55 0.138 7.38 14.06 12.82
4/19/2022 11:45:00 AM 4.92 40.856 0.129 7.4 13.94 12.81
4/19/2022 12:00:00 PM 5 41 0.138 7.41 13.59 12.78
4/19/2022 12:15:00 PM 5.07 41.126 0.138 7.41 14.11 12.75
4/19/2022 12:30:00 PM 5.1 41.18 0.138 7.41 15.03 12.73
4/19/2022 12:45:00 PM 5.16 41.288 0.138 7.42 14.01 12.72
4/19/2022 1:00:00 PM 5.23 41.414 0.138 7.42 14.82 12.71
4/19/2022 1:15:00 PM 5.29 41.522 0.138 7.41 15.16 12.68
4/19/2022 1:30:00 PM 5.38 41.684 0.138 7.41 14.99 12.66
4/19/2022 1:45:00 PM 5.48 41.864 0.138 7.42 14.9 12.65
4/19/2022 2:00:00 PM 5.68 42.224 0.138 7.44 15.59 12.63
4/19/2022 2:15:00 PM 5.75 42.35 0.138 7.43 14.84 12.59
4/19/2022 2:30:00 PM 5.82 42.476 0.138 7.42 16.57 12.54
4/19/2022 2:45:00 PM 5.91 42.638 0.138 7.43 16.03 12.53
4/19/2022 3:00:00 PM 5.97 42.746 0.138 7.44 16.37 12.52
4/19/2022 3:15:00 PM 6.01 42.818 0.138 7.45 17.24 12.5
4/19/2022 3:30:00 PM 6.05 42.89 0.138 7.46 16.53 12.48
4/19/2022 3:45:00 PM 6.09 42.962 0.137 7.45 16.92 12.42
4/19/2022 4:00:00 PM 6.14 43.052 0.137 7.44 17.02 12.4
4/19/2022 4:15:00 PM 6.16 43.088 0.137 7.43 16.63 12.39
4/19/2022 4:30:00 PM 6.22 43.196 0.137 7.43 17.39 12.38
4/19/2022 4:45:00 PM 6.25 43.25 0.137 7.43 16.8 12.35
4/19/2022 5:00:00 PM 6.24 43.232 0.137 7.42 18.21 12.31
4/19/2022 5:15:00 PM 6.26 43.268 0.136 7.41 19.78 12.3
4/19/2022 5:30:00 PM 6.22 43.196 0.136 7.4 18.61 12.29
4/19/2022 5:45:00 PM 6.21 43.178 0.136 7.39 19.84 12.23
4/19/2022 6:00:00 PM 6.19 43.142 0.135 7.39 19.06 12.23
4/19/2022 6:15:00 PM 6.16 43.088 0.135 7.38 19.56 12.21
4/19/2022 6:30:00 PM 6.13 43.034 0.135 7.36 23.41 12.17
4/19/2022 6:45:00 PM 6.08 42.944 0.134 7.35 22.59 12.14
4/19/2022 7:00:00 PM 6.01 42.818 0.134 7.33 19.72 12.11
4/19/2022 7:15:00 PM 5.95 42.71 0.125 7.33 22.62 12.12
4/19/2022 7:30:00 PM 5.9 42.62 0.125 7.31 21.66 12.11
4/19/2022 7:45:00 PM 5.83 42.494 0.124 7.3 21.93 12.08
4/19/2022 8:00:00 PM 5.76 42.368 0.124 7.28 20.55 12.05
4/19/2022 8:15:00 PM 5.7 42.26 0.124 7.26 21.81 12.03
4/19/2022 8:30:00 PM 5.63 42.134 0.125 7.25 22.55 12.02
4/19/2022 8:45:00 PM 5.57 42.026 0.124 7.24 22.51 12.02
4/19/2022 9:00:00 PM 5.51 41.918 0.133 7.24 25.04 12.02
4/19/2022 9:15:00 PM 5.46 41.828 0.124 7.23 22.49 12.02
4/19/2022 9:30:00 PM 5.4 41.72 0.124 7.22 21.67 12.02
4/19/2022 9:45:00 PM 5.34 41.612 0.124 7.22 19.31 12.04
4/19/2022 10:00:00 PM 5.29 41.522 0.123 7.21 23.57 12.06
4/19/2022 10:15:00 PM 5.24 41.432 0.123 7.21 22.64 12.06
4/19/2022 10:30:00 PM 5.2 41.36 0.123 7.2 21.26 12.07
4/19/2022 10:45:00 PM 5.15 41.27 0.123 7.2 19.76 12.08
4/19/2022 11:00:00 PM 5.1 41.18 0.122 7.18 21.12 12.1
4/19/2022 11:15:00 PM 5.05 41.09 0.122 7.19 21.32 12.11
4/19/2022 11:30:00 PM 5 41 0.122 7.18 17.68 12.12
4/19/2022 11:45:00 PM 4.95 40.91 0.121 7.18 19.52 12.14
4/20/2022 12:00:00 AM 4.91 40.838 0.121 7.17 20.51 12.15
4/20/2022 12:15:00 AM 4.87 40.766 0.121 7.17 20.85 12.16
4/20/2022 12:30:00 AM 4.83 40.694 0.121 7.17 19.66 12.18
4/20/2022 12:45:00 AM 4.8 40.64 0.121 7.16 20.29 12.19
4/20/2022 1:00:00 AM 4.77 40.586 0.121 7.16 19.5 12.21
4/20/2022 1:15:00 AM 4.73 40.514 0.121 7.15 19.36 12.22
4/20/2022 1:30:00 AM 4.71 40.478 0.121 7.16 18.96 12.23
4/20/2022 1:45:00 AM 4.68 40.424 0.121 7.14 19.71 12.24
4/20/2022 2:00:00 AM 4.65 40.37 0.121 7.14 18.06 12.25
4/20/2022 2:15:00 AM 4.63 40.334 0.121 7.13 18.36 12.26
4/20/2022 2:30:00 AM 4.6 40.28 0.121 7.14 17.63 12.27
4/20/2022 2:45:00 AM 4.57 40.226 0.121 7.13 17.8 12.28
4/20/2022 3:00:00 AM 4.54 40.172 0.121 7.13 17.78 12.29
4/20/2022 3:15:00 AM 4.51 40.118 0.121 7.15 17.17 12.3
4/20/2022 3:30:00 AM 4.49 40.082 0.121 7.13 17.6 12.31
4/20/2022 3:45:00 AM 4.46 40.028 0.121 7.13 16.69 12.32
4/20/2022 4:00:00 AM 4.44 39.992 0.121 7.13 16.56 12.32
4/20/2022 4:15:00 AM 4.43 39.974 0.121 7.14 16.85 12.33
4/20/2022 4:30:00 AM 4.41 39.938 0.121 7.13 16.56 12.34
4/20/2022 4:45:00 AM 4.4 39.92 0.122 7.13 16.01 12.35
4/20/2022 5:00:00 AM 4.38 39.884 0.121 7.14 16.27 12.36
4/20/2022 5:15:00 AM 4.37 39.866 0.122 7.14 16.61 12.36
4/20/2022 5:30:00 AM 4.35 39.83 0.121 7.14 16.16 12.36
4/20/2022 5:45:00 AM 4.34 39.812 0.122 7.14 16.02 12.37
4/20/2022 6:00:00 AM 4.33 39.794 0.121 7.14 15.76 12.38
4/20/2022 6:15:00 AM 4.32 39.776 0.121 7.15 15.64 12.38
4/20/2022 6:30:00 AM 4.31 39.758 0.121 7.15 15.95 12.4
4/20/2022 6:45:00 AM 4.3 39.74 0.121 7.15 15.24 12.41
4/20/2022 7:00:00 AM 4.3 39.74 0.122 7.16 19.6 12.46
4/20/2022 7:15:00 AM 4.29 39.722 0.121 7.16 15.53 12.5
4/20/2022 7:30:00 AM 4.3 39.74 0.121 7.18 19.75 12.56
4/20/2022 7:45:00 AM 4.31 39.758 0.122 7.18 15.92 12.63
4/20/2022 8:00:00 AM 4.31 39.758 0.122 7.2 16.19 12.7
4/20/2022 8:15:00 AM 4.34 39.812 0.122 7.22 33.39 12.74
4/20/2022 8:30:00 AM 4.39 39.902 0.122 7.25 14.39 12.79
4/20/2022 8:45:00 AM 4.43 39.974 0.122 7.27 14.66 12.83
4/20/2022 9:00:00 AM 4.5 40.1 0.122 7.26 16.86 12.85
4/20/2022 9:15:00 AM 4.62 40.316 0.122 7.27 15.56 12.89
4/20/2022 9:30:00 AM 4.72 40.496 0.121 7.29 14.83 12.93
4/20/2022 9:45:00 AM 4.85 40.73 0.122 7.3 15.16 12.93
4/20/2022 10:00:00 AM 5.01 41.018 0.122 7.31 14.59 12.93
4/20/2022 10:15:00 AM 5.21 41.378 0.122 7.32 14.08 12.93
4/20/2022 10:30:00 AM 5.4 41.72 0.122 7.34 16.06 12.93
4/20/2022 10:45:00 AM 5.6 42.08 0.122 7.34 15.99 12.9
4/20/2022 11:00:00 AM 5.89 42.602 0.122 7.35 14.98 12.88
4/20/2022 11:15:00 AM 6.15 43.07 0.121 7.36 13.73 12.84
4/20/2022 11:30:00 AM 6.42 43.556 0.121 7.38 18.96 12.8
4/20/2022 11:45:00 AM 6.65 43.97 0.13 7.4 17.29 12.74
4/20/2022 12:00:00 PM 6.97 44.546 0.121 7.42 13.72 12.72
4/20/2022 12:15:00 PM 7.28 45.104 0.13 7.41 13.58 12.68
4/20/2022 12:30:00 PM 7.55 45.59 0.129 7.45 13.37 12.62
4/20/2022 12:45:00 PM 7.82 46.076 0.13 7.45 13.2 12.57
4/20/2022 1:00:00 PM 8.07 46.526 0.13 7.46 13.16 12.5
4/20/2022 1:15:00 PM 8.32 46.976 0.13 7.46 13.32 12.45
4/20/2022 1:30:00 PM 8.56 47.408 0.13 7.48 14.67 12.39
4/20/2022 1:45:00 PM 8.77 47.786 0.129 7.48 15.21 12.34
4/20/2022 2:00:00 PM 8.98 48.164 0.13 7.48 14.59 12.28
4/20/2022 2:15:00 PM 9.17 48.506 0.13 7.49 15.52 12.22
4/20/2022 2:30:00 PM 9.34 48.812 0.13 7.49 11.21 12.16
4/20/2022 2:45:00 PM 9.5 49.1 0.129 7.5 12.38 12.11
4/20/2022 3:00:00 PM 9.65 49.37 0.13 7.48 14.17 12.05
4/20/2022 3:15:00 PM 9.8 49.64 0.13 7.5 14.82 11.98
4/20/2022 3:30:00 PM 9.93 49.874 0.13 7.5 14.16 11.92
4/20/2022 3:45:00 PM 10.04 50.072 0.13 7.5 14 11.86
4/20/2022 4:00:00 PM 10.14 50.252 0.13 7.5 14.82 11.8
4/20/2022 4:15:00 PM 10.22 50.396 0.13 7.52 15.29 11.74
4/20/2022 4:30:00 PM 10.29 50.522 0.13 7.5 13.95 11.69
4/20/2022 4:45:00 PM 10.35 50.63 0.129 7.51 14.24 11.63
4/20/2022 5:00:00 PM 10.41 50.738 0.129 7.5 15.35 11.57
4/20/2022 5:15:00 PM 10.47 50.846 0.129 7.48 14.61 11.52
4/20/2022 5:30:00 PM 10.5 50.9 0.13 7.47 15.55 11.46
4/20/2022 5:45:00 PM 10.52 50.936 0.129 7.47 15.13 11.41
4/20/2022 6:00:00 PM 10.53 50.954 0.129 7.44 15.68 11.35
4/20/2022 6:15:00 PM 10.52 50.936 0.129 7.41 14.74 11.29
4/20/2022 6:30:00 PM 10.5 50.9 0.129 7.39 15.16 11.23
4/20/2022 6:45:00 PM 10.45 50.81 0.129 7.38 15 11.19
4/20/2022 7:00:00 PM 10.41 50.738 0.128 7.36 15.11 11.13
4/20/2022 7:15:00 PM 10.34 50.612 0.128 7.35 13.25 11.1
4/20/2022 7:30:00 PM 10.27 50.486 0.128 7.33 13.5 11.07
4/20/2022 7:45:00 PM 10.2 50.36 0.127 7.31 14.95 11.03
4/20/2022 8:00:00 PM 10.11 50.198 0.127 7.29 15.81 10.99
4/20/2022 8:15:00 PM 10.01 50.018 0.127 7.28 16.27 10.95
4/20/2022 8:30:00 PM 9.9 49.82 0.127 7.25 16.83 10.92
4/20/2022 8:45:00 PM 9.79 49.622 0.126 7.22 15.62 10.91
4/20/2022 9:00:00 PM 9.65 49.37 0.126 7.2 16.04 10.94
4/20/2022 9:15:00 PM 9.51 49.118 0.125 7.19 16.69 10.96
4/20/2022 9:30:00 PM 9.35 48.83 0.125 7.19 17.28 10.98
4/20/2022 9:45:00 PM 9.19 48.542 0.125 7.18 18.15 11.01
4/20/2022 10:00:00 PM 9.03 48.254 0.126 7.18 17.23 11.05
4/20/2022 10:15:00 PM 8.86 47.948 0.125 7.17 23.53 11.09
4/20/2022 10:30:00 PM 8.69 47.642 0.126 7.15 17.76 11.12
4/20/2022 10:45:00 PM 8.51 47.318 0.125 7.15 18.37 11.17
4/20/2022 11:00:00 PM 8.34 47.012 0.125 7.15 18.08 11.21
4/20/2022 11:15:00 PM 8.17 46.706 0.117 7.15 17.04 11.25
4/20/2022 11:30:00 PM 8 46.4 0.116 7.14 21.09 11.3
4/20/2022 11:45:00 PM 7.84 46.112 0.116 7.14 17.29 11.33
4/21/2022 12:00:00 AM 7.7 45.86 0.116 7.13 19.86 11.38
4/21/2022 12:15:00 AM 7.59 45.662 0.116 7.13 18.1 11.41
4/21/2022 12:30:00 AM 7.48 45.464 0.116 7.11 17.11 11.43
4/21/2022 12:45:00 AM 7.38 45.284 0.116 7.12 17.72 11.45
4/21/2022 1:00:00 AM 7.3 45.14 0.117 7.11 20.48 11.47
4/21/2022 1:15:00 AM 7.23 45.014 0.116 7.11 16.43 11.51
4/21/2022 1:30:00 AM 7.16 44.888 0.117 7.1 18.17 11.53
4/21/2022 1:45:00 AM 7.08 44.744 0.116 7.08 16.9 11.55
4/21/2022 2:00:00 AM 7.01 44.618 0.117 7.1 17.96 11.57
4/21/2022 2:15:00 AM 6.94 44.492 0.117 7.09 18.41 11.58
4/21/2022 2:30:00 AM 6.88 44.384 0.117 7.09 16.48 11.6
4/21/2022 2:45:00 AM 6.82 44.276 0.117 7.08 16.43 11.61
4/21/2022 3:00:00 AM 6.76 44.168 0.118 7.08 15.04 11.63
4/21/2022 3:15:00 AM 6.7 44.06 0.119 7.08 17.06 11.64
4/21/2022 3:30:00 AM 6.64 43.952 0.118 7.07 15.87 11.66
4/21/2022 3:45:00 AM 6.58 43.844 0.119 7.06 14.98 11.67
4/21/2022 4:00:00 AM 6.52 43.736 0.119 7.06 14.58 11.69
4/21/2022 4:15:00 AM 6.46 43.628 0.119 7.08 16.83 11.72
4/21/2022 4:30:00 AM 6.41 43.538 0.119 7.07 16.28 11.72
4/21/2022 4:45:00 AM 6.37 43.466 0.12 7.08 16.35 11.74
4/21/2022 5:00:00 AM 6.33 43.394 0.12 7.06 17.04 11.75
4/21/2022 5:15:00 AM 6.3 43.34 0.12 7.08 15.96 11.77
4/21/2022 5:30:00 AM 6.26 43.268 0.12 7.08 14.72 11.78
4/21/2022 5:45:00 AM 6.22 43.196 0.12 7.08 15.24 11.79
4/21/2022 6:00:00 AM 6.19 43.142 0.121 7.08 15.05 11.79
4/21/2022 6:15:00 AM 6.16 43.088 0.121 7.09 15.25 11.8
4/21/2022 6:30:00 AM 6.12 43.016 0.121 7.09 13.94 11.81
4/21/2022 6:45:00 AM 6.1 42.98 0.121 7.11 16.27 11.85
4/21/2022 7:00:00 AM 6.08 42.944 0.121 7.13 15.16 11.91
4/21/2022 7:15:00 AM 6.07 42.926 0.121 7.14 16.86 11.98
4/21/2022 7:30:00 AM 6.08 42.944 0.121 7.16 16.6 12.07
4/21/2022 7:45:00 AM 6.09 42.962 0.121 7.19 17.29 12.16
4/21/2022 8:00:00 AM 6.12 43.016 0.122 7.2 15.97 12.24
4/21/2022 8:15:00 AM 6.18 43.124 0.13 7.24 15.27 12.32
4/21/2022 8:30:00 AM 6.27 43.286 0.13 7.26 15.36 12.39
4/21/2022 8:45:00 AM 6.34 43.412 0.122 7.29 15.17 12.45
4/21/2022 9:00:00 AM 6.4 43.52 0.122 7.31 16.65 12.47
4/21/2022 9:15:00 AM 6.48 43.664 0.121 7.33 14.57 12.49
4/21/2022 9:30:00 AM 6.51 43.718 0.13 7.34 14.03 12.48
4/21/2022 9:45:00 AM 6.52 43.736 0.13 7.31 14.73 12.45
4/21/2022 10:00:00 AM 6.55 43.79 0.121 7.32 15.37 12.43
4/21/2022 10:15:00 AM 6.57 43.826 0.121 7.33 15.42 12.42
4/21/2022 10:30:00 AM 6.61 43.898 0.121 7.33 13.95 12.39
4/21/2022 10:45:00 AM 6.67 44.006 0.121 7.35 14.62 12.42
4/21/2022 11:00:00 AM 6.74 44.132 0.129 7.36 15.46 12.44
4/21/2022 11:15:00 AM 6.8 44.24 0.129 7.38 15.64 12.45
4/21/2022 11:30:00 AM 6.85 44.33 0.122 7.39 13.83 12.45
4/21/2022 11:45:00 AM 6.9 44.42 0.121 7.39 14.51 12.43
4/21/2022 12:00:00 PM 6.95 44.51 0.129 7.39 14.99 12.43
4/21/2022 12:15:00 PM 6.98 44.564 0.13 7.41 15.51 12.4
4/21/2022 12:30:00 PM 7.01 44.618 0.121 7.39 15.4 12.37
4/21/2022 12:45:00 PM 7.04 44.672 0.129 7.4 15.51 12.34
4/21/2022 1:00:00 PM 7.07 44.726 0.129 7.4 15.01 12.33
4/21/2022 1:15:00 PM 7.1 44.78 0.129 7.39 15 12.31
4/21/2022 1:30:00 PM 7.12 44.816 0.129 7.39 14.17 12.27
4/21/2022 1:45:00 PM 7.14 44.852 0.129 7.38 14.81 12.22
4/21/2022 2:00:00 PM 7.18 44.924 0.129 7.37 14.36 12.21
4/21/2022 2:15:00 PM 7.21 44.978 0.13 7.37 15.93 12.21
4/21/2022 2:30:00 PM 7.24 45.032 0.129 7.37 14.77 12.2
4/21/2022 2:45:00 PM 7.27 45.086 0.129 7.36 14.69 12.17
4/21/2022 3:00:00 PM 7.29 45.122 0.129 7.37 14.42 12.14
4/21/2022 3:15:00 PM 7.38 45.284 0.129 7.37 14.69 12.17
4/21/2022 3:30:00 PM 7.48 45.464 0.129 7.4 15.32 12.25
4/21/2022 3:45:00 PM 7.58 45.644 0.129 7.42 14.72 12.3
4/21/2022 4:00:00 PM 7.72 45.896 0.13 7.44 14.96 12.32
4/21/2022 4:15:00 PM 7.75 45.95 0.129 7.45 16.99 12.31
4/21/2022 4:30:00 PM 7.78 46.004 0.129 7.45 15.37 12.29
4/21/2022 4:45:00 PM 7.78 46.004 0.129 7.43 15.81 12.24
4/21/2022 5:00:00 PM 7.78 46.004 0.13 7.42 16.52 12.18
4/21/2022 5:15:00 PM 7.79 46.022 0.13 7.42 15.09 12.17
4/21/2022 5:30:00 PM 7.8 46.04 0.13 7.4 15.96 12.15
4/21/2022 5:45:00 PM 7.82 46.076 0.13 7.42 15.68 12.11
4/21/2022 6:00:00 PM 7.82 46.076 0.13 7.41 16.22 12.07
4/21/2022 6:15:00 PM 7.85 46.13 0.13 7.41 14.91 12.09
4/21/2022 6:30:00 PM 7.86 46.148 0.131 7.42 14.85 12.08
4/21/2022 6:45:00 PM 7.86 46.148 0.13 7.4 15.13 12.05
4/21/2022 7:00:00 PM 7.84 46.112 0.13 7.4 14.85 12
4/21/2022 7:15:00 PM 7.82 46.076 0.131 7.38 15.88 11.94
4/21/2022 7:30:00 PM 7.77 45.986 0.131 7.36 15.29 11.86
4/21/2022 7:45:00 PM 7.73 45.914 0.131 7.33 15.61 11.77
4/21/2022 8:00:00 PM 7.69 45.842 0.131 7.3 15.14 11.71
4/21/2022 8:15:00 PM 7.65 45.77 0.131 7.28 14.52 11.63
4/21/2022 8:30:00 PM 7.61 45.698 0.131 7.27 15.09 11.59
4/21/2022 8:45:00 PM 7.55 45.59 0.131 7.25 15.42 11.56
4/21/2022 9:00:00 PM 7.5 45.5 0.131 7.24 14.54 11.54
4/21/2022 9:15:00 PM 7.46 45.428 0.131 7.23 14.75 11.53
4/21/2022 9:30:00 PM 7.43 45.374 0.131 7.22 15.2 11.52
4/21/2022 9:45:00 PM 7.39 45.302 0.131 7.21 15.12 11.51
4/21/2022 10:00:00 PM 7.36 45.248 0.131 7.2 14.58 11.5
4/21/2022 10:15:00 PM 7.33 45.194 0.131 7.2 14.9 11.5
4/21/2022 10:30:00 PM 7.29 45.122 0.132 7.19 14.23 11.5
4/21/2022 10:45:00 PM 7.25 45.05 0.132 7.19 15.24 11.51
4/21/2022 11:00:00 PM 7.21 44.978 0.132 7.18 15.19 11.51
4/21/2022 11:15:00 PM 7.17 44.906 0.132 7.17 15.88 11.51
4/21/2022 11:30:00 PM 7.12 44.816 0.132 7.16 15.66 11.53
4/21/2022 11:45:00 PM 7.08 44.744 0.132 7.16 14.15 11.53
4/22/2022 12:00:00 AM 7.05 44.69 0.132 7.14 15.06 11.54
4/22/2022 12:15:00 AM 7.01 44.618 0.131 7.16 14.98 11.55
4/22/2022 12:30:00 AM 6.98 44.564 0.132 7.15 14.57 11.55
4/22/2022 12:45:00 AM 6.94 44.492 0.132 7.15 14.84 11.56
4/22/2022 1:00:00 AM 6.9 44.42 0.132 7.04 15.01 11.56
4/22/2022 1:15:00 AM 6.85 44.33 0.132 7.15 15.35 11.58
4/22/2022 1:30:00 AM 6.79 44.222 0.132 7.15 14.83 11.59
4/22/2022 1:45:00 AM 6.74 44.132 0.132 7.15 14.94 11.6
4/22/2022 2:00:00 AM 6.68 44.024 0.132 7.14 14.76 11.62
4/22/2022 2:15:00 AM 6.62 43.916 0.132 7.13 15.13 11.63
4/22/2022 2:30:00 AM 6.57 43.826 0.132 7.14 14.92 11.65
4/22/2022 2:45:00 AM 6.51 43.718 0.132 7.14 15.8 11.67
4/22/2022 3:00:00 AM 6.45 43.61 0.132 7.12 14.31 11.68
4/22/2022 3:15:00 AM 6.4 43.52 0.132 7.11 15.06 11.7
4/22/2022 3:30:00 AM 6.35 43.43 0.133 7.12 15.38 11.71
4/22/2022 3:45:00 AM 6.33 43.394 0.133 7.12 14.82 11.73
4/22/2022 4:00:00 AM 6.32 43.376 0.133 7.12 14.89 11.74
4/22/2022 4:15:00 AM 6.31 43.358 0.133 7.13 14.23 11.75
4/22/2022 4:30:00 AM 6.31 43.358 0.133 7.11 15.45 11.76
4/22/2022 4:45:00 AM 6.31 43.358 0.133 7.13 13.85 11.77
4/22/2022 5:00:00 AM 6.29 43.322 0.133 7.14 15.88 11.78
4/22/2022 5:15:00 AM 6.25 43.25 0.133 7.14 14.58 11.79
4/22/2022 5:30:00 AM 6.2 43.16 0.133 7.14 14.52 11.81
4/22/2022 5:45:00 AM 6.14 43.052 0.133 7.12 15.54 11.82
4/22/2022 6:00:00 AM 6.08 42.944 0.133 7.13 15.03 11.84
4/22/2022 6:15:00 AM 6.02 42.836 0.133 7.13 15.91 11.86
4/22/2022 6:30:00 AM 5.96 42.728 0.133 7.12 15.99 11.9
4/22/2022 6:45:00 AM 5.91 42.638 0.133 7.13 15.88 11.95
4/22/2022 7:00:00 AM 5.87 42.566 0.133 7.14 14.98 12.03
4/22/2022 7:15:00 AM 5.83 42.494 0.133 7.15 16.43 12.12
4/22/2022 7:30:00 AM 5.81 42.458 0.124 7.17 15.7 12.21
4/22/2022 7:45:00 AM 5.81 42.458 0.124 7.18 15.27 12.3
4/22/2022 8:00:00 AM 5.82 42.476 0.133 7.23 15.19 12.39
4/22/2022 8:15:00 AM 5.86 42.548 0.124 7.25 14.6 12.49
4/22/2022 8:30:00 AM 5.91 42.638 0.133 7.28 14.51 12.56
4/22/2022 8:45:00 AM 5.98 42.764 0.132 7.31 15.66 12.62
4/22/2022 9:00:00 AM 6.07 42.926 0.124 7.33 14.9 12.66
4/22/2022 9:15:00 AM 6.17 43.106 0.132 7.37 14.41 12.71
4/22/2022 9:30:00 AM 6.3 43.34 0.132 7.38 14.73 12.75
4/22/2022 9:45:00 AM 6.46 43.628 0.132 7.4 14.26 12.77
4/22/2022 10:00:00 AM 6.65 43.97 0.132 7.41 14.63 12.78
4/22/2022 10:15:00 AM 6.87 44.366 0.132 7.43 15 12.78
4/22/2022 10:30:00 AM 7.11 44.798 0.132 7.45 13.96 12.77
4/22/2022 10:45:00 AM 7.37 45.266 0.132 7.48 15.67 12.75
4/22/2022 11:00:00 AM 7.64 45.752 0.132 7.5 14.3 12.73
4/22/2022 11:15:00 AM 7.93 46.274 0.132 7.51 15.05 12.7
4/22/2022 11:30:00 AM 8.23 46.814 0.132 7.53 16.35 12.66
4/22/2022 11:45:00 AM 8.53 47.354 0.132 7.53 15.81 12.61
4/22/2022 12:00:00 PM 8.82 47.876 0.131 7.56 18.99 12.56
4/22/2022 12:15:00 PM 9.11 48.398 0.131 7.58 16.14 12.51
4/22/2022 12:30:00 PM 9.39 48.902 0.131 7.57 15.89 12.45
4/22/2022 12:45:00 PM 9.67 49.406 0.131 7.61 15.05 12.4
4/22/2022 1:00:00 PM 9.93 49.874 0.131 7.6 14.9 12.34
4/22/2022 1:15:00 PM 10.18 50.324 0.131 7.62 15 12.28
4/22/2022 1:30:00 PM 10.42 50.756 0.131 7.63 15.5 12.22
4/22/2022 1:45:00 PM 10.65 51.17 0.131 7.66 15.16 12.16
4/22/2022 2:00:00 PM 10.85 51.53 0.131 7.65 15.68 12.11
4/22/2022 2:15:00 PM 11.05 51.89 0.131 7.65 14.06 12.05
4/22/2022 2:30:00 PM 11.23 52.214 0.131 7.65 16.27 11.99
4/22/2022 2:45:00 PM 11.38 52.484 0.131 7.67 14.92 11.93
4/22/2022 3:00:00 PM 11.52 52.736 0.131 7.68 15.53 11.87
4/22/2022 3:15:00 PM 11.64 52.952 0.131 7.69 15.29 11.81
4/22/2022 3:30:00 PM 11.75 53.15 0.131 7.68 14.36 11.75
4/22/2022 3:45:00 PM 11.84 53.312 0.131 7.68 14.41 11.69
4/22/2022 4:00:00 PM 11.91 53.438 0.131 7.67 15.16 11.63
4/22/2022 4:15:00 PM 11.97 53.546 0.131 7.67 15.11 11.59
4/22/2022 4:30:00 PM 12.01 53.618 0.131 7.66 14.13 11.53
4/22/2022 4:45:00 PM 12.05 53.69 0.131 7.66 13.61 11.48
4/22/2022 5:00:00 PM 12.06 53.708 0.131 7.65 14.12 11.44
4/22/2022 5:15:00 PM 12.07 53.726 0.131 7.64 14.94 11.4
4/22/2022 5:30:00 PM 12.09 53.762 0.131 7.64 16.25 11.38
4/22/2022 5:45:00 PM 12.08 53.744 0.131 7.63 14.26 11.34
4/22/2022 6:00:00 PM 12.07 53.726 0.131 7.62 14.9 11.28
4/22/2022 6:15:00 PM 12.04 53.672 0.131 7.6 14.78 11.24
4/22/2022 6:30:00 PM 12.01 53.618 0.131 7.57 14.31 11.2
4/22/2022 6:45:00 PM 11.97 53.546 0.131 7.55 13.8 11.14
4/22/2022 7:00:00 PM 11.92 53.456 0.131 7.52 14.61 11.07
4/22/2022 7:15:00 PM 11.87 53.366 0.131 7.48 14.93 10.99
4/22/2022 7:30:00 PM 11.8 53.24 0.131 7.45 14.65 10.9
4/22/2022 7:45:00 PM 11.71 53.078 0.131 7.41 14.27 10.8
4/22/2022 8:00:00 PM 11.61 52.898 0.131 7.35 14.91 10.69
4/22/2022 8:15:00 PM 11.52 52.736 0.131 7.32 14.42 10.61
4/22/2022 8:30:00 PM 11.43 52.574 0.132 7.3 14.66 10.55
4/22/2022 8:45:00 PM 11.34 52.412 0.132 7.27 15.44 10.51
4/22/2022 9:00:00 PM 11.25 52.25 0.132 7.25 15.44 10.48
4/22/2022 9:15:00 PM 11.16 52.088 0.132 7.22 14.28 10.46
4/22/2022 9:30:00 PM 11.07 51.926 0.132 7.13 15.31 10.46
4/22/2022 9:45:00 PM 10.98 51.764 0.132 7.21 15.93 10.46
4/22/2022 10:00:00 PM 10.89 51.602 0.132 7.11 15.13 10.47
4/22/2022 10:15:00 PM 10.8 51.44 0.132 7.18 14.47 10.48
4/22/2022 10:30:00 PM 10.7 51.26 0.132 7.18 16.01 10.49
4/22/2022 10:45:00 PM 10.61 51.098 0.132 7.17 15.1 10.5
4/22/2022 11:00:00 PM 10.5 50.9 0.132 7.17 16.32 10.52
4/22/2022 11:15:00 PM 10.39 50.702 0.133 7.18 15.83 10.54
4/22/2022 11:30:00 PM 10.29 50.522 0.133 7.17 16.24 10.57
4/22/2022 11:45:00 PM 10.17 50.306 0.133 7.19 16.28 10.6
4/23/2022 12:00:00 AM 10.05 50.09 0.133 7.18 17.44 10.62
4/23/2022 12:15:00 AM 9.93 49.874 0.133 7.18 16.29 10.65
4/23/2022 12:30:00 AM 9.79 49.622 0.133 7.15 17.34 10.68
4/23/2022 12:45:00 AM 9.67 49.406 0.133 7.14 17.04 10.72
4/23/2022 1:00:00 AM 9.55 49.19 0.133 7.14 19.17 10.76
4/23/2022 1:15:00 AM 9.43 48.974 0.134 7.16 16.34 10.79
4/23/2022 1:30:00 AM 9.33 48.794 0.133 7.16 17.89 10.82
4/23/2022 1:45:00 AM 9.22 48.596 0.134 7.16 14.9 10.85
4/23/2022 2:00:00 AM 9.11 48.398 0.134 7.16 12.96 10.88
4/23/2022 2:15:00 AM 9.01 48.218 0.134 7.14 13.6 10.91
4/23/2022 2:30:00 AM 8.91 48.038 0.134 7.13 12.97 10.95
4/23/2022 2:45:00 AM 8.81 47.858 0.134 7.12 16.87 10.97
4/23/2022 3:00:00 AM 8.71 47.678 0.134 7.14 17.9 11
4/23/2022 3:15:00 AM 8.62 47.516 0.134 7.13 13.09 11.03
4/23/2022 3:30:00 AM 8.53 47.354 0.134 7.12 12.16 11.05
4/23/2022 3:45:00 AM 8.44 47.192 0.134 7.12 13.75 11.08
4/23/2022 4:00:00 AM 8.36 47.048 0.134 7.12 14.4 11.12
4/23/2022 4:15:00 AM 8.29 46.922 0.135 7.11 11.52 11.13
4/23/2022 4:30:00 AM 8.21 46.778 0.135 7.1 11.58 11.16
4/23/2022 4:45:00 AM 8.14 46.652 0.135 7.08 13.56 11.18
4/23/2022 5:00:00 AM 8.08 46.544 0.135 7.08 12.51 11.2
4/23/2022 5:15:00 AM 8.01 46.418 0.135 7.1 12.43 11.22
4/23/2022 5:30:00 AM 7.95 46.31 0.135 7.11 12.57 11.23
4/23/2022 5:45:00 AM 7.89 46.202 0.135 6.99 14.6 11.26
4/23/2022 6:00:00 AM 7.84 46.112 0.135 7.09 13.05 11.27
4/23/2022 6:15:00 AM 7.79 46.022 0.135 7.09 12.27 11.29
4/23/2022 6:30:00 AM 7.74 45.932 0.135 7.11 12.85 11.32
4/23/2022 6:45:00 AM 7.7 45.86 0.136 7.12 14.24 11.35
4/23/2022 7:00:00 AM 7.66 45.788 0.135 7.14 11.69 11.41
4/23/2022 7:15:00 AM 7.64 45.752 0.136 7.14 16.63 11.48
4/23/2022 7:30:00 AM 7.61 45.698 0.136 7.17 13.77 11.58
4/23/2022 7:45:00 AM 7.59 45.662 0.136 7.18 13.15 11.66
4/23/2022 8:00:00 AM 7.59 45.662 0.136 7.21 13.44 11.79
4/23/2022 8:15:00 AM 7.59 45.662 0.136 7.26 12.83 11.93
4/23/2022 8:30:00 AM 7.58 45.644 0.136 7.28 13.58 12
4/23/2022 8:45:00 AM 7.61 45.698 0.136 7.32 13.56 12.1
4/23/2022 9:00:00 AM 7.65 45.77 0.136 7.34 12.46 12.18
4/23/2022 9:15:00 AM 7.69 45.842 0.135 7.38 12.17 12.27
4/23/2022 9:30:00 AM 7.77 45.986 0.135 7.42 13.92 12.35
4/23/2022 9:45:00 AM 7.92 46.256 0.135 7.45 15.77 12.41
4/23/2022 10:00:00 AM 8.04 46.472 0.135 7.47 15.44 12.44
4/23/2022 10:15:00 AM 8.28 46.904 0.135 7.51 13.47 12.47
4/23/2022 10:30:00 AM 8.54 47.372 0.135 7.54 17.29 12.47
4/23/2022 10:45:00 AM 8.81 47.858 0.135 7.56 15.86 12.47
4/23/2022 11:00:00 AM 9.09 48.362 0.135 7.58 11.38 12.44
4/23/2022 11:15:00 AM 9.4 48.92 0.135 7.61 11.45 12.42
4/23/2022 11:30:00 AM 9.68 49.424 0.135 7.64 10.78 12.39
4/23/2022 11:45:00 AM 9.8 49.64 0.135 7.67 11.85 12.33
4/23/2022 12:00:00 PM 9.88 49.784 0.135 7.68 12.24 12.31
4/23/2022 12:15:00 PM 9.96 49.928 0.135 7.7 11.62 12.3
4/23/2022 12:30:00 PM 10.2 50.36 0.135 7.72 11.25 12.29
4/23/2022 12:45:00 PM 10.49 50.882 0.135 7.74 11.44 12.25
4/23/2022 1:00:00 PM 10.65 51.17 0.135 7.74 12.19 12.21
4/23/2022 1:15:00 PM 10.8 51.44 0.135 7.67 11.12 12.16
4/23/2022 1:30:00 PM 10.81 51.458 0.135 7.78 11.76 12.11
4/23/2022 1:45:00 PM 10.8 51.44 0.135 7.78 11.77 12.03
4/23/2022 2:00:00 PM 10.85 51.53 0.135 7.76 10.59 11.99
4/23/2022 2:15:00 PM 10.97 51.746 0.135 7.79 11.44 11.99
4/23/2022 2:30:00 PM 11.11 51.998 0.134 7.7 12.21 11.99
4/23/2022 2:45:00 PM 11.2 52.16 0.135 7.83 12.18 11.97
4/23/2022 3:00:00 PM 11.21 52.178 0.135 7.82 12.26 11.9
4/23/2022 3:15:00 PM 11.19 52.142 0.134 7.78 11.06 11.78
4/23/2022 3:30:00 PM 11.15 52.07 0.135 7.74 9.83 11.63
4/23/2022 3:45:00 PM 11.13 52.034 0.134 7.67 10.8 11.56
4/23/2022 4:00:00 PM 11.11 51.998 0.135 7.67 10.79 11.57
4/23/2022 4:15:00 PM 11.12 52.016 0.134 7.68 14.82 11.62
4/23/2022 4:30:00 PM 11.19 52.142 0.134 7.71 12 11.68
4/23/2022 4:45:00 PM 11.25 52.25 0.134 7.75 12 11.73
4/23/2022 5:00:00 PM 11.32 52.376 0.134 7.76 12.34 11.74
4/23/2022 5:15:00 PM 11.39 52.502 0.134 7.78 11.44 11.72
4/23/2022 5:30:00 PM 11.37 52.466 0.134 7.76 10.98 11.68
4/23/2022 5:45:00 PM 11.38 52.484 0.134 7.74 10.76 11.63
4/23/2022 6:00:00 PM 11.47 52.646 0.134 7.75 9.97 11.61
4/23/2022 6:15:00 PM 11.49 52.682 0.134 7.74 10.67 11.57
4/23/2022 6:30:00 PM 11.46 52.628 0.134 7.71 12.26 11.48
4/23/2022 6:45:00 PM 11.45 52.61 0.134 7.66 12.49 11.37
4/23/2022 7:00:00 PM 11.44 52.592 0.134 7.62 11.9 11.29
4/23/2022 7:15:00 PM 11.41 52.538 0.134 7.57 12.05 11.17
4/23/2022 7:30:00 PM 11.38 52.484 0.134 7.53 11.84 11.07
4/23/2022 7:45:00 PM 11.35 52.43 0.134 7.48 12.08 10.94
4/23/2022 8:00:00 PM 11.32 52.376 0.134 7.43 12 10.8
4/23/2022 8:15:00 PM 11.27 52.286 0.134 7.39 11.16 10.67
4/23/2022 8:30:00 PM 11.22 52.196 0.135 7.35 12.19 10.58
4/23/2022 8:45:00 PM 11.16 52.088 0.135 7.33 12.98 10.52
4/23/2022 9:00:00 PM 11.09 51.962 0.135 7.28 11.31 10.47
4/23/2022 9:15:00 PM 11.02 51.836 0.135 7.28 18.36 10.45
4/23/2022 9:30:00 PM 10.95 51.71 0.135 7.27 14.38 10.44
4/23/2022 9:45:00 PM 10.89 51.602 0.135 7.25 13.41 10.43
4/23/2022 10:00:00 PM 10.82 51.476 0.135 7.25 13.77 10.42
4/23/2022 10:15:00 PM 10.75 51.35 0.135 7.24 14.87 10.42
4/23/2022 10:30:00 PM 10.67 51.206 0.135 7.23 13.7 10.42
4/23/2022 10:45:00 PM 10.61 51.098 0.135 7.22 13.55 10.43
4/23/2022 11:00:00 PM 10.53 50.954 0.135 7.21 13.53 10.43
4/23/2022 11:15:00 PM 10.45 50.81 0.135 7.2 14.22 10.44
4/23/2022 11:30:00 PM 10.37 50.666 0.136 7.19 12.86 10.46
4/23/2022 11:45:00 PM 10.29 50.522 0.136 7.19 13.65 10.48
4/24/2022 12:00:00 AM 10.21 50.378 0.135 7.19 12.65 10.49
4/24/2022 12:15:00 AM 10.12 50.216 0.136 7.19 12.92 10.51
4/24/2022 12:30:00 AM 10.04 50.072 0.136 7.19 13.95 10.53
4/24/2022 12:45:00 AM 9.95 49.91 0.136 7.17 14.48 10.54
4/24/2022 1:00:00 AM 9.87 49.766 0.136 7.19 13.75 10.55
4/24/2022 1:15:00 AM 9.79 49.622 0.136 7.18 13.56 10.57
4/24/2022 1:30:00 AM 9.71 49.478 0.136 7.17 13.57 10.59
4/24/2022 1:45:00 AM 9.62 49.316 0.136 7.18 15.04 10.63
4/24/2022 2:00:00 AM 9.54 49.172 0.136 7.19 14.62 10.64
4/24/2022 2:15:00 AM 9.46 49.028 0.136 7.18 15.12 10.66
4/24/2022 2:30:00 AM 9.37 48.866 0.136 7.17 15.64 10.68
4/24/2022 2:45:00 AM 9.29 48.722 0.136 7.17 15.21 10.7
4/24/2022 3:00:00 AM 9.2 48.56 0.136 7.16 19 10.72
4/24/2022 3:15:00 AM 9.12 48.416 0.136 7.16 13.43 10.75
4/24/2022 3:30:00 AM 9.04 48.272 0.136 7.15 13.1 10.77
4/24/2022 3:45:00 AM 8.96 48.128 0.136 7.13 14.14 10.8
4/24/2022 4:00:00 AM 8.88 47.984 0.136 7.01 13.1 10.82
4/24/2022 4:15:00 AM 8.81 47.858 0.136 6.99 11.49 10.83
4/24/2022 4:30:00 AM 8.74 47.732 0.137 7.12 11.25 10.86
4/24/2022 4:45:00 AM 8.68 47.624 0.137 7.12 11.06 10.87
4/24/2022 5:00:00 AM 8.62 47.516 0.137 7.01 10.87 10.89
4/24/2022 5:15:00 AM 8.56 47.408 0.137 6.97 10.7 10.91
4/24/2022 5:30:00 AM 8.51 47.318 0.137 6.98 10.44 10.93
4/24/2022 5:45:00 AM 8.46 47.228 0.137 7.11 10.16 10.95
4/24/2022 6:00:00 AM 8.42 47.156 0.137 7.13 11.01 10.97
4/24/2022 6:15:00 AM 8.36 47.048 0.137 7.02 10.59 10.99
4/24/2022 6:30:00 AM 8.32 46.976 0.137 6.97 10.95 11.03
4/24/2022 6:45:00 AM 8.28 46.904 0.137 7.01 10.95 11.11
4/24/2022 7:00:00 AM 8.25 46.85 0.137 7.16 11.21 11.24
4/24/2022 7:15:00 AM 8.23 46.814 0.137 7.19 11.09 11.35
4/24/2022 7:30:00 AM 8.22 46.796 0.137 7.22 11.71 11.48
4/24/2022 7:45:00 AM 8.24 46.832 0.137 7.13 10.95 11.64
4/24/2022 8:00:00 AM 8.3 46.94 0.137 7.29 11.22 11.81
4/24/2022 8:15:00 AM 8.35 47.03 0.137 7.34 11.15 11.94
4/24/2022 8:30:00 AM 8.44 47.192 0.137 7.41 10.82 12.02
4/24/2022 8:45:00 AM 8.51 47.318 0.137 7.45 11.15 12.09
4/24/2022 9:00:00 AM 8.65 47.57 0.137 7.48 11.07 12.15
4/24/2022 9:15:00 AM 8.81 47.858 0.137 7.53 10.6 12.21
4/24/2022 9:30:00 AM 8.97 48.146 0.136 7.54 11.38 12.25
4/24/2022 9:45:00 AM 9.15 48.47 0.136 7.59 10.75 12.28
4/24/2022 10:00:00 AM 9.36 48.848 0.136 7.49 12.37 12.28
4/24/2022 10:15:00 AM 9.58 49.244 0.136 7.64 10.73 12.29
4/24/2022 10:30:00 AM 9.83 49.694 0.136 7.69 10.5 12.27
4/24/2022 10:45:00 AM 10.11 50.198 0.136 7.71 10.51 12.26
4/24/2022 11:00:00 AM 10.4 50.72 0.136 7.73 10.2 12.23
4/24/2022 11:15:00 AM 10.73 51.314 0.136 7.62 10.6 12.2
4/24/2022 11:30:00 AM 11.07 51.926 0.137 7.8 10.17 12.17
4/24/2022 11:45:00 AM 11.4 52.52 0.137 7.81 10.37 12.12
4/24/2022 12:00:00 PM 11.72 53.096 0.136 7.83 10.28 12.07
4/24/2022 12:15:00 PM 12.04 53.672 0.136 7.86 10.53 12.03
4/24/2022 12:30:00 PM 12.36 54.248 0.136 7.91 10.53 11.97
4/24/2022 12:45:00 PM 12.69 54.842 0.137 7.93 10.93 11.92
4/24/2022 1:00:00 PM 12.99 55.382 0.136 7.93 10.16 11.86
4/24/2022 1:15:00 PM 13.27 55.886 0.136 7.96 11.53 11.79
4/24/2022 1:30:00 PM 13.56 56.408 0.136 7.98 10.88 11.73
4/24/2022 1:45:00 PM 13.83 56.894 0.136 8.01 10.75 11.66
4/24/2022 2:00:00 PM 14.09 57.362 0.136 8.02 11.6 11.61
4/24/2022 2:15:00 PM 14.32 57.776 0.136 8.02 10.5 11.53
4/24/2022 2:30:00 PM 14.54 58.172 0.136 8.05 10.19 11.48
4/24/2022 2:45:00 PM 14.74 58.532 0.136 8.06 10.48 11.41
4/24/2022 3:00:00 PM 14.9 58.82 0.136 8.06 18.99 11.34
4/24/2022 3:15:00 PM 14.98 58.964 0.137 8.04 14.98 11.25
4/24/2022 3:30:00 PM 14.98 58.964 0.137 8.03 16.33 11.15
4/24/2022 3:45:00 PM 15.04 59.072 0.137 8.01 16.18 11.1
4/24/2022 4:00:00 PM 15.09 59.162 0.136 8 14.95 11.03
4/24/2022 4:15:00 PM 15.18 59.324 0.137 7.99 14.88 11
4/24/2022 4:30:00 PM 15.27 59.486 0.136 7.99 15.15 10.97
4/24/2022 4:45:00 PM 15.27 59.486 0.136 7.97 12.84 10.9
4/24/2022 5:00:00 PM 15.25 59.45 0.136 7.95 15.12 10.83
4/24/2022 5:15:00 PM 15.26 59.468 0.136 7.92 14 10.77
4/24/2022 5:30:00 PM 15.3 59.54 0.136 7.9 12.45 10.73
4/24/2022 5:45:00 PM 15.37 59.666 0.137 7.87 14.39 10.69
4/24/2022 6:00:00 PM 15.33 59.594 0.137 7.84 13.04 10.61
4/24/2022 6:15:00 PM 15.28 59.504 0.137 7.78 16.43 10.51
4/24/2022 6:30:00 PM 15.25 59.45 0.137 7.74 15.99 10.47
4/24/2022 6:45:00 PM 15.18 59.324 0.137 7.68 19.88 10.37
4/24/2022 7:00:00 PM 15.1 59.18 0.137 7.63 15.21 10.23
4/24/2022 7:15:00 PM 15.04 59.072 0.137 7.55 14.18 10.12
4/24/2022 7:30:00 PM 14.99 58.982 0.137 7.52 15.52 10
4/24/2022 7:45:00 PM 14.92 58.856 0.137 7.48 14.68 9.88
4/24/2022 8:00:00 PM 14.85 58.73 0.137 7.42 15.03 9.75
4/24/2022 8:15:00 PM 14.78 58.604 0.137 7.38 14.89 9.65
4/24/2022 8:30:00 PM 14.71 58.478 0.137 7.33 13.33 9.57
4/24/2022 8:45:00 PM 14.65 58.37 0.137 7.32 13.14 9.51
4/24/2022 9:00:00 PM 14.6 58.28 0.138 7.29 14 9.47
4/24/2022 9:15:00 PM 14.55 58.19 0.138 7.28 13.6 9.44
4/24/2022 9:30:00 PM 14.51 58.118 0.138 7.27 13.68 9.43
4/24/2022 9:45:00 PM 14.47 58.046 0.138 7.25 14.01 9.41
4/24/2022 10:00:00 PM 14.42 57.956 0.138 7.26 13.64 9.4
4/24/2022 10:15:00 PM 14.38 57.884 0.138 7.25 13.73 9.39
4/24/2022 10:30:00 PM 14.34 57.812 0.138 7.23 13.42 9.39
4/24/2022 10:45:00 PM 14.3 57.74 0.138 7.23 13.76 9.38
4/24/2022 11:00:00 PM 14.25 57.65 0.138 7.23 13.27 9.39
4/24/2022 11:15:00 PM 14.21 57.578 0.139 7.21 13.67 9.38
4/24/2022 11:30:00 PM 14.16 57.488 0.139 7.2 13.36 9.39
4/24/2022 11:45:00 PM 14.12 57.416 0.139 7.2 12.69 9.41
4/25/2022 12:00:00 AM 14.07 57.326 0.139 7.21 12.46 9.4
4/25/2022 12:15:00 AM 14.02 57.236 0.139 7.22 11.91 9.41
4/25/2022 12:30:00 AM 13.97 57.146 0.139 7.2 14.37 9.42
4/25/2022 12:45:00 AM 13.91 57.038 0.139 7.11 13.17 9.44
4/25/2022 1:00:00 AM 13.84 56.912 0.139 7.19 13.1 9.44
4/25/2022 1:15:00 AM 13.78 56.804 0.139 7.05 13.46 9.46
4/25/2022 1:30:00 AM 13.71 56.678 0.139 7.2 14.45 9.47
4/25/2022 1:45:00 AM 13.64 56.552 0.139 7.2 13.83 9.48
4/25/2022 2:00:00 AM 13.56 56.408 0.139 7.21 13.75 9.5
4/25/2022 2:15:00 AM 13.48 56.264 0.139 7.2 13.69 9.52
4/25/2022 2:30:00 AM 13.4 56.12 0.139 7.2 14.04 9.55
4/25/2022 2:45:00 AM 13.32 55.976 0.139 7.21 19.36 9.56
4/25/2022 3:00:00 AM 13.24 55.832 0.139 7.21 19.08 9.58
4/25/2022 3:15:00 AM 13.15 55.67 0.139 7.2 15.65 9.6
4/25/2022 3:30:00 AM 13.06 55.508 0.139 7.19 18.18 9.62
4/25/2022 3:45:00 AM 12.97 55.346 0.139 7.19 17.65 9.64
4/25/2022 4:00:00 AM 12.89 55.202 0.139 7.19 18.22 9.67
4/25/2022 4:15:00 AM 12.8 55.04 0.139 7.2 18.74 9.69
4/25/2022 4:30:00 AM 12.71 54.878 0.139 7.19 18.58 9.72
4/25/2022 4:45:00 AM 12.61 54.698 0.14 7.2 18.19 9.75
4/25/2022 5:00:00 AM 12.5 54.5 0.14 7.18 17.64 9.77
4/25/2022 5:15:00 AM 12.41 54.338 0.14 7.1 15.1 9.79
4/25/2022 5:30:00 AM 12.31 54.158 0.14 7.19 18.62 9.82
4/25/2022 5:45:00 AM 12.22 53.996 0.14 7.2 19.14 9.84
4/25/2022 6:00:00 AM 12.13 53.834 0.14 7.2 19.12 9.87
4/25/2022 6:15:00 AM 12.04 53.672 0.14 7.2 18.1 9.9
4/25/2022 6:30:00 AM 11.96 53.528 0.141 7.2 18.06 9.94
4/25/2022 6:45:00 AM 11.88 53.384 0.141 7.1 18.05 10.02
4/25/2022 7:00:00 AM 11.82 53.276 0.141 7.13 18.24 10.13
4/25/2022 7:15:00 AM 11.76 53.168 0.141 7.27 18.34 10.3
4/25/2022 7:30:00 AM 11.72 53.096 0.141 7.28 18.38 10.47
4/25/2022 7:45:00 AM 11.67 53.006 0.141 7.2 18.87 10.64
4/25/2022 8:00:00 AM 11.65 52.97 0.141 7.37 17.65 10.79
4/25/2022 8:15:00 AM 11.65 52.97 0.141 7.41 17.54 10.97
4/25/2022 8:30:00 AM 11.67 53.006 0.141 7.46 17.87 11.11
4/25/2022 8:45:00 AM 11.71 53.078 0.14 7.42 17.71 11.24
4/25/2022 9:00:00 AM 11.77 53.186 0.14 7.56 18.55 11.35
4/25/2022 9:15:00 AM 11.86 53.348 0.141 7.63 17.69 11.43
4/25/2022 9:30:00 AM 11.96 53.528 0.141 7.6 17.54 11.5
4/25/2022 9:45:00 AM 12.06 53.708 0.14 7.6 17.13 11.56
4/25/2022 10:00:00 AM 12.21 53.978 0.141 7.76 17.12 11.6
4/25/2022 10:15:00 AM 12.41 54.338 0.14 7.8 18.16 11.63
4/25/2022 10:30:00 AM 12.65 54.77 0.141 7.83 15.72 11.65
4/25/2022 10:45:00 AM 12.9 55.22 0.14 7.78 14.77 11.67
4/25/2022 11:00:00 AM 13.17 55.706 0.141 7.92 12.69 11.67
4/25/2022 11:15:00 AM 13.45 56.21 0.14 7.98 12.36 11.66
4/25/2022 11:30:00 AM 13.73 56.714 0.141 7.89 13.33 11.65
4/25/2022 11:45:00 AM 14.01 57.218 0.14 8.06 12.88 11.63
4/25/2022 12:00:00 PM 14.31 57.758 0.141 8.09 12.09 11.6
4/25/2022 12:15:00 PM 14.6 58.28 0.141 8.12 12.08 11.58
4/25/2022 12:30:00 PM 14.9 58.82 0.141 8.17 13.1 11.52
4/25/2022 12:45:00 PM 15.17 59.306 0.141 8.19 12.53 11.49
4/25/2022 1:00:00 PM 15.44 59.792 0.141 8.22 12.52 11.43
4/25/2022 1:15:00 PM 15.73 60.314 0.141 8.24 12.31 11.39
4/25/2022 1:30:00 PM 15.98 60.764 0.141 8.25 13.24 11.33
4/25/2022 1:45:00 PM 16.22 61.196 0.141 8.27 12.54 11.27
4/25/2022 2:00:00 PM 16.43 61.574 0.141 8.27 12.25 11.21
4/25/2022 2:15:00 PM 16.61 61.898 0.141 8.29 12.31 11.16
4/25/2022 2:30:00 PM 16.78 62.204 0.141 8.31 11.98 11.11
4/25/2022 2:45:00 PM 16.91 62.438 0.141 8.32 12.92 11.06
4/25/2022 3:00:00 PM 17.04 62.672 0.141 8.32 12.15 11.01
4/25/2022 3:15:00 PM 17.15 62.87 0.141 8.31 11.91 10.95
4/25/2022 3:30:00 PM 17.24 63.032 0.141 8.3 12.77 10.89
4/25/2022 3:45:00 PM 17.31 63.158 0.141 8.28 12.6 10.82
4/25/2022 4:00:00 PM 17.36 63.248 0.141 8.25 12.8 10.74
4/25/2022 4:15:00 PM 17.39 63.302 0.142 8.24 12.2 10.68
4/25/2022 4:30:00 PM 17.39 63.302 0.142 8.19 11.74 10.59
4/25/2022 4:45:00 PM 17.38 63.284 0.142 8.16 11.71 10.54
4/25/2022 5:00:00 PM 17.38 63.284 0.142 8.13 12.72 10.48
4/25/2022 5:15:00 PM 17.36 63.248 0.141 8.1 11.87 10.41
4/25/2022 5:30:00 PM 17.33 63.194 0.142 8.06 12.27 10.36
4/25/2022 5:45:00 PM 17.28 63.104 0.142 8.02 12.82 10.31
4/25/2022 6:00:00 PM 17.22 62.996 0.142 7.96 12.78 10.22
4/25/2022 6:15:00 PM 17.14 62.852 0.142 7.88 13.01 10.12
4/25/2022 6:30:00 PM 17.05 62.69 0.142 7.83 12.61 10.01
4/25/2022 6:45:00 PM 16.96 62.528 0.142 7.76 12.14 9.89
4/25/2022 7:00:00 PM 16.88 62.384 0.142 7.69 12.84 9.83
4/25/2022 7:15:00 PM 16.8 62.24 0.142 7.65 12.22 9.78
4/25/2022 7:30:00 PM 16.71 62.078 0.142 7.61 12.9 9.71
4/25/2022 7:45:00 PM 16.59 61.862 0.142 7.57 13.12 9.61
4/25/2022 8:00:00 PM 16.45 61.61 0.142 7.51 12.17 9.47
4/25/2022 8:15:00 PM 16.3 61.34 0.143 7.46 12.61 9.33
4/25/2022 8:30:00 PM 16.16 61.088 0.143 7.42 12.16 9.22
4/25/2022 8:45:00 PM 16.01 60.818 0.143 7.38 12.53 9.15
4/25/2022 9:00:00 PM 15.88 60.584 0.143 7.34 12.55 9.12
4/25/2022 9:15:00 PM 15.75 60.35 0.143 7.34 14.19 9.09
4/25/2022 9:30:00 PM 15.63 60.134 0.143 7.31 12.54 9.09
4/25/2022 9:45:00 PM 15.52 59.936 0.143 7.31 12.72 9.08
4/25/2022 10:00:00 PM 15.42 59.756 0.143 7.28 12.82 9.08
4/25/2022 10:15:00 PM 15.34 59.612 0.143 7.27 13.24 9.09
4/25/2022 10:30:00 PM 15.29 59.522 0.143 7.28 13.13 9.1
4/25/2022 10:45:00 PM 15.24 59.432 0.143 7.28 12.19 9.11
4/25/2022 11:00:00 PM 15.19 59.342 0.144 7.26 13.68 9.11
4/25/2022 11:15:00 PM 15.14 59.252 0.144 7.26 14.05 9.11
4/25/2022 11:30:00 PM 15.09 59.162 0.144 7.25 13 9.12
4/25/2022 11:45:00 PM 15.04 59.072 0.144 7.23 12.1 9.11
4/26/2022 12:00:00 AM 14.99 58.982 0.144 7.24 13.4 9.12
4/26/2022 12:15:00 AM 14.94 58.892 0.144 7.14 13.97 9.13
4/26/2022 12:30:00 AM 14.89 58.802 0.144 7.08 12.63 9.13
4/26/2022 12:45:00 AM 14.83 58.694 0.144 7.23 12.64 9.14
4/26/2022 1:00:00 AM 14.77 58.586 0.144 7.23 12.57 9.16
4/26/2022 1:15:00 AM 14.72 58.496 0.144 7.24 13.16 9.17
4/26/2022 1:30:00 AM 14.67 58.406 0.144 7.23 12.87 9.18
4/26/2022 1:45:00 AM 14.61 58.298 0.144 7.23 12.55 9.2
4/26/2022 2:00:00 AM 14.57 58.226 0.144 7.23 12.24 9.2
4/26/2022 2:15:00 AM 14.52 58.136 0.144 7.23 12.95 9.21
4/26/2022 2:30:00 AM 14.46 58.028 0.144 7.23 12.55 9.22
4/26/2022 2:45:00 AM 14.41 57.938 0.144 7.22 12.97 9.24
4/26/2022 3:00:00 AM 14.35 57.83 0.144 7.24 12.21 9.25
4/26/2022 3:15:00 AM 14.3 57.74 0.144 7.22 13.62 9.27
4/26/2022 3:30:00 AM 14.25 57.65 0.144 7.22 12.95 9.27
4/26/2022 3:45:00 AM 14.19 57.542 0.144 7.23 12.67 9.29
4/26/2022 4:00:00 AM 14.13 57.434 0.144 7.11 12.27 9.31
4/26/2022 4:15:00 AM 14.08 57.344 0.144 7.23 13.41 9.32
4/26/2022 4:30:00 AM 14.01 57.218 0.144 7.23 13.49 9.35
4/26/2022 4:45:00 AM 13.95 57.11 0.145 7.22 13.39 9.35
4/26/2022 5:00:00 AM 13.88 56.984 0.145 7.23 13.18 9.38
4/26/2022 5:15:00 AM 13.81 56.858 0.144 7.23 13.43 9.41
4/26/2022 5:30:00 AM 13.75 56.75 0.145 7.22 12.64 9.41
4/26/2022 5:45:00 AM 13.68 56.624 0.145 7.23 12.41 9.43
4/26/2022 6:00:00 AM 13.62 56.516 0.145 7.23 12.28 9.45
4/26/2022 6:15:00 AM 13.55 56.39 0.145 7.23 12.99 9.47
4/26/2022 6:30:00 AM 13.49 56.282 0.145 7.23 13.2 9.49
4/26/2022 6:45:00 AM 13.42 56.156 0.145 7.23 12.7 9.52
4/26/2022 7:00:00 AM 13.37 56.066 0.145 7.24 13.18 9.55
4/26/2022 7:15:00 AM 13.31 55.958 0.145 7.25 13.29 9.6
4/26/2022 7:30:00 AM 13.26 55.868 0.145 7.12 12.45 9.65
4/26/2022 7:45:00 AM 13.21 55.778 0.146 7.26 12.99 9.71
4/26/2022 8:00:00 AM 13.16 55.688 0.145 7.24 12.92 9.79
4/26/2022 8:15:00 AM 13.12 55.616 0.146 7.24 12.68 9.87
4/26/2022 8:30:00 AM 13.07 55.526 0.146 7.15 12.93 9.97
4/26/2022 8:45:00 AM 13.05 55.49 0.146 7.29 11.72 10.09
4/26/2022 9:00:00 AM 13.02 55.436 0.146 7.33 12.74 10.25
4/26/2022 9:15:00 AM 13 55.4 0.146 7.36 12.87 10.37
4/26/2022 9:30:00 AM 12.99 55.382 0.146 7.27 12.49 10.49
4/26/2022 9:45:00 AM 13.03 55.454 0.146 7.46 14.98 10.68
4/26/2022 10:00:00 AM 13.09 55.562 0.145 7.55 13.15 10.9
4/26/2022 10:15:00 AM 13.16 55.688 0.145 7.64 11.73 11.07
4/26/2022 10:30:00 AM 13.2 55.76 0.145 7.61 12.85 11.19
4/26/2022 10:45:00 AM 13.22 55.796 0.145 7.77 12.56 11.23
4/26/2022 11:00:00 AM 13.24 55.832 0.146 7.8 13.06 11.25
4/26/2022 11:15:00 AM 13.24 55.832 0.145 7.85 12.03 11.27
4/26/2022 11:30:00 AM 13.25 55.85 0.146 7.87 12.27 11.29
4/26/2022 11:45:00 AM 13.26 55.868 0.146 7.89 12.4 11.31
4/26/2022 12:00:00 PM 13.24 55.832 0.146 7.91 12.45 11.3
4/26/2022 12:15:00 PM 13.23 55.814 0.146 7.92 12.13 11.28
4/26/2022 12:30:00 PM 13.22 55.796 0.146 7.92 12 11.27
4/26/2022 12:45:00 PM 13.23 55.814 0.146 7.93 11.9 11.29
4/26/2022 1:00:00 PM 13.23 55.814 0.146 7.96 12.34 11.31
4/26/2022 1:15:00 PM 13.26 55.868 0.146 7.99 12.45 11.34
4/26/2022 1:30:00 PM 13.29 55.922 0.146 8.03 11.64 11.39
4/26/2022 1:45:00 PM 13.33 55.994 0.146 8.07 12.24 11.42
4/26/2022 2:00:00 PM 13.37 56.066 0.146 8.12 11.71 11.46
4/26/2022 2:15:00 PM 13.41 56.138 0.146 8.15 12.5 11.49
4/26/2022 2:30:00 PM 13.43 56.174 0.146 8.18 11.92 11.48
4/26/2022 2:45:00 PM 13.45 56.21 0.146 8.2 12.25 11.47
4/26/2022 3:00:00 PM 13.46 56.228 0.146 8.19 11.94 11.45
4/26/2022 3:15:00 PM 13.47 56.246 0.146 8.2 12.5 11.41
4/26/2022 3:30:00 PM 13.44 56.192 0.147 8.15 11.99 11.32
4/26/2022 3:45:00 PM 13.4 56.12 0.147 8.07 12.08 11.19
4/26/2022 4:00:00 PM 13.37 56.066 0.147 7.99 12.41 11.13
4/26/2022 4:15:00 PM 13.33 55.994 0.147 7.96 11.91 11.1
4/26/2022 4:30:00 PM 13.27 55.886 0.147 7.92 12.93 11.02
4/26/2022 4:45:00 PM 13.2 55.76 0.147 7.82 12.15 10.85
4/26/2022 5:00:00 PM 13.13 55.634 0.147 7.73 12.62 10.65
4/26/2022 5:15:00 PM 13.06 55.508 0.147 7.65 12.87 10.49
4/26/2022 5:30:00 PM 13 55.4 0.147 7.59 12.47 10.39
4/26/2022 5:45:00 PM 12.94 55.292 0.147 7.55 13.44 10.35
4/26/2022 6:00:00 PM 12.89 55.202 0.147 7.5 11.46 10.32
4/26/2022 6:15:00 PM 12.84 55.112 0.147 7.49 13.29 10.3
4/26/2022 6:30:00 PM 12.78 55.004 0.147 7.47 11.94 10.26
4/26/2022 6:45:00 PM 12.72 54.896 0.147 7.43 11.62 10.22
4/26/2022 7:00:00 PM 12.64 54.752 0.148 7.33 12.56 10.15
4/26/2022 7:15:00 PM 12.57 54.626 0.148 7.35 12.26 10.1
4/26/2022 7:30:00 PM 12.49 54.482 0.148 7.36 12.79 10.06
4/26/2022 7:45:00 PM 12.4 54.32 0.148 7.34 12.37 10.02
4/26/2022 8:00:00 PM 12.32 54.176 0.148 7.29 12.01 9.99
4/26/2022 8:15:00 PM 12.25 54.05 0.148 7.17 11.73 9.98
4/26/2022 8:30:00 PM 12.17 53.906 0.148 7.13 12.04 9.96
4/26/2022 8:45:00 PM 12.1 53.78 0.148 7.27 12.31 9.95
4/26/2022 9:00:00 PM 12.03 53.654 0.148 7.26 11.54 9.94
4/26/2022 9:15:00 PM 11.97 53.546 0.148 7.25 11.98 9.94
4/26/2022 9:30:00 PM 11.9 53.42 0.148 7.1 12.39 9.94
4/26/2022 9:45:00 PM 11.84 53.312 0.148 7.24 12.47 9.94
4/26/2022 10:00:00 PM 11.77 53.186 0.148 7.24 12.54 9.95
4/26/2022 10:15:00 PM 11.69 53.042 0.148 7.1 11.7 9.96
4/26/2022 10:30:00 PM 11.61 52.898 0.148 7.22 12.91 9.97
4/26/2022 10:45:00 PM 11.54 52.772 0.148 7.12 11.93 9.99
4/26/2022 11:00:00 PM 11.46 52.628 0.148 7.22 12.25 10
4/26/2022 11:15:00 PM 11.39 52.502 0.148 7.21 12.46 10.02
4/26/2022 11:30:00 PM 11.32 52.376 0.148 7.21 12.03 10.04
4/26/2022 11:45:00 PM 11.25 52.25 0.148 7.22 13.17 10.05
4/27/2022 12:00:00 AM 11.17 52.106 0.148 7.22 12.04 10.05
4/27/2022 12:15:00 AM 11.09 51.962 0.148 7.08 13.54 10.08
4/27/2022 12:30:00 AM 11.01 51.818 0.148 7.21 12.49 10.1
4/27/2022 12:45:00 AM 10.9 51.62 0.149 7.2 12.14 10.13
4/27/2022 1:00:00 AM 10.8 51.44 0.149 7.21 12.63 10.14
4/27/2022 1:15:00 AM 10.7 51.26 0.149 7.05 13.13 10.17
4/27/2022 1:30:00 AM 10.61 51.098 0.149 7.09 12.22 10.19
4/27/2022 1:45:00 AM 10.53 50.954 0.149 7.19 12.85 10.2
4/27/2022 2:00:00 AM 10.45 50.81 0.149 7.05 12.26 10.22
4/27/2022 2:15:00 AM 10.39 50.702 0.149 7.19 12.07 10.24
4/27/2022 2:30:00 AM 10.33 50.594 0.149 7.21 12.16 10.25
4/27/2022 2:45:00 AM 10.26 50.468 0.149 7.22 12.1 10.28
4/27/2022 3:00:00 AM 10.2 50.36 0.149 7.22 12.26 10.29
4/27/2022 3:15:00 AM 10.13 50.234 0.149 7.22 12.38 10.31
4/27/2022 3:30:00 AM 10.07 50.126 0.149 7.22 12.9 10.32
4/27/2022 3:45:00 AM 10.01 50.018 0.149 7.08 12.46 10.34
4/27/2022 4:00:00 AM 9.95 49.91 0.149 7.12 12.31 10.36
4/27/2022 4:15:00 AM 9.88 49.784 0.149 7.1 13.14 10.38
4/27/2022 4:30:00 AM 9.82 49.676 0.149 7.23 11.43 10.39
4/27/2022 4:45:00 AM 9.75 49.55 0.149 7.23 12.4 10.41
4/27/2022 5:00:00 AM 9.71 49.478 0.149 7.08 12.74 10.42
4/27/2022 5:15:00 AM 9.66 49.388 0.149 7.22 12.99 10.45
4/27/2022 5:30:00 AM 9.61 49.298 0.149 7.11 12.43 10.45
4/27/2022 5:45:00 AM 9.55 49.19 0.149 7.24 12.79 10.48
4/27/2022 6:00:00 AM 9.48 49.064 0.149 7.24 12.11 10.49
4/27/2022 6:15:00 AM 9.42 48.956 0.15 7.25 11.43 10.51
4/27/2022 6:30:00 AM 9.36 48.848 0.15 7.11 11.88 10.54
4/27/2022 6:45:00 AM 9.29 48.722 0.15 7.09 11.49 10.61
4/27/2022 7:00:00 AM 9.21 48.578 0.15 7.26 13.19 10.72
4/27/2022 7:15:00 AM 9.13 48.434 0.15 7.2 12.23 10.85
4/27/2022 7:30:00 AM 9.06 48.308 0.149 7.19 13.49 11
4/27/2022 7:45:00 AM 9.01 48.218 0.149 7.2 12 11.14
4/27/2022 8:00:00 AM 8.97 48.146 0.149 7.37 11.99 11.26
4/27/2022 8:15:00 AM 9 48.2 0.149 7.31 12.31 11.42
4/27/2022 8:30:00 AM 8.99 48.182 0.149 7.48 11.82 11.56
4/27/2022 8:45:00 AM 8.98 48.164 0.149 7.51 12.03 11.69
4/27/2022 9:00:00 AM 8.97 48.146 0.149 7.57 12.53 11.8
4/27/2022 9:15:00 AM 8.96 48.128 0.149 7.6 11.93 11.87
4/27/2022 9:30:00 AM 9 48.2 0.149 7.51 12.22 11.93
4/27/2022 9:45:00 AM 9.03 48.254 0.149 7.54 11.56 12.01
4/27/2022 10:00:00 AM 9.13 48.434 0.149 7.73 13 12.08
4/27/2022 10:15:00 AM 9.2 48.56 0.149 7.65 12.79 12.14
4/27/2022 10:30:00 AM 9.26 48.668 0.149 7.81 11.79 12.2
4/27/2022 10:45:00 AM 9.28 48.704 0.149 7.81 11.21 12.23
4/27/2022 11:00:00 AM 9.32 48.776 0.149 7.88 11.78 12.24
4/27/2022 11:15:00 AM 9.31 48.758 0.149 7.89 12.3 12.22
4/27/2022 11:30:00 AM 9.29 48.722 0.149 7.88 12.6 12.15
4/27/2022 11:45:00 AM 9.25 48.65 0.149 7.83 11.4 12.08
4/27/2022 12:00:00 PM 9.22 48.596 0.149 7.81 11.55 12.07
4/27/2022 12:15:00 PM 9.24 48.632 0.149 7.84 11.42 12.12
4/27/2022 12:30:00 PM 9.28 48.704 0.149 7.89 11.32 12.18
4/27/2022 12:45:00 PM 9.32 48.776 0.149 7.93 12.15 12.24
4/27/2022 1:00:00 PM 9.34 48.812 0.149 7.96 11.32 12.27
4/27/2022 1:15:00 PM 9.33 48.794 0.149 7.98 12.23 12.27
4/27/2022 1:30:00 PM 9.31 48.758 0.149 7.98 11.97 12.25
4/27/2022 1:45:00 PM 9.3 48.74 0.149 7.87 12.22 12.23
4/27/2022 2:00:00 PM 9.33 48.794 0.149 7.99 11.69 12.21
4/27/2022 2:15:00 PM 9.33 48.794 0.149 7.99 12.67 12.2
4/27/2022 2:30:00 PM 9.36 48.848 0.149 7.99 11.74 12.19
4/27/2022 2:45:00 PM 9.39 48.902 0.149 7.99 11.63 12.19
4/27/2022 3:00:00 PM 9.46 49.028 0.149 8.02 11.83 12.22
4/27/2022 3:15:00 PM 9.51 49.118 0.149 8.04 11.64 12.26
4/27/2022 3:30:00 PM 9.57 49.226 0.15 8.07 11.95 12.29
4/27/2022 3:45:00 PM 9.6 49.28 0.15 8.09 11.91 12.29
4/27/2022 4:00:00 PM 9.57 49.226 0.15 8.08 11.67 12.24
4/27/2022 4:15:00 PM 9.55 49.19 0.15 8.05 11.72 12.18
4/27/2022 4:30:00 PM 9.5 49.1 0.15 8.02 11.68 12.12
4/27/2022 4:45:00 PM 9.44 48.992 0.15 7.96 11.64 12.06
4/27/2022 5:00:00 PM 9.37 48.866 0.15 7.94 11.35 12.04
4/27/2022 5:15:00 PM 9.31 48.758 0.15 7.92 11.64 12.01
4/27/2022 5:30:00 PM 9.26 48.668 0.15 7.88 10.37 12
4/27/2022 5:45:00 PM 9.18 48.524 0.151 7.86 10.47 11.95
4/27/2022 6:00:00 PM 9.1 48.38 0.151 7.8 12.85 11.87
4/27/2022 6:15:00 PM 9.04 48.272 0.151 7.78 12.62 11.82
4/27/2022 6:30:00 PM 8.96 48.128 0.151 7.73 11.22 11.74
4/27/2022 6:45:00 PM 8.86 47.948 0.151 7.66 11.76 11.68
4/27/2022 7:00:00 PM 8.77 47.786 0.151 7.62 12.44 11.62
4/27/2022 7:15:00 PM 8.7 47.66 0.151 7.44 11.94 11.56
4/27/2022 7:30:00 PM 8.62 47.516 0.151 7.52 11.38 11.5
4/27/2022 7:45:00 PM 8.53 47.354 0.151 7.34 11.9 11.39
4/27/2022 8:00:00 PM 8.45 47.21 0.152 7.33 12.1 11.3
4/27/2022 8:15:00 PM 8.38 47.084 0.152 7.42 12.48 11.21
4/27/2022 8:30:00 PM 8.3 46.94 0.152 7.25 13.18 11.15
4/27/2022 8:45:00 PM 8.23 46.814 0.152 7.35 11.59 11.11
4/27/2022 9:00:00 PM 8.16 46.688 0.152 7.33 11.14 11.07
4/27/2022 9:15:00 PM 8.1 46.58 0.152 7.32 12.64 11.05
4/27/2022 9:30:00 PM 8.03 46.454 0.152 7.31 11.71 11.05
4/27/2022 9:45:00 PM 7.97 46.346 0.152 7.25 11.8 11.04
4/27/2022 10:00:00 PM 7.91 46.238 0.152 7.24 12.14 11.05
4/27/2022 10:15:00 PM 7.85 46.13 0.152 7.29 11.76 11.05
4/27/2022 10:30:00 PM 7.79 46.022 0.152 7.17 11.8 11.05
4/27/2022 10:45:00 PM 7.73 45.914 0.152 7.28 11.9 11.06
4/27/2022 11:00:00 PM 7.68 45.824 0.152 7.24 12.66 11.07
4/27/2022 11:15:00 PM 7.64 45.752 0.152 7.22 15.85 11.08
4/27/2022 11:30:00 PM 7.61 45.698 0.152 7.23 12.7 11.09
4/27/2022 11:45:00 PM 7.57 45.626 0.152 7.25 13.63 11.09
4/28/2022 12:00:00 AM 7.51 45.518 0.152 7.14 11.88 11.1
4/28/2022 12:15:00 AM 7.44 45.392 0.152 7.28 11.35 11.11
4/28/2022 12:30:00 AM 7.36 45.248 0.152 7.28 11.16 11.13
4/28/2022 12:45:00 AM 7.29 45.122 0.152 7.26 11.2 11.13
4/28/2022 1:00:00 AM 7.21 44.978 0.152 7.13 12.31 11.16
4/28/2022 1:15:00 AM 7.13 44.834 0.152 7.24 11.74 11.18
4/28/2022 1:30:00 AM 7.07 44.726 0.152 7.24 11.74 11.2
4/28/2022 1:45:00 AM 7.03 44.654 0.152 7.22 12.69 11.21
4/28/2022 2:00:00 AM 6.97 44.546 0.152 7.13 11.82 11.23
4/28/2022 2:15:00 AM 6.92 44.456 0.152 7.26 11.66 11.25
4/28/2022 2:30:00 AM 6.88 44.384 0.152 7.11 11.74 11.26
4/28/2022 2:45:00 AM 6.85 44.33 0.153 7.27 12.41 11.27
4/28/2022 3:00:00 AM 6.8 44.24 0.153 7.27 11.74 11.29
4/28/2022 3:15:00 AM 6.76 44.168 0.153 7.13 11.56 11.29
4/28/2022 3:30:00 AM 6.72 44.096 0.153 7.21 11.99 11.31
4/28/2022 3:45:00 AM 6.69 44.042 0.153 7.22 12.32 11.32
4/28/2022 4:00:00 AM 6.64 43.952 0.153 7.21 11.94 11.33
4/28/2022 4:15:00 AM 6.6 43.88 0.153 7.26 11.88 11.36
4/28/2022 4:30:00 AM 6.57 43.826 0.153 7.13 11.22 11.36
4/28/2022 4:45:00 AM 6.52 43.736 0.153 7.24 11.55 11.39
4/28/2022 5:00:00 AM 6.49 43.682 0.153 7.26 11.57 11.39
4/28/2022 5:15:00 AM 6.45 43.61 0.153 7.27 11.44 11.41
4/28/2022 5:30:00 AM 6.41 43.538 0.153 7.28 11.46 11.42
4/28/2022 5:45:00 AM 6.38 43.484 0.153 7.23 11.95 11.43
4/28/2022 6:00:00 AM 6.34 43.412 0.153 7.23 11.74 11.44
4/28/2022 6:15:00 AM 6.3 43.34 0.153 7.21 12.25 11.46
4/28/2022 6:30:00 AM 6.26 43.268 0.154 7.29 11.58 11.51
4/28/2022 6:45:00 AM 6.23 43.214 0.154 7.17 11.68 11.58
4/28/2022 7:00:00 AM 6.19 43.142 0.154 7.27 11.64 11.71
4/28/2022 7:15:00 AM 6.15 43.07 0.154 7.34 11.25 11.87
4/28/2022 7:30:00 AM 6.11 42.998 0.153 7.33 11.86 12.02
4/28/2022 7:45:00 AM 6.09 42.962 0.153 7.29 11.18 12.16
4/28/2022 8:00:00 AM 6.1 42.98 0.153 7.4 11.47 12.29
4/28/2022 8:15:00 AM 6.13 43.034 0.153 7.49 11.74 12.43
4/28/2022 8:30:00 AM 6.18 43.124 0.153 7.53 11.27 12.54
4/28/2022 8:45:00 AM 6.25 43.25 0.153 7.43 11.39 12.65
4/28/2022 9:00:00 AM 6.36 43.448 0.153 7.57 11.9 12.74
4/28/2022 9:15:00 AM 6.48 43.664 0.153 7.66 11.76 12.79
4/28/2022 9:30:00 AM 6.62 43.916 0.153 7.7 11.87 12.83
4/28/2022 9:45:00 AM 6.79 44.222 0.153 7.73 11.77 12.84
4/28/2022 10:00:00 AM 6.98 44.564 0.153 7.75 12.22 12.87
4/28/2022 10:15:00 AM 7.2 44.96 0.153 7.74 11.59 12.88
4/28/2022 10:30:00 AM 7.45 45.41 0.153 7.66 11.85 12.87
4/28/2022 10:45:00 AM 7.74 45.932 0.153 7.83 11.42 12.87
4/28/2022 11:00:00 AM 8.09 46.562 0.153 7.7 11.55 12.84
4/28/2022 11:15:00 AM 8.43 47.174 0.153 7.87 11.85 12.81
4/28/2022 11:30:00 AM 8.77 47.786 0.153 7.91 11.48 12.76
4/28/2022 11:45:00 AM 9.12 48.416 0.153 7.95 11.46 12.73
4/28/2022 12:00:00 PM 9.49 49.082 0.153 7.99 11.27 12.67
4/28/2022 12:15:00 PM 9.83 49.694 0.153 8.02 11.47 12.63
4/28/2022 12:30:00 PM 10.14 50.252 0.153 8.04 11.49 12.59
4/28/2022 12:45:00 PM 10.45 50.81 0.153 7.96 11.25 12.51
4/28/2022 1:00:00 PM 10.71 51.278 0.153 8.08 11.53 12.48
4/28/2022 1:15:00 PM 10.97 51.746 0.153 8.1 11.33 12.41
4/28/2022 1:30:00 PM 11.19 52.142 0.153 8.11 11.53 12.36
4/28/2022 1:45:00 PM 11.4 52.52 0.153 8.13 11.93 12.31
4/28/2022 2:00:00 PM 11.58 52.844 0.153 8.04 11.45 12.25
4/28/2022 2:15:00 PM 11.73 53.114 0.153 8.15 11.6 12.19
4/28/2022 2:30:00 PM 11.84 53.312 0.153 8.15 11.45 12.16
4/28/2022 2:45:00 PM 11.93 53.474 0.153 8.16 11.21 12.1
4/28/2022 3:00:00 PM 12.01 53.618 0.153 8.17 11.29 12.06
4/28/2022 3:15:00 PM 12.07 53.726 0.153 8.04 11.17 12.01
4/28/2022 3:30:00 PM 12.1 53.78 0.153 8 11.22 11.96
4/28/2022 3:45:00 PM 12.09 53.762 0.153 8.17 11.18 11.91
4/28/2022 4:00:00 PM 12.07 53.726 0.154 8.03 11.09 11.86
4/28/2022 4:15:00 PM 12.02 53.636 0.154 8.04 11.18 11.8
4/28/2022 4:30:00 PM 11.98 53.564 0.154 8.13 11.27 11.75
4/28/2022 4:45:00 PM 11.91 53.438 0.154 8.09 11.33 11.69
4/28/2022 5:00:00 PM 11.85 53.33 0.154 7.98 11.41 11.65
4/28/2022 5:15:00 PM 11.75 53.15 0.154 7.93 11.61 11.59
4/28/2022 5:30:00 PM 11.65 52.97 0.154 7.98 11.47 11.55
4/28/2022 5:45:00 PM 11.54 52.772 0.154 7.96 12.38 11.5
4/28/2022 6:00:00 PM 11.44 52.592 0.154 7.95 11.96 11.46
4/28/2022 6:15:00 PM 11.31 52.358 0.154 7.93 12.03 11.41
4/28/2022 6:30:00 PM 11.2 52.16 0.154 7.88 12.79 11.35
4/28/2022 6:45:00 PM 11.08 51.944 0.154 7.71 12.07 11.28
4/28/2022 7:00:00 PM 10.96 51.728 0.154 7.68 11.75 11.21
4/28/2022 7:15:00 PM 10.84 51.512 0.155 7.74 12.38 11.12
4/28/2022 7:30:00 PM 10.73 51.314 0.155 7.69 11.86 11.06
4/28/2022 7:45:00 PM 10.63 51.134 0.155 7.52 11.44 10.98
4/28/2022 8:00:00 PM 10.52 50.936 0.155 7.59 11.49 10.89
4/28/2022 8:15:00 PM 10.41 50.738 0.155 7.57 11.74 10.79
4/28/2022 8:30:00 PM 10.31 50.558 0.155 7.39 11.79 10.7
4/28/2022 8:45:00 PM 10.2 50.36 0.155 7.32 11.82 10.62
4/28/2022 9:00:00 PM 10.08 50.144 0.155 7.45 11.68 10.56
4/28/2022 9:15:00 PM 9.95 49.91 0.155 7.43 11.5 10.52
4/28/2022 9:30:00 PM 9.83 49.694 0.155 7.22 11.79 10.51
4/28/2022 9:45:00 PM 9.68 49.424 0.156 7.2 11.83 10.51
4/28/2022 10:00:00 PM 9.54 49.172 0.156 7.21 11.67 10.52
4/28/2022 10:15:00 PM 9.4 48.92 0.156 7.36 11.84 10.53
4/28/2022 10:30:00 PM 9.26 48.668 0.156 7.32 11.67 10.56
4/28/2022 10:45:00 PM 9.12 48.416 0.156 7.33 12.12 10.58
4/28/2022 11:00:00 PM 8.98 48.164 0.156 7.32 11.68 10.6
4/28/2022 11:15:00 PM 8.86 47.948 0.156 7.17 11.89 10.64
4/28/2022 11:30:00 PM 8.73 47.714 0.156 7.13 12.49 10.66
4/28/2022 11:45:00 PM 8.6 47.48 0.156 7.27 12.06 10.69
4/29/2022 12:00:00 AM 8.48 47.264 0.156 7.26 11.78 10.72
4/29/2022 12:15:00 AM 8.38 47.084 0.156 7.09 11.72 10.75
4/29/2022 12:30:00 AM 8.26 46.868 0.156 7.22 11.82 10.77
4/29/2022 12:45:00 AM 8.16 46.688 0.156 7.06 11.95 10.8
4/29/2022 1:00:00 AM 8.06 46.508 0.156 7.03 12.04 10.82
4/29/2022 1:15:00 AM 7.96 46.328 0.156 7.17 12.09 10.85
4/29/2022 1:30:00 AM 7.87 46.166 0.156 7.2 11.72 10.87
4/29/2022 1:45:00 AM 7.79 46.022 0.156 7.04 11.79 10.91
4/29/2022 2:00:00 AM 7.7 45.86 0.157 7.19 12.05 10.93
4/29/2022 2:15:00 AM 7.62 45.716 0.157 7.05 11.67 10.95
4/29/2022 2:30:00 AM 7.53 45.554 0.157 7.2 11.83 10.97
4/29/2022 2:45:00 AM 7.46 45.428 0.157 7.2 11.78 10.99
4/29/2022 3:00:00 AM 7.38 45.284 0.157 7.04 11.97 11.01
4/29/2022 3:15:00 AM 7.3 45.14 0.157 7.21 11.36 11.03
4/29/2022 3:30:00 AM 7.23 45.014 0.157 7.08 11.97 11.06
4/29/2022 3:45:00 AM 7.16 44.888 0.157 7.21 12.18 11.08
4/29/2022 4:00:00 AM 7.09 44.762 0.157 7.06 12.11 11.1
4/29/2022 4:15:00 AM 7.02 44.636 0.157 7.21 11.87 11.12
4/29/2022 4:30:00 AM 6.95 44.51 0.157 7.21 11.77 11.14
4/29/2022 4:45:00 AM 6.88 44.384 0.157 7.06 12.04 11.17
4/29/2022 5:00:00 AM 6.81 44.258 0.157 7.22 11.85 11.19
4/29/2022 5:15:00 AM 6.73 44.114 0.157 7.16 11.43 11.21
4/29/2022 5:30:00 AM 6.67 44.006 0.157 7.08 11.89 11.23
4/29/2022 5:45:00 AM 6.59 43.862 0.157 7.09 11.43 11.25
4/29/2022 6:00:00 AM 6.52 43.736 0.157 7.22 11.94 11.29
4/29/2022 6:15:00 AM 6.45 43.61 0.157 7.18 12.24 11.31
4/29/2022 6:30:00 AM 6.37 43.466 0.157 7.06 11.97 11.37
4/29/2022 6:45:00 AM 6.31 43.358 0.157 7.24 11.53 11.45
4/29/2022 7:00:00 AM 6.25 43.25 0.157 7.24 12.17 11.57
4/29/2022 7:15:00 AM 6.22 43.196 0.157 7.14 12.11 11.71
4/29/2022 7:30:00 AM 6.19 43.142 0.157 7.31 12.58 11.85
4/29/2022 7:45:00 AM 6.18 43.124 0.157 7.34 11.82 12.01
4/29/2022 8:00:00 AM 6.2 43.16 0.157 7.38 12.45 12.16
4/29/2022 8:15:00 AM 6.26 43.268 0.156 7.28 12.6 12.31
4/29/2022 8:30:00 AM 6.34 43.412 0.156 7.42 12.9 12.43
4/29/2022 8:45:00 AM 6.45 43.61 0.156 7.39 12.31 12.55
4/29/2022 9:00:00 AM 6.58 43.844 0.156 7.57 12.34 12.64
4/29/2022 9:15:00 AM 6.74 44.132 0.156 7.63 12.55 12.71
4/29/2022 9:30:00 AM 6.92 44.456 0.156 7.68 12.08 12.78
4/29/2022 9:45:00 AM 7.1 44.78 0.156 7.71 11.8 12.82
4/29/2022 10:00:00 AM 7.31 45.158 0.156 7.62 11.97 12.85
4/29/2022 10:15:00 AM 7.53 45.554 0.156 7.75 11.97 12.87
4/29/2022 10:30:00 AM 7.79 46.022 0.156 7.78 11.51 12.89
4/29/2022 10:45:00 AM 8.08 46.544 0.156 7.83 11.77 12.87
4/29/2022 11:00:00 AM 8.39 47.102 0.156 7.91 11.63 12.87
4/29/2022 11:15:00 AM 8.75 47.75 0.156 7.79 11.57 12.83
4/29/2022 11:30:00 AM 9.1 48.38 0.156 7.93 11.5 12.8
4/29/2022 11:45:00 AM 9.46 49.028 0.156 7.97 11.69 12.77
4/29/2022 12:00:00 PM 9.85 49.73 0.156 8.02 11.29 12.71
4/29/2022 12:15:00 PM 10.22 50.396 0.156 8.07 11.84 12.67
4/29/2022 12:30:00 PM 10.54 50.972 0.156 7.93 11.84 12.61
4/29/2022 12:45:00 PM 10.88 51.584 0.156 8.13 11.14 12.56
4/29/2022 1:00:00 PM 11.15 52.07 0.156 8.15 11.41 12.51
4/29/2022 1:15:00 PM 11.44 52.592 0.156 8.18 11.32 12.47
4/29/2022 1:30:00 PM 11.68 53.024 0.156 8.19 11.29 12.39
4/29/2022 1:45:00 PM 11.91 53.438 0.156 8.06 11.78 12.34
4/29/2022 2:00:00 PM 12.11 53.798 0.156 8.24 14.13 12.28
4/29/2022 2:15:00 PM 12.27 54.086 0.157 8.26 11.69 12.23
4/29/2022 2:30:00 PM 12.4 54.32 0.157 8.26 11.6 12.17
4/29/2022 2:45:00 PM 12.52 54.536 0.157 8.28 11.9 12.13
4/29/2022 3:00:00 PM 12.6 54.68 0.157 8.25 10.61 12.07
4/29/2022 3:15:00 PM 12.65 54.77 0.157 8.3 11.41 12.03
4/29/2022 3:30:00 PM 12.67 54.806 0.157 8.3 11.57 11.99
4/29/2022 3:45:00 PM 12.66 54.788 0.157 8.29 11.79 11.93
4/29/2022 4:00:00 PM 12.64 54.752 0.158 8.27 11.18 11.89
4/29/2022 4:15:00 PM 12.59 54.662 0.158 8.26 10.85 11.83
4/29/2022 4:30:00 PM 12.52 54.536 0.158 8.25 11.76 11.78
4/29/2022 4:45:00 PM 12.46 54.428 0.158 8.23 13.1 11.73
4/29/2022 5:00:00 PM 12.38 54.284 0.158 8.21 11.17 11.68
4/29/2022 5:15:00 PM 12.3 54.14 0.158 8.18 11.25 11.63
4/29/2022 5:30:00 PM 12.19 53.942 0.158 8.15 11.32 11.56
4/29/2022 5:45:00 PM 12.1 53.78 0.158 8.1 11.27 11.52
4/29/2022 6:00:00 PM 11.98 53.564 0.159 8.08 11.38 11.47
4/29/2022 6:15:00 PM 11.86 53.348 0.159 7.91 11.92 11.4
4/29/2022 6:30:00 PM 11.76 53.168 0.159 8 11.97 11.35
4/29/2022 6:45:00 PM 11.65 52.97 0.159 7.93 11.67 11.26
4/29/2022 7:00:00 PM 11.56 52.808 0.159 7.89 11.81 11.2
4/29/2022 7:15:00 PM 11.43 52.574 0.16 7.68 11.52 11.09
4/29/2022 7:30:00 PM 11.29 52.322 0.16 7.62 11.46 11.01
4/29/2022 7:45:00 PM 11.19 52.142 0.16 7.7 11.75 10.91
4/29/2022 8:00:00 PM 11.08 51.944 0.16 7.66 11.79 10.82
4/29/2022 8:15:00 PM 10.99 51.782 0.16 7.61 11.42 10.72
4/29/2022 8:30:00 PM 10.87 51.566 0.161 7.56 11.62 10.61
4/29/2022 8:45:00 PM 10.76 51.368 0.161 7.52 12.08 10.51
4/29/2022 9:00:00 PM 10.63 51.134 0.161 7.36 11.94 10.43
4/29/2022 9:15:00 PM 10.51 50.918 0.161 7.44 11.98 10.38
4/29/2022 9:30:00 PM 10.37 50.666 0.161 7.4 11.41 10.35
4/29/2022 9:45:00 PM 10.24 50.432 0.161 7.26 11.95 10.34
4/29/2022 10:00:00 PM 10.1 50.18 0.161 7.38 11.44 10.35
4/29/2022 10:15:00 PM 9.96 49.928 0.161 7.22 11.66 10.36
4/29/2022 10:30:00 PM 9.81 49.658 0.161 7.36 12.17 10.38
4/29/2022 10:45:00 PM 9.67 49.406 0.161 7.34 11.98 10.41
4/29/2022 11:00:00 PM 9.53 49.154 0.162 7.2 11.74 10.44
4/29/2022 11:15:00 PM 9.39 48.902 0.162 7.15 12.31 10.45
4/29/2022 11:30:00 PM 9.24 48.632 0.162 7.15 11.46 10.49
4/29/2022 11:45:00 PM 9.1 48.38 0.162 7.28 11.66 10.52
4/30/2022 12:00:00 AM 8.96 48.128 0.162 7.12 11.87 10.56
4/30/2022 12:15:00 AM 8.82 47.876 0.162 7.26 11.94 10.6
4/30/2022 12:30:00 AM 8.71 47.678 0.162 7.11 11.66 10.62
4/30/2022 12:45:00 AM 8.58 47.444 0.162 7.24 11.68 10.65
4/30/2022 1:00:00 AM 8.45 47.21 0.162 7.06 12.12 10.69
4/30/2022 1:15:00 AM 8.33 46.994 0.162 7.04 11.64 10.72
4/30/2022 1:30:00 AM 8.22 46.796 0.162 7.21 11.6 10.76
4/30/2022 1:45:00 AM 8.12 46.616 0.162 7.15 11.58 10.78
4/30/2022 2:00:00 AM 8.01 46.418 0.162 7.03 11.92 10.8
4/30/2022 2:15:00 AM 7.9 46.22 0.162 7.19 12 10.84
4/30/2022 2:30:00 AM 7.8 46.04 0.162 7.16 11.64 10.87
4/30/2022 2:45:00 AM 7.71 45.878 0.162 7.19 11.97 10.9
4/30/2022 3:00:00 AM 7.61 45.698 0.162 7.19 11.54 10.92
4/30/2022 3:15:00 AM 7.53 45.554 0.162 7.19 11.14 10.94
4/30/2022 3:30:00 AM 7.44 45.392 0.162 7.15 11.83 10.97
4/30/2022 3:45:00 AM 7.35 45.23 0.162 7.04 11.73 10.99
4/30/2022 4:00:00 AM 7.28 45.104 0.162 7.05 11.64 11.02
4/30/2022 4:15:00 AM 7.2 44.96 0.162 7.03 11.83 11.04
4/30/2022 4:30:00 AM 7.12 44.816 0.162 7.01 11.77 11.07
4/30/2022 4:45:00 AM 7.04 44.672 0.162 7.19 11.95 11.09
4/30/2022 5:00:00 AM 6.97 44.546 0.162 7.19 12.12 11.11
4/30/2022 5:15:00 AM 6.89 44.402 0.162 7.19 12.02 11.13
4/30/2022 5:30:00 AM 6.82 44.276 0.162 7.19 11.52 11.14
4/30/2022 5:45:00 AM 6.74 44.132 0.162 7.2 11.5 11.16
4/30/2022 6:00:00 AM 6.67 44.006 0.162 7.04 12.05 11.19
4/30/2022 6:15:00 AM 6.61 43.898 0.162 7.16 12.12 11.23
4/30/2022 6:30:00 AM 6.54 43.772 0.162 7.21 11.8 11.29
4/30/2022 6:45:00 AM 6.48 43.664 0.162 7.1 11.71 11.38
4/30/2022 7:00:00 AM 6.43 43.574 0.162 7.24 11.54 11.48
4/30/2022 7:15:00 AM 6.39 43.502 0.162 7.23 11.66 11.63
4/30/2022 7:30:00 AM 6.37 43.466 0.162 7.3 11.21 11.78
4/30/2022 7:45:00 AM 6.37 43.466 0.162 7.33 11.67 11.95
4/30/2022 8:00:00 AM 6.39 43.502 0.162 7.37 11.7 12.09
4/30/2022 8:15:00 AM 6.45 43.61 0.162 7.29 12.17 12.23
4/30/2022 8:30:00 AM 6.54 43.772 0.161 7.46 11.61 12.36
4/30/2022 8:45:00 AM 6.65 43.97 0.161 7.52 11.95 12.49
4/30/2022 9:00:00 AM 6.8 44.24 0.161 7.57 11.52 12.57
4/30/2022 9:15:00 AM 6.99 44.582 0.161 7.65 11.76 12.66
4/30/2022 9:30:00 AM 7.23 45.014 0.161 7.7 11.65 12.73
4/30/2022 9:45:00 AM 7.49 45.482 0.161 7.69 11.54 12.77
4/30/2022 10:00:00 AM 7.78 46.004 0.161 7.77 11.61 12.79
4/30/2022 10:15:00 AM 8.08 46.544 0.161 7.8 11.63 12.8
4/30/2022 10:30:00 AM 8.43 47.174 0.16 7.85 11.48 12.8
4/30/2022 10:45:00 AM 8.75 47.75 0.16 7.9 11.63 12.8
4/30/2022 11:00:00 AM 9.16 48.488 0.16 7.94 13.14 12.76
4/30/2022 11:15:00 AM 9.55 49.19 0.16 8.03 11.74 12.75
4/30/2022 11:30:00 AM 9.99 49.982 0.16 8.06 12.03 12.7
4/30/2022 11:45:00 AM 10.4 50.72 0.16 8.08 11.98 12.65
4/30/2022 12:00:00 PM 10.81 51.458 0.16 7.98 11.61 12.62
4/30/2022 12:15:00 PM 11.24 52.232 0.16 8.18 11.22 12.55
4/30/2022 12:30:00 PM 11.59 52.862 0.16 8.06 11.47 12.52
4/30/2022 12:45:00 PM 11.97 53.546 0.16 8.25 11.34 12.43
4/30/2022 1:00:00 PM 12.29 54.122 0.16 8.28 11.54 12.37
4/30/2022 1:15:00 PM 12.6 54.68 0.16 8.3 11.53 12.33
4/30/2022 1:30:00 PM 12.87 55.166 0.16 8.34 12.06 12.26
4/30/2022 1:45:00 PM 13.1 55.58 0.161 8.19 11.45 12.19
4/30/2022 2:00:00 PM 13.3 55.94 0.161 8.26 11.12 12.14
4/30/2022 2:15:00 PM 13.46 56.228 0.161 8.39 11.59 12.09
4/30/2022 2:30:00 PM 13.59 56.462 0.161 8.39 11.45 12.04
4/30/2022 2:45:00 PM 13.69 56.642 0.161 8.41 11.33 11.99
4/30/2022 3:00:00 PM 13.76 56.768 0.161 8.41 11.49 11.93
4/30/2022 3:15:00 PM 13.82 56.876 0.161 8.43 11.55 11.9
4/30/2022 3:30:00 PM 13.83 56.894 0.161 8.44 11.04 11.83
4/30/2022 3:45:00 PM 13.82 56.876 0.161 8.31 11.23 11.8
4/30/2022 4:00:00 PM 13.78 56.804 0.161 8.25 11.55 11.74
4/30/2022 4:15:00 PM 13.74 56.732 0.161 8.31 12.04 11.69
4/30/2022 4:30:00 PM 13.68 56.624 0.161 8.4 11.17 11.65
4/30/2022 4:45:00 PM 13.6 56.48 0.161 8.37 11.75 11.6
4/30/2022 5:00:00 PM 13.52 56.336 0.162 8.35 11.39 11.55
4/30/2022 5:15:00 PM 13.44 56.192 0.162 8.34 11.26 11.51
4/30/2022 5:30:00 PM 13.37 56.066 0.162 8.31 11.24 11.49
4/30/2022 5:45:00 PM 13.29 55.922 0.162 8.31 11.53 11.45
4/30/2022 6:00:00 PM 13.21 55.778 0.162 8.29 11.54 11.41
4/30/2022 6:15:00 PM 13.09 55.562 0.162 8.25 12.53 11.35
4/30/2022 6:30:00 PM 12.99 55.382 0.162 8.07 11.23 11.27
4/30/2022 6:45:00 PM 12.88 55.184 0.162 8.12 12.17 11.17
4/30/2022 7:00:00 PM 12.82 55.076 0.162 8.06 11.3 11.09
4/30/2022 7:15:00 PM 12.75 54.95 0.163 7.87 11.48 11.01
4/30/2022 7:30:00 PM 12.68 54.824 0.163 7.79 11.37 10.94
4/30/2022 7:45:00 PM 12.6 54.68 0.163 7.87 11.55 10.84
4/30/2022 8:00:00 PM 12.48 54.464 0.163 7.79 11.79 10.69
4/30/2022 8:15:00 PM 12.37 54.266 0.163 7.59 11.82 10.53
4/30/2022 8:30:00 PM 12.25 54.05 0.164 7.49 12.07 10.36
4/30/2022 8:45:00 PM 12.11 53.798 0.164 7.57 11.88 10.22
4/30/2022 9:00:00 PM 11.97 53.546 0.164 7.52 11.74 10.12
4/30/2022 9:15:00 PM 11.82 53.276 0.165 7.32 12.14 10.04
4/30/2022 9:30:00 PM 11.68 53.024 0.165 7.4 12.43 10
4/30/2022 9:45:00 PM 11.54 52.772 0.165 7.43 12.07 9.98
4/30/2022 10:00:00 PM 11.38 52.484 0.165 7.39 11.9 9.98
4/30/2022 10:15:00 PM 11.23 52.214 0.165 7.27 12.02 9.98
4/30/2022 10:30:00 PM 11.07 51.926 0.165 7.38 12.35 9.99
4/30/2022 10:45:00 PM 10.92 51.656 0.165 7.24 12.28 10.01
4/30/2022 11:00:00 PM 10.78 51.404 0.165 7.19 12.27 10.03
4/30/2022 11:15:00 PM 10.63 51.134 0.165 7.35 12.17 10.06
4/30/2022 11:30:00 PM 10.49 50.882 0.165 7.32 12.45 10.09
4/30/2022 11:45:00 PM 10.34 50.612 0.165 7.33 12.19 10.12
5/1/2022 12:00:00 AM 10.21 50.378 0.165 7.33 12.02 10.15
5/1/2022 12:15:00 AM 10.07 50.126 0.165 7.28 12.17 10.18
5/1/2022 12:30:00 AM 9.92 49.856 0.165 7.3 12.28 10.22
5/1/2022 12:45:00 AM 9.78 49.604 0.165 7.31 12.55 10.24
5/1/2022 1:00:00 AM 9.64 49.352 0.165 7.28 12.13 10.29
5/1/2022 1:15:00 AM 9.49 49.082 0.165 7.14 12.59 10.32
5/1/2022 1:30:00 AM 9.36 48.848 0.165 7.28 12.41 10.36
5/1/2022 1:45:00 AM 9.22 48.596 0.165 7.09 12.35 10.39
5/1/2022 2:00:00 AM 9.1 48.38 0.165 7.26 12.09 10.43
5/1/2022 2:15:00 AM 8.98 48.164 0.165 7.13 11.84 10.47
5/1/2022 2:30:00 AM 8.86 47.948 0.166 7.24 11.57 10.5
5/1/2022 2:45:00 AM 8.74 47.732 0.166 7.18 12 10.53
5/1/2022 3:00:00 AM 8.62 47.516 0.166 7.05 12.4 10.56
5/1/2022 3:15:00 AM 8.51 47.318 0.166 7.21 11.79 10.59
5/1/2022 3:30:00 AM 8.4 47.12 0.166 7.14 12.07 10.63
5/1/2022 3:45:00 AM 8.28 46.904 0.166 7 11.81 10.67
5/1/2022 4:00:00 AM 8.19 46.742 0.166 7.19 12.01 10.69
5/1/2022 4:15:00 AM 8.1 46.58 0.166 7.03 11.68 10.71
5/1/2022 4:30:00 AM 8.01 46.418 0.166 7.17 12.33 10.74
5/1/2022 4:45:00 AM 7.92 46.256 0.166 7.19 12.12 10.76
5/1/2022 5:00:00 AM 7.83 46.094 0.166 7.06 12.2 10.8
5/1/2022 5:15:00 AM 7.76 45.968 0.166 7.19 12.13 10.82
5/1/2022 5:30:00 AM 7.69 45.842 0.166 7.15 11.91 10.84
5/1/2022 5:45:00 AM 7.61 45.698 0.167 7.06 11.55 10.85
5/1/2022 6:00:00 AM 7.53 45.554 0.167 7.2 11.56 10.88
5/1/2022 6:15:00 AM 7.46 45.428 0.167 7.16 12.51 10.92
5/1/2022 6:30:00 AM 7.39 45.302 0.167 7.21 11.69 10.97
5/1/2022 6:45:00 AM 7.34 45.212 0.167 7.09 11.56 11.06
5/1/2022 7:00:00 AM 7.29 45.122 0.167 7.24 12.36 11.19
5/1/2022 7:15:00 AM 7.26 45.068 0.166 7.27 11.75 11.36
5/1/2022 7:30:00 AM 7.26 45.068 0.166 7.31 12.03 11.54
5/1/2022 7:45:00 AM 7.29 45.122 0.166 7.35 11.71 11.74
5/1/2022 8:00:00 AM 7.34 45.212 0.166 7.4 11.62 11.9
5/1/2022 8:15:00 AM 7.39 45.302 0.166 7.42 11.61 12.07
5/1/2022 8:30:00 AM 7.46 45.428 0.166 7.5 12.17 12.2
5/1/2022 8:45:00 AM 7.54 45.572 0.165 7.56 11.55 12.3
5/1/2022 9:00:00 AM 7.67 45.806 0.165 7.61 12.04 12.4
5/1/2022 9:15:00 AM 7.84 46.112 0.165 7.62 11.85 12.46
5/1/2022 9:30:00 AM 8.05 46.49 0.165 7.73 11.57 12.51
5/1/2022 9:45:00 AM 8.3 46.94 0.165 7.75 11.52 12.57
5/1/2022 10:00:00 AM 8.57 47.426 0.165 7.81 12.23 12.59
5/1/2022 10:15:00 AM 8.89 48.002 0.165 7.89 11.84 12.61
5/1/2022 10:30:00 AM 9.22 48.596 0.165 7.93 11.57 12.61
5/1/2022 10:45:00 AM 9.59 49.262 0.164 7.99 11.71 12.62
5/1/2022 11:00:00 AM 9.96 49.928 0.164 7.9 12.02 12.59
5/1/2022 11:15:00 AM 10.37 50.666 0.164 8.1 11.55 12.57
5/1/2022 11:30:00 AM 10.78 51.404 0.164 8.15 11.41 12.53
5/1/2022 11:45:00 AM 11.19 52.142 0.164 8.21 11.6 12.49
5/1/2022 12:00:00 PM 11.65 52.97 0.164 8.29 11.35 12.46
5/1/2022 12:15:00 PM 12.11 53.798 0.164 8.33 11.71 12.39
5/1/2022 12:30:00 PM 12.42 54.356 0.164 8.24 11.37 12.34
5/1/2022 12:45:00 PM 12.72 54.896 0.164 8.42 11.35 12.29
5/1/2022 1:00:00 PM 13.01 55.418 0.164 8.33 11.25 12.25
5/1/2022 1:15:00 PM 13.3 55.94 0.164 8.34 11.54 12.22
5/1/2022 1:30:00 PM 13.46 56.228 0.164 8.51 11.07 12.18
5/1/2022 1:45:00 PM 13.61 56.498 0.164 8.42 11.63 12.14
5/1/2022 2:00:00 PM 13.68 56.624 0.164 8.57 11.75 12.11
5/1/2022 2:15:00 PM 13.7 56.66 0.164 8.58 11.58 12.08
5/1/2022 2:30:00 PM 13.68 56.624 0.165 8.51 11.09 12.06
5/1/2022 2:45:00 PM 13.65 56.57 0.165 8.5 11.9 12.01
5/1/2022 3:00:00 PM 13.55 56.39 0.165 8.6 11.09 11.94
5/1/2022 3:15:00 PM 13.44 56.192 0.165 8.6 11.46 11.88
5/1/2022 3:30:00 PM 13.3 55.94 0.165 8.56 11.83 11.77
5/1/2022 3:45:00 PM 13.14 55.652 0.165 8.49 11.31 11.62
5/1/2022 4:00:00 PM 13.02 55.436 0.165 8.41 11.83 11.5
5/1/2022 4:15:00 PM 12.9 55.22 0.165 8.3 11.35 11.39
5/1/2022 4:30:00 PM 12.79 55.022 0.165 8.22 11.92 11.3
5/1/2022 4:45:00 PM 12.69 54.842 0.166 8.14 11.93 11.25
5/1/2022 5:00:00 PM 12.6 54.68 0.166 8.09 11.7 11.19
5/1/2022 5:15:00 PM 12.5 54.5 0.165 8.02 11.92 11.1
5/1/2022 5:30:00 PM 12.43 54.374 0.166 7.95 11.31 11.01
5/1/2022 5:45:00 PM 12.36 54.248 0.166 7.88 11.54 10.89
5/1/2022 6:00:00 PM 12.3 54.14 0.166 7.83 11.62 10.83
5/1/2022 6:15:00 PM 12.25 54.05 0.166 7.75 11.71 10.79
5/1/2022 6:30:00 PM 12.2 53.96 0.166 7.76 10.99 10.74
5/1/2022 6:45:00 PM 12.15 53.87 0.166 7.72 11.59 10.68
5/1/2022 7:00:00 PM 12.11 53.798 0.166 7.68 12.21 10.6
5/1/2022 7:15:00 PM 12.07 53.726 0.166 7.62 11.73 10.51
5/1/2022 7:30:00 PM 12.03 53.654 0.167 7.48 11.81 10.43
5/1/2022 7:45:00 PM 11.99 53.582 0.167 7.56 11.85 10.37
5/1/2022 8:00:00 PM 11.95 53.51 0.167 7.54 11.86 10.29
5/1/2022 8:15:00 PM 11.9 53.42 0.167 7.36 11.79 10.23
5/1/2022 8:30:00 PM 11.84 53.312 0.167 7.49 12.02 10.15
5/1/2022 8:45:00 PM 11.78 53.204 0.168 7.45 11.98 10.08
5/1/2022 9:00:00 PM 11.73 53.114 0.168 7.43 11.9 10.02
5/1/2022 9:15:00 PM 11.66 52.988 0.168 7.26 11.39 9.96
5/1/2022 9:30:00 PM 11.6 52.88 0.168 7.39 11.66 9.93
5/1/2022 9:45:00 PM 11.55 52.79 0.168 7.39 12.16 9.92
5/1/2022 10:00:00 PM 11.5 52.7 0.168 7.38 11.94 9.91
5/1/2022 10:15:00 PM 11.45 52.61 0.168 7.35 11.72 9.91
5/1/2022 10:30:00 PM 11.4 52.52 0.168 7.36 11.89 9.9
5/1/2022 10:45:00 PM 11.36 52.448 0.168 7.34 12.31 9.91
5/1/2022 11:00:00 PM 11.31 52.358 0.168 7.35 12.01 9.91
5/1/2022 11:15:00 PM 11.26 52.268 0.168 7.25 11.73 9.91
5/1/2022 11:30:00 PM 11.21 52.178 0.169 7.19 11.99 9.92
5/1/2022 11:45:00 PM 11.17 52.106 0.169 7.32 12.38 9.93
5/2/2022 12:00:00 AM 11.12 52.016 0.169 7.34 11.9 9.93
5/2/2022 12:15:00 AM 11.07 51.926 0.169 7.3 12.55 9.95
5/2/2022 12:30:00 AM 11.04 51.872 0.169 7.32 11.9 9.95
5/2/2022 12:45:00 AM 11 51.8 0.169 7.32 11.84 9.97
5/2/2022 1:00:00 AM 10.96 51.728 0.169 7.29 11.97 9.98
5/2/2022 1:15:00 AM 10.92 51.656 0.169 7.17 12.22 9.98
5/2/2022 1:30:00 AM 10.89 51.602 0.169 7.32 13 9.98
5/2/2022 1:45:00 AM 10.85 51.53 0.169 7.31 12.21 10
5/2/2022 2:00:00 AM 10.82 51.476 0.169 7.16 12.1 10.01
5/2/2022 2:15:00 AM 10.79 51.422 0.169 7.3 12.3 10.01
5/2/2022 2:30:00 AM 10.75 51.35 0.168 7.3 12.1 10.01
5/2/2022 2:45:00 AM 10.72 51.296 0.168 7.29 11.74 10.01
5/2/2022 3:00:00 AM 10.68 51.224 0.168 7.28 12.24 10.01
5/2/2022 3:15:00 AM 10.65 51.17 0.168 7.26 12.19 10.01
5/2/2022 3:30:00 AM 10.61 51.098 0.168 7.17 11.74 10.02
5/2/2022 3:45:00 AM 10.58 51.044 0.169 7.3 12.63 10.03
5/2/2022 4:00:00 AM 10.55 50.99 0.169 7.19 11.82 10.04
5/2/2022 4:15:00 AM 10.53 50.954 0.169 7.3 10.72 10.05
5/2/2022 4:30:00 AM 10.52 50.936 0.169 7.27 12.14 10.05
5/2/2022 4:45:00 AM 10.51 50.918 0.169 7.26 11.37 10.06
5/2/2022 5:00:00 AM 10.49 50.882 0.169 7.28 12.17 10.07
5/2/2022 5:15:00 AM 10.48 50.864 0.17 7.29 11.9 10.07
5/2/2022 5:30:00 AM 10.47 50.846 0.17 7.15 11.93 10.07
5/2/2022 5:45:00 AM 10.46 50.828 0.17 7.28 12.86 10.08
5/2/2022 6:00:00 AM 10.46 50.828 0.17 7.29 10.63 10.08
5/2/2022 6:15:00 AM 10.45 50.81 0.17 7.29 12.09 10.09
5/2/2022 6:30:00 AM 10.44 50.792 0.17 7.3 11.96 10.11
5/2/2022 6:45:00 AM 10.44 50.792 0.17 7.31 11.93 10.15
5/2/2022 7:00:00 AM 10.44 50.792 0.17 7.31 12 10.2
5/2/2022 7:15:00 AM 10.45 50.81 0.17 7.32 11.23 10.27
5/2/2022 7:30:00 AM 10.46 50.828 0.17 7.34 11.02 10.37
5/2/2022 7:45:00 AM 10.48 50.864 0.17 7.33 10.66 10.47
5/2/2022 8:00:00 AM 10.5 50.9 0.17 7.4 11.97 10.6
5/2/2022 8:15:00 AM 10.54 50.972 0.17 7.43 12.11 10.75
5/2/2022 8:30:00 AM 10.59 51.062 0.169 7.47 12 10.93
5/2/2022 8:45:00 AM 10.64 51.152 0.169 7.51 11.74 11.09
5/2/2022 9:00:00 AM 10.73 51.314 0.169 7.58 10.79 11.28
5/2/2022 9:15:00 AM 10.85 51.53 0.169 7.63 11.19 11.44
5/2/2022 9:30:00 AM 10.95 51.71 0.168 7.68 11.21 11.58
5/2/2022 9:45:00 AM 11.05 51.89 0.168 7.77 10.95 11.7
5/2/2022 10:00:00 AM 11.12 52.016 0.168 7.83 11.17 11.76
5/2/2022 10:15:00 AM 11.16 52.088 0.168 7.86 11.56 11.77
5/2/2022 10:30:00 AM 11.2 52.16 0.168 7.9 11.55 11.77
5/2/2022 10:45:00 AM 11.27 52.286 0.168 7.95 11.35 11.79
5/2/2022 11:00:00 AM 11.4 52.52 0.168 7.86 11.35 11.83
5/2/2022 11:15:00 AM 11.55 52.79 0.168 7.9 11.54 11.89
5/2/2022 11:30:00 AM 11.85 53.33 0.168 8.13 11.04 11.96
5/2/2022 11:45:00 AM 12.21 53.978 0.168 8.19 11.34 12.02
5/2/2022 12:00:00 PM 12.72 54.896 0.168 8.15 11.04 12.07
5/2/2022 12:15:00 PM 13.3 55.94 0.168 8.33 11.57 12.07
5/2/2022 12:30:00 PM 13.62 56.516 0.168 8.38 11.61 12.01
5/2/2022 12:45:00 PM 13.81 56.858 0.168 8.41 11.84 11.9
5/2/2022 1:00:00 PM 13.86 56.948 0.168 8.38 11.28 11.7
5/2/2022 1:15:00 PM 13.75 56.75 0.168 8.27 10.93 11.45
5/2/2022 1:30:00 PM 13.55 56.39 0.168 8.15 12.17 11.17
5/2/2022 1:45:00 PM 13.36 56.048 0.169 8.01 10.58 10.98
5/2/2022 2:00:00 PM 13.2 55.76 0.169 7.94 12.14 10.91
5/2/2022 2:15:00 PM 13.09 55.562 0.169 7.91 11.63 10.92
5/2/2022 2:30:00 PM 12.99 55.382 0.169 7.8 11.05 10.97
5/2/2022 2:45:00 PM 12.93 55.274 0.169 7.81 11.65 11.05
5/2/2022 3:00:00 PM 12.9 55.22 0.169 7.98 11.7 11.14
5/2/2022 3:15:00 PM 12.98 55.364 0.169 8.04 10.92 11.26
5/2/2022 3:30:00 PM 13.18 55.724 0.169 8.11 11.04 11.39
5/2/2022 3:45:00 PM 13.33 55.994 0.168 8.2 9.76 11.51
5/2/2022 4:00:00 PM 13.42 56.156 0.168 8.26 10.23 11.59
5/2/2022 4:15:00 PM 13.43 56.174 0.168 8.32 10.04 11.62
5/2/2022 4:30:00 PM 13.38 56.084 0.168 8.35 10.21 11.58
5/2/2022 4:45:00 PM 13.28 55.904 0.168 8.33 9.72 11.48
5/2/2022 5:00:00 PM 13.23 55.814 0.168 8.29 10.1 11.37
5/2/2022 5:15:00 PM 13.19 55.742 0.169 8.23 9.95 11.27
5/2/2022 5:30:00 PM 13.15 55.67 0.169 8.16 10.06 11.19
5/2/2022 5:45:00 PM 13.14 55.652 0.169 8.12 10.01 11.14
5/2/2022 6:00:00 PM 13.15 55.67 0.169 8.09 10.84 11.13
5/2/2022 6:15:00 PM 13.18 55.724 0.169 8.08 11.18 11.12
5/2/2022 6:30:00 PM 13.2 55.76 0.169 8.08 11.14 11.15
5/2/2022 6:45:00 PM 13.18 55.724 0.169 8.07 10.85 11.11
5/2/2022 7:00:00 PM 13.12 55.616 0.169 8.03 12.31 11.01
5/2/2022 7:15:00 PM 13.05 55.49 0.169 7.94 11.19 10.8
5/2/2022 7:30:00 PM 12.98 55.364 0.17 7.81 12.11 10.55
5/2/2022 7:45:00 PM 12.93 55.274 0.17 7.71 11.74 10.38
5/2/2022 8:00:00 PM 12.89 55.202 0.171 7.63 11.55 10.23
5/2/2022 8:15:00 PM 12.85 55.13 0.171 7.58 12.15 10.12
5/2/2022 8:30:00 PM 12.81 55.058 0.172 7.53 11.94 10.01
5/2/2022 8:45:00 PM 12.76 54.968 0.172 7.5 13.38 9.94
5/2/2022 9:00:00 PM 12.72 54.896 0.172 7.47 16.41 9.9
5/2/2022 9:15:00 PM 12.67 54.806 0.171 7.35 13.08 9.87
5/2/2022 9:30:00 PM 12.63 54.734 0.171 7.43 12.39 9.84
5/2/2022 9:45:00 PM 12.59 54.662 0.171 7.41 11.96 9.83
5/2/2022 10:00:00 PM 12.53 54.554 0.17 7.39 12.36 9.83
5/2/2022 10:15:00 PM 12.47 54.446 0.17 7.39 12.33 9.83
5/2/2022 10:30:00 PM 12.39 54.302 0.17 7.24 12.44 9.83
5/2/2022 10:45:00 PM 12.32 54.176 0.169 7.23 11 9.84
5/2/2022 11:00:00 PM 12.25 54.05 0.169 7.37 12.29 9.85
5/2/2022 11:15:00 PM 12.19 53.942 0.169 7.35 12.41 9.87
5/2/2022 11:30:00 PM 12.14 53.852 0.169 7.34 12.58 9.88
5/2/2022 11:45:00 PM 12.09 53.762 0.169 7.34 12.19 9.88
5/3/2022 12:00:00 AM 12.06 53.708 0.168 7.35 13.28 9.89
5/3/2022 12:15:00 AM 12.02 53.636 0.168 7.35 13.78 9.89
5/3/2022 12:30:00 AM 11.98 53.564 0.167 7.34 12.7 9.89
5/3/2022 12:45:00 AM 11.95 53.51 0.167 7.33 13.99 9.89
5/3/2022 1:00:00 AM 11.91 53.438 0.166 7.19 12.06 9.89
5/3/2022 1:15:00 AM 11.88 53.384 0.166 7.33 14.08 9.9
5/3/2022 1:30:00 AM 11.84 53.312 0.166 7.32 13.73 9.91
5/3/2022 1:45:00 AM 11.8 53.24 0.166 7.26 12.66 9.92
5/3/2022 2:00:00 AM 11.74 53.132 0.166 7.22 12.78 9.92
5/3/2022 2:15:00 AM 11.67 53.006 0.166 7.17 14.46 9.93
5/3/2022 2:30:00 AM 11.6 52.88 0.166 7.31 12.68 9.94
5/3/2022 2:45:00 AM 11.53 52.754 0.166 7.3 12.15 9.95
5/3/2022 3:00:00 AM 11.46 52.628 0.166 7.21 13.65 9.97
5/3/2022 3:15:00 AM 11.37 52.466 0.166 7.21 12.75 9.99
5/3/2022 3:30:00 AM 11.28 52.304 0.166 7.28 12.84 10
5/3/2022 3:45:00 AM 11.2 52.16 0.166 7.31 12.49 10.01
5/3/2022 4:00:00 AM 11.1 51.98 0.166 7.29 14.6 10.02
5/3/2022 4:15:00 AM 11.02 51.836 0.166 7.16 13.24 10.04
5/3/2022 4:30:00 AM 10.93 51.674 0.165 7.28 13.76 10.07
5/3/2022 4:45:00 AM 10.85 51.53 0.166 7.29 13.05 10.08
5/3/2022 5:00:00 AM 10.76 51.368 0.166 7.28 12.29 10.11
5/3/2022 5:15:00 AM 10.68 51.224 0.166 7.28 13.94 10.12
5/3/2022 5:30:00 AM 10.61 51.098 0.165 7.12 13.95 10.14
5/3/2022 5:45:00 AM 10.55 50.99 0.165 7.27 13.41 10.16
5/3/2022 6:00:00 AM 10.5 50.9 0.165 7.27 14.7 10.18
5/3/2022 6:15:00 AM 10.46 50.828 0.165 7.23 12.91 10.2
5/3/2022 6:30:00 AM 10.43 50.774 0.165 7.28 13.88 10.25
5/3/2022 6:45:00 AM 10.4 50.72 0.164 7.17 12.31 10.33
5/3/2022 7:00:00 AM 10.37 50.666 0.164 7.31 13.83 10.44
5/3/2022 7:15:00 AM 10.35 50.63 0.163 7.34 13.79 10.6
5/3/2022 7:30:00 AM 10.33 50.594 0.163 7.37 14.59 10.76
5/3/2022 7:45:00 AM 10.32 50.576 0.162 7.39 14.1 10.93
5/3/2022 8:00:00 AM 10.33 50.594 0.162 7.32 14.9 11.09
5/3/2022 8:15:00 AM 10.38 50.684 0.161 7.38 14.93 11.23
5/3/2022 8:30:00 AM 10.44 50.792 0.161 7.39 14.71 11.39
5/3/2022 8:45:00 AM 10.53 50.954 0.16 7.6 13.28 11.52
5/3/2022 9:00:00 AM 10.63 51.134 0.16 7.65 13.79 11.64
5/3/2022 9:15:00 AM 10.77 51.386 0.16 7.59 14.39 11.73
5/3/2022 9:30:00 AM 10.97 51.746 0.159 7.77 14.69 11.81
5/3/2022 9:45:00 AM 11.18 52.124 0.159 7.82 14.13 11.86
5/3/2022 10:00:00 AM 11.4 52.52 0.159 7.87 13.51 11.91
5/3/2022 10:15:00 AM 11.7 53.06 0.159 7.95 13.6 11.94
5/3/2022 10:30:00 AM 11.91 53.438 0.159 8.01 13 11.97
5/3/2022 10:45:00 AM 12.06 53.708 0.158 8.06 14.25 11.98
5/3/2022 11:00:00 AM 12.23 54.014 0.158 8.11 13.85 11.98
5/3/2022 11:15:00 AM 12.5 54.5 0.158 8.06 12.98 11.99
5/3/2022 11:30:00 AM 12.83 55.094 0.158 8.22 13.32 11.98
5/3/2022 11:45:00 AM 13.2 55.76 0.158 8.28 13.69 11.97
5/3/2022 12:00:00 PM 13.58 56.444 0.157 8.33 13.23 11.93
5/3/2022 12:15:00 PM 13.9 57.02 0.157 8.36 12.57 11.9
5/3/2022 12:30:00 PM 14.09 57.362 0.157 8.29 13.09 11.86
5/3/2022 12:45:00 PM 14.16 57.488 0.157 8.31 12.66 11.8
5/3/2022 1:00:00 PM 14.18 57.524 0.157 8.46 11.95 11.76
5/3/2022 1:15:00 PM 14.17 57.506 0.157 8.46 12.09 11.72
5/3/2022 1:30:00 PM 14.15 57.47 0.157 8.31 12.06 11.69
5/3/2022 1:45:00 PM 14.18 57.524 0.157 8.48 12 11.66
5/3/2022 2:00:00 PM 14.25 57.65 0.157 8.49 11.84 11.65
5/3/2022 2:15:00 PM 14.34 57.812 0.157 8.5 12.18 11.63
5/3/2022 2:30:00 PM 14.43 57.974 0.157 8.53 12.47 11.62
5/3/2022 2:45:00 PM 14.5 58.1 0.157 8.55 12.21 11.61
5/3/2022 3:00:00 PM 14.53 58.154 0.157 8.56 12.06 11.58
5/3/2022 3:15:00 PM 14.56 58.208 0.157 8.56 12.18 11.55
5/3/2022 3:30:00 PM 14.57 58.226 0.157 8.56 11.97 11.5
5/3/2022 3:45:00 PM 14.56 58.208 0.157 8.54 12.07 11.45
5/3/2022 4:00:00 PM 14.54 58.172 0.157 8.51 11.52 11.38
5/3/2022 4:15:00 PM 14.51 58.118 0.157 8.48 10.83 11.3
5/3/2022 4:30:00 PM 14.5 58.1 0.157 8.44 11.26 11.26
5/3/2022 4:45:00 PM 14.46 58.028 0.157 8.39 11.73 11.18
5/3/2022 5:00:00 PM 14.44 57.992 0.157 8.36 11.38 11.13
5/3/2022 5:15:00 PM 14.41 57.938 0.157 8.31 11.25 11.05
5/3/2022 5:30:00 PM 14.37 57.866 0.158 8.25 11.34 10.97
5/3/2022 5:45:00 PM 14.35 57.83 0.158 8.19 11.39 10.9
5/3/2022 6:00:00 PM 14.34 57.812 0.158 8.14 11.07 10.87
5/3/2022 6:15:00 PM 14.34 57.812 0.158 8.12 10.53 10.86
5/3/2022 6:30:00 PM 14.32 57.776 0.158 8.01 10.63 10.85
5/3/2022 6:45:00 PM 14.28 57.704 0.158 7.95 11.07 10.81
5/3/2022 7:00:00 PM 14.23 57.614 0.158 8.01 11.41 10.7
5/3/2022 7:15:00 PM 14.18 57.524 0.158 7.94 10.2 10.59
5/3/2022 7:30:00 PM 14.11 57.398 0.159 7.87 11.95 10.47
5/3/2022 7:45:00 PM 14.04 57.272 0.159 7.68 10.84 10.34
5/3/2022 8:00:00 PM 13.97 57.146 0.159 7.72 11.35 10.21
5/3/2022 8:15:00 PM 13.89 57.002 0.159 7.66 11.67 10.05
5/3/2022 8:30:00 PM 13.82 56.876 0.16 7.59 11.74 9.89
5/3/2022 8:45:00 PM 13.76 56.768 0.16 7.53 12.04 9.76
5/3/2022 9:00:00 PM 13.7 56.66 0.16 7.49 11.51 9.64
5/3/2022 9:15:00 PM 13.65 56.57 0.16 7.45 10.83 9.57
5/3/2022 9:30:00 PM 13.6 56.48 0.16 7.32 11.78 9.53
5/3/2022 9:45:00 PM 13.55 56.39 0.16 7.4 11.38 9.5
5/3/2022 10:00:00 PM 13.51 56.318 0.16 7.39 11.53 9.48
5/3/2022 10:15:00 PM 13.46 56.228 0.161 7.38 12.07 9.46
5/3/2022 10:30:00 PM 13.41 56.138 0.161 7.35 11.91 9.46
5/3/2022 10:45:00 PM 13.36 56.048 0.161 7.34 11.45 9.46
5/3/2022 11:00:00 PM 13.32 55.976 0.161 7.36 12.35 9.45
5/3/2022 11:15:00 PM 13.29 55.922 0.161 7.33 12.14 9.43
5/3/2022 11:30:00 PM 13.26 55.868 0.161 7.32 11.47 9.43
5/3/2022 11:45:00 PM 13.22 55.796 0.161 7.33 11.69 9.43
5/4/2022 12:00:00 AM 13.18 55.724 0.161 7.32 12.05 9.43
5/4/2022 12:15:00 AM 13.15 55.67 0.161 7.31 11.45 9.42
5/4/2022 12:30:00 AM 13.11 55.598 0.161 7.32 11.6 9.43
5/4/2022 12:45:00 AM 13.07 55.526 0.161 7.31 11.08 9.43
5/4/2022 1:00:00 AM 13.04 55.472 0.161 7.3 11.58 9.43
5/4/2022 1:15:00 AM 13.01 55.418 0.161 7.31 12.16 9.44
5/4/2022 1:30:00 AM 12.99 55.382 0.161 7.31 11.7 9.44
5/4/2022 1:45:00 AM 12.97 55.346 0.161 7.31 11.63 9.43
5/4/2022 2:00:00 AM 12.94 55.292 0.161 7.31 10.51 9.44
5/4/2022 2:15:00 AM 12.92 55.256 0.161 7.31 11.01 9.44
5/4/2022 2:30:00 AM 12.9 55.22 0.162 7.3 11.45 9.44
5/4/2022 2:45:00 AM 12.88 55.184 0.162 7.31 10.79 9.45
5/4/2022 3:00:00 AM 12.86 55.148 0.162 7.3 10.98 9.45
5/4/2022 3:15:00 AM 12.83 55.094 0.162 7.3 10.53 9.46
5/4/2022 3:30:00 AM 12.8 55.04 0.162 7.3 11.37 9.46
5/4/2022 3:45:00 AM 12.77 54.986 0.162 7.3 11.42 9.47
5/4/2022 4:00:00 AM 12.74 54.932 0.162 7.31 11.13 9.48
5/4/2022 4:15:00 AM 12.71 54.878 0.162 7.3 10.72 9.48
5/4/2022 4:30:00 AM 12.69 54.842 0.162 7.3 11.33 9.49
5/4/2022 4:45:00 AM 12.67 54.806 0.162 7.3 11.41 9.49
5/4/2022 5:00:00 AM 12.64 54.752 0.162 7.31 12.55 9.5
5/4/2022 5:15:00 AM 12.62 54.716 0.162 7.3 11.99 9.5
5/4/2022 5:30:00 AM 12.6 54.68 0.162 7.31 11.79 9.52
5/4/2022 5:45:00 AM 12.57 54.626 0.162 7.31 12 9.54
5/4/2022 6:00:00 AM 12.54 54.572 0.162 7.31 12.09 9.54
5/4/2022 6:15:00 AM 12.52 54.536 0.162 7.31 11.41 9.55
5/4/2022 6:30:00 AM 12.49 54.482 0.163 7.31 12 9.57
5/4/2022 6:45:00 AM 12.47 54.446 0.163 7.32 12.31 9.6
5/4/2022 7:00:00 AM 12.44 54.392 0.163 7.33 12.09 9.65
5/4/2022 7:15:00 AM 12.42 54.356 0.163 7.34 12.29 9.71
5/4/2022 7:30:00 AM 12.4 54.32 0.163 7.36 11.44 9.77
5/4/2022 7:45:00 AM 12.38 54.284 0.163 7.37 11.95 9.84
5/4/2022 8:00:00 AM 12.36 54.248 0.163 7.39 12.6 9.92
5/4/2022 8:15:00 AM 12.35 54.23 0.163 7.41 12.8 9.99
5/4/2022 8:30:00 AM 12.34 54.212 0.163 7.42 13.14 10.06
5/4/2022 8:45:00 AM 12.33 54.194 0.163 7.43 12.63 10.16
5/4/2022 9:00:00 AM 12.33 54.194 0.163 7.46 12.16 10.28
5/4/2022 9:15:00 AM 12.33 54.194 0.163 7.49 13.38 10.38
5/4/2022 9:30:00 AM 12.34 54.212 0.163 7.37 11.78 10.49
5/4/2022 9:45:00 AM 12.37 54.266 0.163 7.46 12.7 10.6
5/4/2022 10:00:00 AM 12.4 54.32 0.163 7.6 12.54 10.72
5/4/2022 10:15:00 AM 12.42 54.356 0.163 7.55 12.77 10.83
5/4/2022 10:30:00 AM 12.45 54.41 0.163 7.68 12.41 10.92
5/4/2022 10:45:00 AM 12.5 54.5 0.162 7.73 12.62 11
5/4/2022 11:00:00 AM 12.57 54.626 0.163 7.65 13.8 11.09
5/4/2022 11:15:00 AM 12.64 54.752 0.162 7.69 12.07 11.16
5/4/2022 11:30:00 AM 12.73 54.914 0.162 7.88 12.13 11.25
5/4/2022 11:45:00 AM 12.84 55.112 0.162 7.95 11.83 11.31
5/4/2022 12:00:00 PM 13 55.4 0.162 8.01 11.73 11.37
5/4/2022 12:15:00 PM 13.2 55.76 0.162 8.07 12.44 11.43
5/4/2022 12:30:00 PM 13.44 56.192 0.162 8.01 12.03 11.48
5/4/2022 12:45:00 PM 13.68 56.624 0.161 8.1 11.76 11.5
5/4/2022 1:00:00 PM 13.9 57.02 0.161 8.22 11.75 11.5
5/4/2022 1:15:00 PM 14.05 57.29 0.161 8.3 11.96 11.5
5/4/2022 1:30:00 PM 14.16 57.488 0.161 8.31 12.04 11.42
5/4/2022 1:45:00 PM 14.18 57.524 0.16 8.12 12.94 11.22
5/4/2022 2:00:00 PM 14.16 57.488 0.159 8.03 12.97 11
5/4/2022 2:15:00 PM 14.13 57.434 0.158 8.07 12.87 10.88
5/4/2022 2:30:00 PM 14.12 57.416 0.157 8.01 12.76 10.81
5/4/2022 2:45:00 PM 14.15 57.47 0.157 8 14.71 10.85
5/4/2022 3:00:00 PM 14.17 57.506 0.157 8.02 14.43 10.9
5/4/2022 3:15:00 PM 14.22 57.596 0.157 8.05 16.9 10.93
5/4/2022 3:30:00 PM 14.22 57.596 0.161 8.06 17.4 10.91
5/4/2022 3:45:00 PM 14.23 57.614 0.162 8.05 16.92 10.89
5/4/2022 4:00:00 PM 14.24 57.632 0.162 8.05 15.79 10.88
5/4/2022 4:15:00 PM 14.24 57.632 0.161 8.05 15.52 10.85
5/4/2022 4:30:00 PM 14.21 57.578 0.161 8.03 15.47 10.81
5/4/2022 4:45:00 PM 14.17 57.506 0.161 8 14.93 10.76
5/4/2022 5:00:00 PM 14.12 57.416 0.162 7.95 14.15 10.67
5/4/2022 5:15:00 PM 14.08 57.344 0.162 7.91 14.22 10.6
5/4/2022 5:30:00 PM 14.02 57.236 0.162 7.87 13.91 10.53
5/4/2022 5:45:00 PM 13.98 57.164 0.162 7.84 13.83 10.51
5/4/2022 6:00:00 PM 13.94 57.092 0.161 7.82 14.43 10.49
5/4/2022 6:15:00 PM 13.88 56.984 0.161 7.78 14.39 10.43
5/4/2022 6:30:00 PM 13.81 56.858 0.161 7.72 14.17 10.32
5/4/2022 6:45:00 PM 13.74 56.732 0.161 7.69 14.44 10.2
5/4/2022 7:00:00 PM 13.67 56.606 0.161 7.64 14.83 10.13
5/4/2022 7:15:00 PM 13.6 56.48 0.161 7.61 13.83 10.08
5/4/2022 7:30:00 PM 13.52 56.336 0.161 7.58 14.23 10.03
5/4/2022 7:45:00 PM 13.44 56.192 0.161 7.55 13.91 9.96
5/4/2022 8:00:00 PM 13.38 56.084 0.161 7.52 13.32 9.88
5/4/2022 8:15:00 PM 13.31 55.958 0.161 7.49 13.62 9.8
5/4/2022 8:30:00 PM 13.25 55.85 0.161 7.47 13.57 9.74
5/4/2022 8:45:00 PM 13.19 55.742 0.161 7.43 13.36 9.7
5/4/2022 9:00:00 PM 13.14 55.652 0.161 7.42 13.75 9.66
5/4/2022 9:15:00 PM 13.08 55.544 0.161 7.4 12.78 9.64
5/4/2022 9:30:00 PM 13.02 55.436 0.161 7.4 13.46 9.63
5/4/2022 9:45:00 PM 12.97 55.346 0.161 7.36 13.74 9.63
5/4/2022 10:00:00 PM 12.92 55.256 0.161 7.36 13.31 9.63
5/4/2022 10:15:00 PM 12.86 55.148 0.16 7.36 13.43 9.64
5/4/2022 10:30:00 PM 12.81 55.058 0.16 7.37 14.95 9.64
5/4/2022 10:45:00 PM 12.75 54.95 0.16 7.35 13.26 9.65
5/4/2022 11:00:00 PM 12.69 54.842 0.16 7.35 13.97 9.67
5/4/2022 11:15:00 PM 12.65 54.77 0.16 7.35 12.81 9.67
5/4/2022 11:30:00 PM 12.6 54.68 0.16 7.33 13.14 9.67
5/4/2022 11:45:00 PM 12.56 54.608 0.16 7.34 12.89 9.68
5/5/2022 12:00:00 AM 12.52 54.536 0.16 7.34 13.13 9.69
5/5/2022 12:15:00 AM 12.49 54.482 0.16 7.16 12.22 9.7
5/5/2022 12:30:00 AM 12.45 54.41 0.16 7.32 13.27 9.7
5/5/2022 12:45:00 AM 12.41 54.338 0.16 7.33 14.03 9.71
5/5/2022 1:00:00 AM 12.38 54.284 0.159 7.24 13.26 9.73
5/5/2022 1:15:00 AM 12.33 54.194 0.159 7.19 12.97 9.72
5/5/2022 1:30:00 AM 12.25 54.05 0.159 7.3 12.99 9.74
5/5/2022 1:45:00 AM 12.17 53.906 0.159 7.32 12.83 9.75
5/5/2022 2:00:00 AM 12.07 53.726 0.159 7.31 12.91 9.77
5/5/2022 2:15:00 AM 11.99 53.582 0.159 7.31 12.8 9.78
5/5/2022 2:30:00 AM 11.89 53.402 0.159 7.28 13.09 9.8
5/5/2022 2:45:00 AM 11.81 53.258 0.159 7.13 13.47 9.82
5/5/2022 3:00:00 AM 11.71 53.078 0.159 7.25 12.78 9.84
5/5/2022 3:15:00 AM 11.63 52.934 0.159 7.25 13.47 9.86
5/5/2022 3:30:00 AM 11.55 52.79 0.159 7.24 14.37 9.88
5/5/2022 3:45:00 AM 11.48 52.664 0.159 7.22 13.37 9.9
5/5/2022 4:00:00 AM 11.42 52.556 0.159 7.08 13.58 9.92
5/5/2022 4:15:00 AM 11.36 52.448 0.159 7.24 13.59 9.94
5/5/2022 4:30:00 AM 11.31 52.358 0.159 7.23 12.83 9.96
5/5/2022 4:45:00 AM 11.25 52.25 0.159 7.23 13.19 9.97
5/5/2022 5:00:00 AM 11.21 52.178 0.159 7.23 13.13 9.98
5/5/2022 5:15:00 AM 11.15 52.07 0.159 7.12 12.84 10
5/5/2022 5:30:00 AM 11.1 51.98 0.159 7.11 13.33 10.01
5/5/2022 5:45:00 AM 11.03 51.854 0.159 7.14 12.93 10.02
5/5/2022 6:00:00 AM 10.95 51.71 0.159 7.11 12.67 10.05
5/5/2022 6:15:00 AM 10.87 51.566 0.159 7.25 13.06 10.09
5/5/2022 6:30:00 AM 10.8 51.44 0.159 7.25 13.28 10.15
5/5/2022 6:45:00 AM 10.74 51.332 0.159 7.1 12.46 10.25
5/5/2022 7:00:00 AM 10.69 51.242 0.158 7.29 13.06 10.39
5/5/2022 7:15:00 AM 10.66 51.188 0.158 7.33 12.47 10.55
5/5/2022 7:30:00 AM 10.64 51.152 0.158 7.34 13.2 10.7
5/5/2022 7:45:00 AM 10.64 51.152 0.158 7.4 12.39 10.84
5/5/2022 8:00:00 AM 10.65 51.17 0.158 7.45 13.15 10.97
5/5/2022 8:15:00 AM 10.71 51.278 0.158 7.5 12.71 11.09
5/5/2022 8:30:00 AM 10.78 51.404 0.158 7.54 13.09 11.22
5/5/2022 8:45:00 AM 10.86 51.548 0.157 7.59 12.47 11.33
5/5/2022 9:00:00 AM 10.97 51.746 0.157 7.65 12.67 11.43
5/5/2022 9:15:00 AM 11.13 52.034 0.157 7.56 13.01 11.5
5/5/2022 9:30:00 AM 11.31 52.358 0.157 7.65 12.43 11.59
5/5/2022 9:45:00 AM 11.53 52.754 0.157 7.72 12.61 11.65
5/5/2022 10:00:00 AM 11.76 53.168 0.157 7.87 12.39 11.68
5/5/2022 10:15:00 AM 12 53.6 0.157 7.92 12.77 11.72
5/5/2022 10:30:00 AM 12.27 54.086 0.157 7.96 12.37 11.74
5/5/2022 10:45:00 AM 12.55 54.59 0.157 8.01 12.91 11.75
5/5/2022 11:00:00 AM 12.84 55.112 0.158 8.07 12.89 11.74
5/5/2022 11:15:00 AM 13.17 55.706 0.158 8.11 12.51 11.72
5/5/2022 11:30:00 AM 13.51 56.318 0.158 8.17 12.75 11.7
5/5/2022 11:45:00 AM 13.88 56.984 0.158 8.2 12.56 11.68
5/5/2022 12:00:00 PM 14.22 57.596 0.158 8.16 12.66 11.63
5/5/2022 12:15:00 PM 14.55 58.19 0.158 8.27 13.34 11.62
5/5/2022 12:30:00 PM 14.87 58.766 0.158 8.31 12.72 11.58
5/5/2022 12:45:00 PM 15.11 59.198 0.158 8.34 12.25 11.55
5/5/2022 1:00:00 PM 15.34 59.612 0.158 8.37 12.26 11.51
5/5/2022 1:15:00 PM 15.54 59.972 0.158 8.4 12.6 11.46
5/5/2022 1:30:00 PM 15.7 60.26 0.158 8.43 11.85 11.44
5/5/2022 1:45:00 PM 15.86 60.548 0.158 8.45 12.52 11.4
5/5/2022 2:00:00 PM 15.97 60.746 0.158 8.48 12.81 11.36
5/5/2022 2:15:00 PM 16.08 60.944 0.158 8.49 12.37 11.32
5/5/2022 2:30:00 PM 16.16 61.088 0.158 8.51 11.87 11.28
5/5/2022 2:45:00 PM 16.24 61.232 0.159 8.52 12 11.26
5/5/2022 3:00:00 PM 16.34 61.412 0.158 8.51 11.92 11.24
5/5/2022 3:15:00 PM 16.42 61.556 0.158 8.44 12.56 11.21
5/5/2022 3:30:00 PM 16.46 61.628 0.159 8.54 12.18 11.17
5/5/2022 3:45:00 PM 16.47 61.646 0.158 8.53 12.29 11.13
5/5/2022 4:00:00 PM 16.47 61.646 0.159 8.52 12.6 11.09
5/5/2022 4:15:00 PM 16.45 61.61 0.159 8.53 12.82 11.06
5/5/2022 4:30:00 PM 16.41 61.538 0.159 8.51 12.48 11.01
5/5/2022 4:45:00 PM 16.36 61.448 0.159 8.49 12.3 10.97
5/5/2022 5:00:00 PM 16.3 61.34 0.159 8.5 11.78 10.94
5/5/2022 5:15:00 PM 16.25 61.25 0.159 8.47 12.69 10.9
5/5/2022 5:30:00 PM 16.2 61.16 0.159 8.46 12.02 10.86
5/5/2022 5:45:00 PM 16.16 61.088 0.159 8.44 11.79 10.81
5/5/2022 6:00:00 PM 16.11 60.998 0.159 8.41 12.07 10.77
5/5/2022 6:15:00 PM 16.02 60.836 0.159 8.38 11.77 10.72
5/5/2022 6:30:00 PM 15.92 60.656 0.159 8.31 11.9 10.64
5/5/2022 6:45:00 PM 15.82 60.476 0.159 8.24 11.68 10.54
5/5/2022 7:00:00 PM 15.71 60.278 0.159 8.14 11.81 10.4
5/5/2022 7:15:00 PM 15.6 60.08 0.159 8.03 11.77 10.26
5/5/2022 7:30:00 PM 15.5 59.9 0.16 7.93 12.08 10.11
5/5/2022 7:45:00 PM 15.39 59.702 0.16 7.82 12.3 9.96
5/5/2022 8:00:00 PM 15.29 59.522 0.16 7.75 12.07 9.81
5/5/2022 8:15:00 PM 15.18 59.324 0.16 7.67 11.74 9.66
5/5/2022 8:30:00 PM 15.06 59.108 0.161 7.59 11.83 9.52
5/5/2022 8:45:00 PM 14.96 58.928 0.161 7.54 11.96 9.41
5/5/2022 9:00:00 PM 14.84 58.712 0.161 7.5 12.4 9.32
5/5/2022 9:15:00 PM 14.73 58.514 0.161 7.46 12.99 9.26
5/5/2022 9:30:00 PM 14.62 58.316 0.161 7.42 12.25 9.23
5/5/2022 9:45:00 PM 14.51 58.118 0.161 7.41 12.66 9.21
5/5/2022 10:00:00 PM 14.4 57.92 0.162 7.4 12.2 9.21
5/5/2022 10:15:00 PM 14.3 57.74 0.162 7.37 11.86 9.2
5/5/2022 10:30:00 PM 14.2 57.56 0.162 7.25 12.12 9.2
5/5/2022 10:45:00 PM 14.09 57.362 0.162 7.35 11.75 9.21
5/5/2022 11:00:00 PM 14 57.2 0.162 7.35 11.46 9.22
5/5/2022 11:15:00 PM 13.9 57.02 0.162 7.34 12.1 9.24
5/5/2022 11:30:00 PM 13.8 56.84 0.162 7.34 12.4 9.24
5/5/2022 11:45:00 PM 13.7 56.66 0.162 7.33 12.62 9.26
5/6/2022 12:00:00 AM 13.59 56.462 0.162 7.32 11.54 9.27
5/6/2022 12:15:00 AM 13.5 56.3 0.162 7.32 9.54 9.29
5/6/2022 12:30:00 AM 13.41 56.138 0.162 7.32 10.8 9.31
5/6/2022 12:45:00 AM 13.32 55.976 0.162 7.31 11.3 9.34
5/6/2022 1:00:00 AM 13.25 55.85 0.162 7.3 11.12 9.34
5/6/2022 1:15:00 AM 13.17 55.706 0.162 7.3 11.59 9.36
5/6/2022 1:30:00 AM 13.09 55.562 0.162 7.28 10.3 9.37
5/6/2022 1:45:00 AM 13.02 55.436 0.162 7.28 10.31 9.39
5/6/2022 2:00:00 AM 12.95 55.31 0.162 7.27 11.12 9.41
5/6/2022 2:15:00 AM 12.88 55.184 0.162 7.26 12.2 9.42
5/6/2022 2:30:00 AM 12.82 55.076 0.163 7.26 11.08 9.44
5/6/2022 2:45:00 AM 12.76 54.968 0.163 7.26 11.1 9.46
5/6/2022 3:00:00 AM 12.7 54.86 0.163 7.25 11.07 9.46
5/6/2022 3:15:00 AM 12.65 54.77 0.163 7.23 11.15 9.48
5/6/2022 3:30:00 AM 12.6 54.68 0.163 7.24 12.23 9.49
5/6/2022 3:45:00 AM 12.55 54.59 0.163 7.24 11.69 9.49
5/6/2022 4:00:00 AM 12.51 54.518 0.163 7.24 11.51 9.5
5/6/2022 4:15:00 AM 12.47 54.446 0.163 7.24 11.06 9.52
5/6/2022 4:30:00 AM 12.43 54.374 0.163 7.15 10.93 9.53
5/6/2022 4:45:00 AM 12.39 54.302 0.163 7.23 11.16 9.53
5/6/2022 5:00:00 AM 12.35 54.23 0.163 7.23 11.16 9.55
5/6/2022 5:15:00 AM 12.31 54.158 0.163 7.14 11.12 9.55
5/6/2022 5:30:00 AM 12.27 54.086 0.163 7.06 11.39 9.56
5/6/2022 5:45:00 AM 12.24 54.032 0.163 7.06 11.54 9.57
5/6/2022 6:00:00 AM 12.2 53.96 0.163 7.06 11.38 9.58
5/6/2022 6:15:00 AM 12.17 53.906 0.163 7.04 11.5 9.59
5/6/2022 6:30:00 AM 12.13 53.834 0.163 7.24 11.72 9.61
5/6/2022 6:45:00 AM 12.09 53.762 0.163 7.13 11.37 9.64
5/6/2022 7:00:00 AM 12.06 53.708 0.163 7.28 11.18 9.69
5/6/2022 7:15:00 AM 12.03 53.654 0.163 7.28 11.55 9.75
5/6/2022 7:30:00 AM 12 53.6 0.163 7.28 11.18 9.81
5/6/2022 7:45:00 AM 11.98 53.564 0.163 7.31 10.95 9.89
5/6/2022 8:00:00 AM 11.96 53.528 0.162 7.33 10.93 9.99
5/6/2022 8:15:00 AM 11.95 53.51 0.162 7.27 10.77 10.07
5/6/2022 8:30:00 AM 11.95 53.51 0.162 7.25 11.1 10.18
5/6/2022 8:45:00 AM 11.97 53.546 0.162 7.29 11.6 10.31
5/6/2022 9:00:00 AM 12.01 53.618 0.162 7.46 11.4 10.48
5/6/2022 9:15:00 AM 12.06 53.708 0.161 7.37 11.37 10.64
5/6/2022 9:30:00 AM 12.1 53.78 0.161 7.57 9.88 10.79
5/6/2022 9:45:00 AM 12.15 53.87 0.161 7.61 11.05 10.9
5/6/2022 10:00:00 AM 12.2 53.96 0.161 7.55 11.54 11
5/6/2022 10:15:00 AM 12.25 54.05 0.161 7.72 11.67 11.07
5/6/2022 10:30:00 AM 12.32 54.176 0.161 7.76 11.14 11.15
5/6/2022 10:45:00 AM 12.39 54.302 0.161 7.66 11.77 11.22
5/6/2022 11:00:00 AM 12.47 54.446 0.161 7.84 11.76 11.29
5/6/2022 11:15:00 AM 12.54 54.572 0.161 7.92 11.32 11.34
5/6/2022 11:30:00 AM 12.59 54.662 0.161 7.96 11.68 11.38
5/6/2022 11:45:00 AM 12.62 54.716 0.161 7.84 11.55 11.39
5/6/2022 12:00:00 PM 12.65 54.77 0.161 7.89 11.28 11.4
5/6/2022 12:15:00 PM 12.67 54.806 0.161 7.87 11.22 11.38
5/6/2022 12:30:00 PM 12.69 54.842 0.161 7.89 11.36 11.38
5/6/2022 12:45:00 PM 12.71 54.878 0.161 8.08 11.36 11.39
5/6/2022 1:00:00 PM 12.74 54.932 0.16 8.1 11.21 11.39
5/6/2022 1:15:00 PM 12.78 55.004 0.16 8.12 11.19 11.42
5/6/2022 1:30:00 PM 12.84 55.112 0.16 7.97 11.44 11.43
5/6/2022 1:45:00 PM 12.9 55.22 0.16 8.18 11.12 11.45
5/6/2022 2:00:00 PM 12.96 55.328 0.16 8.2 11.19 11.47
5/6/2022 2:15:00 PM 13.02 55.436 0.16 8.08 11.95 11.48
5/6/2022 2:30:00 PM 13.07 55.526 0.16 8.26 10.99 11.48
5/6/2022 2:45:00 PM 13.11 55.598 0.16 8.12 11.2 11.47
5/6/2022 3:00:00 PM 13.12 55.616 0.16 8.15 11.46 11.44
5/6/2022 3:15:00 PM 13.11 55.598 0.16 8.26 11.23 11.38
5/6/2022 3:30:00 PM 13.09 55.562 0.16 8.14 11.35 11.32
5/6/2022 3:45:00 PM 13.08 55.544 0.161 8.2 11.54 11.26
5/6/2022 4:00:00 PM 13.08 55.544 0.161 8.17 11.65 11.23
5/6/2022 4:15:00 PM 13.07 55.526 0.161 8.15 11.31 11.2
5/6/2022 4:30:00 PM 13.04 55.472 0.161 8.11 11.21 11.13
5/6/2022 4:45:00 PM 13.03 55.454 0.161 7.91 11.51 11.07
5/6/2022 5:00:00 PM 13.01 55.418 0.161 8.04 11.17 11.01
5/6/2022 5:15:00 PM 13 55.4 0.161 8.01 11.66 10.98
5/6/2022 5:30:00 PM 12.99 55.382 0.161 7.99 11.31 10.98
5/6/2022 5:45:00 PM 12.98 55.364 0.161 7.83 11.29 10.99
5/6/2022 6:00:00 PM 12.96 55.328 0.161 8 11.31 10.99
5/6/2022 6:15:00 PM 12.94 55.292 0.161 7.88 11.89 10.94
5/6/2022 6:30:00 PM 12.91 55.238 0.162 7.93 11.57 10.86
5/6/2022 6:45:00 PM 12.87 55.166 0.162 7.87 11.84 10.72
5/6/2022 7:00:00 PM 12.82 55.076 0.162 7.78 11.7 10.55
5/6/2022 7:15:00 PM 12.77 54.986 0.163 7.63 11.83 10.4
5/6/2022 7:30:00 PM 12.72 54.896 0.163 7.48 11.88 10.26
5/6/2022 7:45:00 PM 12.67 54.806 0.163 7.61 11.63 10.14
5/6/2022 8:00:00 PM 12.61 54.698 0.164 7.54 11.69 10.04
5/6/2022 8:15:00 PM 12.56 54.608 0.164 7.53 11.99 9.95
5/6/2022 8:30:00 PM 12.5 54.5 0.164 7.48 11.91 9.89
5/6/2022 8:45:00 PM 12.46 54.428 0.164 7.33 12.51 9.83
5/6/2022 9:00:00 PM 12.41 54.338 0.164 7.45 11.31 9.78
5/6/2022 9:15:00 PM 12.36 54.248 0.164 7.33 13.41 9.75
5/6/2022 9:30:00 PM 12.32 54.176 0.165 7.41 11.97 9.73
5/6/2022 9:45:00 PM 12.28 54.104 0.165 7.39 11.32 9.72
5/6/2022 10:00:00 PM 12.24 54.032 0.165 7.38 11.72 9.71
5/6/2022 10:15:00 PM 12.21 53.978 0.165 7.22 12.05 9.71
5/6/2022 10:30:00 PM 12.17 53.906 0.165 7.24 11.25 9.7
5/6/2022 10:45:00 PM 12.13 53.834 0.165 7.33 11.5 9.71
5/6/2022 11:00:00 PM 12.1 53.78 0.165 7.35 11.38 9.71
5/6/2022 11:15:00 PM 12.06 53.708 0.165 7.35 12.08 9.72
5/6/2022 11:30:00 PM 12.03 53.654 0.165 7.21 11.54 9.72
5/6/2022 11:45:00 PM 11.99 53.582 0.165 7.23 11.84 9.72
5/7/2022 12:00:00 AM 11.95 53.51 0.165 7.19 11.79 9.72
5/7/2022 12:15:00 AM 11.91 53.438 0.165 7.16 11.8 9.73
5/7/2022 12:30:00 AM 11.87 53.366 0.165 7.16 12.14 9.73
5/7/2022 12:45:00 AM 11.82 53.276 0.165 7.32 12.99 9.74
5/7/2022 1:00:00 AM 11.78 53.204 0.166 7.3 11.82 9.75
5/7/2022 1:15:00 AM 11.74 53.132 0.166 7.32 11.51 9.75
5/7/2022 1:30:00 AM 11.71 53.078 0.166 7.24 11.47 9.76
5/7/2022 1:45:00 AM 11.67 53.006 0.166 7.16 11.45 9.77
5/7/2022 2:00:00 AM 11.63 52.934 0.166 7.11 11.24 9.78
5/7/2022 2:15:00 AM 11.59 52.862 0.166 7.32 11.71 9.79
5/7/2022 2:30:00 AM 11.55 52.79 0.166 7.29 11.46 9.8
5/7/2022 2:45:00 AM 11.51 52.718 0.166 7.14 11.23 9.81
5/7/2022 3:00:00 AM 11.47 52.646 0.166 7.31 11.68 9.81
5/7/2022 3:15:00 AM 11.44 52.592 0.166 7.15 11.24 9.83
5/7/2022 3:30:00 AM 11.4 52.52 0.166 7.31 11.26 9.83
5/7/2022 3:45:00 AM 11.37 52.466 0.166 7.2 11.35 9.85
5/7/2022 4:00:00 AM 11.34 52.412 0.166 7.32 10.2 9.85
5/7/2022 4:15:00 AM 11.31 52.358 0.167 7.27 10.89 9.86
5/7/2022 4:30:00 AM 11.28 52.304 0.167 7.31 10.6 9.87
5/7/2022 4:45:00 AM 11.25 52.25 0.167 7.32 11.19 9.87
5/7/2022 5:00:00 AM 11.21 52.178 0.167 7.27 10.81 9.88
5/7/2022 5:15:00 AM 11.16 52.088 0.167 7.19 10.66 9.89
5/7/2022 5:30:00 AM 11.11 51.998 0.167 7.18 11.03 9.89
5/7/2022 5:45:00 AM 11.07 51.926 0.167 7.17 11.11 9.9
5/7/2022 6:00:00 AM 11.02 51.836 0.167 7.14 9.87 9.92
5/7/2022 6:15:00 AM 10.96 51.728 0.167 7.14 10.02 9.94
5/7/2022 6:30:00 AM 10.91 51.638 0.167 7.32 10.35 9.98
5/7/2022 6:45:00 AM 10.86 51.548 0.167 7.17 10.63 10.04
5/7/2022 7:00:00 AM 10.81 51.458 0.167 7.15 10.34 10.13
5/7/2022 7:15:00 AM 10.77 51.386 0.167 7.36 10.72 10.23
5/7/2022 7:30:00 AM 10.75 51.35 0.167 7.25 9.61 10.35
5/7/2022 7:45:00 AM 10.73 51.314 0.167 7.41 10.36 10.47
5/7/2022 8:00:00 AM 10.72 51.296 0.167 7.44 10.19 10.6
5/7/2022 8:15:00 AM 10.74 51.332 0.167 7.31 9.76 10.73
5/7/2022 8:30:00 AM 10.77 51.386 0.167 7.5 9.39 10.87
5/7/2022 8:45:00 AM 10.79 51.422 0.167 7.56 10.25 11.02
5/7/2022 9:00:00 AM 10.83 51.494 0.167 7.61 10.35 11.14
5/7/2022 9:15:00 AM